Wetterdaten: aktuell Sonntag, 03.05.2026 07:18
Datum Zeit Temp. A. Feuchte A. Luftdruck Regen Wind Richtung Richtung ET Taupunkt Windchill Windböen Empfang
03.05.2026 07:18 8,0 °C 76 % 1018,8 hPa 0,0 l/m² 0,0 km/h (0 Bft) N 0 ° 0,000 mm 4,0 °C 8,0 °C 0,0 km/h (0 Bft) 100,00 %
03.05.2026 07:17 8,0 °C 76 % 1018,9 hPa 0,0 l/m² 0,0 km/h (0 Bft) N 0 ° 0,000 mm 4,0 °C 8,0 °C 0,0 km/h (0 Bft) 100,00 %
03.05.2026 07:16 7,9 °C 76 % 1018,9 hPa 0,0 l/m² 0,0 km/h (0 Bft) N 0 ° 0,000 mm 3,9 °C 7,9 °C 0,0 km/h (0 Bft) 100,00 %
03.05.2026 07:15 7,9 °C 76 % 1018,9 hPa 0,0 l/m² 0,0 km/h (0 Bft) N 0 ° 0,000 mm 3,9 °C 7,9 °C 0,0 km/h (0 Bft) 100,00 %
03.05.2026 07:14 8,0 °C 76 % 1018,9 hPa 0,0 l/m² 0,0 km/h (0 Bft) N 0 ° 0,000 mm 4,0 °C 8,0 °C 0,0 km/h (0 Bft) 100,00 %
03.05.2026 07:13 8,0 °C 76 % 1018,9 hPa 0,0 l/m² 0,0 km/h (0 Bft) N 0 ° 0,000 mm 4,0 °C 8,0 °C 0,0 km/h (0 Bft) 100,00 %
03.05.2026 07:12 8,0 °C 76 % 1018,9 hPa 0,0 l/m² 0,0 km/h (0 Bft) N 0 ° 0,000 mm 4,0 °C 8,0 °C 0,0 km/h (0 Bft) 95,65 %
03.05.2026 07:11 8,0 °C 75 % 1018,9 hPa 0,0 l/m² 0,0 km/h (0 Bft) N 0 ° 0,000 mm 3,8 °C 8,0 °C 0,0 km/h (0 Bft) 100,00 %
03.05.2026 07:10 8,1 °C 76 % 1018,9 hPa 0,0 l/m² 0,0 km/h (0 Bft) N 0 ° 0,000 mm 4,1 °C 8,1 °C 0,0 km/h (0 Bft) 100,00 %
03.05.2026 07:09 8,1 °C 76 % 1018,9 hPa 0,0 l/m² 0,0 km/h (0 Bft) N 0 ° 0,000 mm 4,1 °C 8,1 °C 0,0 km/h (0 Bft) 100,00 %
03.05.2026 07:08 8,0 °C 76 % 1018,8 hPa 0,0 l/m² 0,0 km/h (0 Bft) N 0 ° 0,000 mm 4,0 °C 8,0 °C 0,0 km/h (0 Bft) 100,00 %
03.05.2026 07:07 7,9 °C 77 % 1018,8 hPa 0,0 l/m² 0,0 km/h (0 Bft) N 0 ° 0,000 mm 4,1 °C 7,9 °C 0,0 km/h (0 Bft) 100,00 %
03.05.2026 07:06 7,9 °C 77 % 1018,7 hPa 0,0 l/m² 0,0 km/h (0 Bft) N 0 ° 0,000 mm 4,1 °C 7,9 °C 0,0 km/h (0 Bft) 100,00 %
03.05.2026 07:05 7,8 °C 77 % 1018,8 hPa 0,0 l/m² 0,0 km/h (0 Bft) N 0 ° 0,000 mm 4,0 °C 7,8 °C 0,0 km/h (0 Bft) 100,00 %
03.05.2026 07:04 7,7 °C 78 % 1018,8 hPa 0,0 l/m² 0,0 km/h (0 Bft) N 0 ° 0,000 mm 4,1 °C 7,7 °C 0,0 km/h (0 Bft) 95,65 %
03.05.2026 07:03 7,6 °C 78 % 1018,8 hPa 0,0 l/m² 0,0 km/h (0 Bft) N 0 ° 0,000 mm 4,0 °C 7,6 °C 0,0 km/h (0 Bft) 100,00 %
03.05.2026 07:02 7,5 °C 79 % 1018,8 hPa 0,0 l/m² 0,0 km/h (0 Bft) N 0 ° 0,000 mm 4,1 °C 7,5 °C 0,0 km/h (0 Bft) 100,00 %
03.05.2026 07:01 7,4 °C 79 % 1018,8 hPa 0,0 l/m² 0,0 km/h (0 Bft) N 0 ° 0,000 mm 4,0 °C 7,4 °C 0,0 km/h (0 Bft) 100,00 %
03.05.2026 07:00 7,3 °C 79 % 1018,9 hPa 0,0 l/m² 0,0 km/h (0 Bft) N 0 ° 0,000 mm 3,9 °C 7,3 °C 0,0 km/h (0 Bft) 95,65 %
03.05.2026 06:59 7,2 °C 79 % 1018,8 hPa 0,0 l/m² 0,0 km/h (0 Bft) N 0 ° 0,000 mm 3,8 °C 7,2 °C 0,0 km/h (0 Bft) 100,00 %
03.05.2026 06:58 7,2 °C 79 % 1018,8 hPa 0,0 l/m² 0,0 km/h (0 Bft) N 0 ° 0,000 mm 3,8 °C 7,2 °C 0,0 km/h (0 Bft) 100,00 %
03.05.2026 06:57 7,1 °C 79 % 1018,9 hPa 0,0 l/m² 0,0 km/h (0 Bft) N 0 ° 0,000 mm 3,7 °C 7,1 °C 0,0 km/h (0 Bft) 100,00 %
03.05.2026 06:56 7,0 °C 79 % 1018,8 hPa 0,0 l/m² 0,0 km/h (0 Bft) N 0 ° 0,000 mm 3,6 °C 7,0 °C 0,0 km/h (0 Bft) 100,00 %
03.05.2026 06:55 6,9 °C 80 % 1018,8 hPa 0,0 l/m² 0,0 km/h (0 Bft) N 0 ° 0,000 mm 3,7 °C 6,9 °C 0,0 km/h (0 Bft) 100,00 %
03.05.2026 06:54 6,9 °C 80 % 1018,8 hPa 0,0 l/m² 0,0 km/h (0 Bft) N 0 ° 0,000 mm 3,7 °C 6,9 °C 0,0 km/h (0 Bft) 100,00 %
03.05.2026 06:53 6,9 °C 79 % 1018,8 hPa 0,0 l/m² 0,0 km/h (0 Bft) N 0 ° 0,000 mm 3,5 °C 6,9 °C 0,0 km/h (0 Bft) 100,00 %
03.05.2026 06:52 6,8 °C 79 % 1018,7 hPa 0,0 l/m² 0,0 km/h (0 Bft) N 0 ° 0,000 mm 3,4 °C 6,8 °C 0,0 km/h (0 Bft) 95,65 %
03.05.2026 06:51 6,8 °C 79 % 1018,8 hPa 0,0 l/m² 0,0 km/h (0 Bft) N 0 ° 0,000 mm 3,4 °C 6,8 °C 0,0 km/h (0 Bft) 100,00 %
03.05.2026 06:50 6,8 °C 79 % 1018,8 hPa 0,0 l/m² 0,0 km/h (0 Bft) N 0 ° 0,000 mm 3,4 °C 6,8 °C 0,0 km/h (0 Bft) 100,00 %
03.05.2026 06:49 6,9 °C 79 % 1018,8 hPa 0,0 l/m² 0,0 km/h (0 Bft) N 0 ° 0,000 mm 3,5 °C 6,9 °C 0,0 km/h (0 Bft) 100,00 %
03.05.2026 06:48 6,9 °C 79 % 1018,8 hPa 0,0 l/m² 0,0 km/h (0 Bft) N 0 ° 0,000 mm 3,5 °C 6,9 °C 0,0 km/h (0 Bft) 100,00 %
03.05.2026 06:47 6,9 °C 79 % 1018,8 hPa 0,0 l/m² 0,0 km/h (0 Bft) N 0 ° 0,000 mm 3,5 °C 6,9 °C 0,0 km/h (0 Bft) 100,00 %
03.05.2026 06:46 6,8 °C 79 % 1018,8 hPa 0,0 l/m² 0,0 km/h (0 Bft) N 0 ° 0,000 mm 3,4 °C 6,8 °C 0,0 km/h (0 Bft) 100,00 %
03.05.2026 06:45 6,8 °C 80 % 1018,8 hPa 0,0 l/m² 0,0 km/h (0 Bft) N 0 ° 0,000 mm 3,6 °C 6,8 °C 0,0 km/h (0 Bft) 100,00 %
03.05.2026 06:44 6,8 °C 80 % 1018,8 hPa 0,0 l/m² 0,0 km/h (0 Bft) N 0 ° 0,000 mm 3,6 °C 6,8 °C 0,0 km/h (0 Bft) 100,00 %
03.05.2026 06:43 6,7 °C 80 % 1018,7 hPa 0,0 l/m² 0,0 km/h (0 Bft) N 0 ° 0,000 mm 3,5 °C 6,7 °C 0,0 km/h (0 Bft) 100,00 %
03.05.2026 06:42 6,7 °C 80 % 1018,8 hPa 0,0 l/m² 0,0 km/h (0 Bft) N 0 ° 0,000 mm 3,5 °C 6,7 °C 0,0 km/h (0 Bft) 100,00 %
03.05.2026 06:41 6,6 °C 80 % 1018,6 hPa 0,0 l/m² 0,0 km/h (0 Bft) N 0 ° 0,000 mm 3,4 °C 6,6 °C 0,0 km/h (0 Bft) 100,00 %
03.05.2026 06:40 6,6 °C 80 % 1018,8 hPa 0,0 l/m² 0,0 km/h (0 Bft) N 0 ° 0,000 mm 3,4 °C 6,6 °C 0,0 km/h (0 Bft) 100,00 %
03.05.2026 06:39 6,6 °C 81 % 1018,7 hPa 0,0 l/m² 0,0 km/h (0 Bft) N 0 ° 0,000 mm 3,6 °C 6,6 °C 0,0 km/h (0 Bft) 100,00 %
03.05.2026 06:38 6,4 °C 81 % 1018,7 hPa 0,0 l/m² 0,0 km/h (0 Bft) N 0 ° 0,000 mm 3,4 °C 6,4 °C 0,0 km/h (0 Bft) 100,00 %
03.05.2026 06:37 6,4 °C 81 % 1018,7 hPa 0,0 l/m² 0,0 km/h (0 Bft) N 0 ° 0,000 mm 3,4 °C 6,4 °C 0,0 km/h (0 Bft) 100,00 %
03.05.2026 06:36 6,4 °C 81 % 1018,7 hPa 0,0 l/m² 0,0 km/h (0 Bft) N 0 ° 0,000 mm 3,4 °C 6,4 °C 0,0 km/h (0 Bft) 100,00 %
03.05.2026 06:35 6,4 °C 81 % 1018,8 hPa 0,0 l/m² 0,0 km/h (0 Bft) N 0 ° 0,000 mm 3,4 °C 6,4 °C 0,0 km/h (0 Bft) 100,00 %
03.05.2026 06:34 6,3 °C 81 % 1018,7 hPa 0,0 l/m² 0,0 km/h (0 Bft) N 0 ° 0,000 mm 3,3 °C 6,3 °C 0,0 km/h (0 Bft) 100,00 %
03.05.2026 06:33 6,3 °C 81 % 1018,7 hPa 0,0 l/m² 0,0 km/h (0 Bft) N 0 ° 0,000 mm 3,3 °C 6,3 °C 0,0 km/h (0 Bft) 100,00 %
03.05.2026 06:32 6,3 °C 81 % 1018,7 hPa 0,0 l/m² 0,0 km/h (0 Bft) N 0 ° 0,000 mm 3,3 °C 6,3 °C 0,0 km/h (0 Bft) 100,00 %
03.05.2026 06:31 6,3 °C 81 % 1018,8 hPa 0,0 l/m² 0,0 km/h (0 Bft) N 0 ° 0,000 mm 3,3 °C 6,3 °C 0,0 km/h (0 Bft) 100,00 %
03.05.2026 06:30 6,3 °C 81 % 1018,7 hPa 0,0 l/m² 0,0 km/h (0 Bft) N 0 ° 0,000 mm 3,3 °C 6,3 °C 0,0 km/h (0 Bft) 100,00 %
03.05.2026 06:29 6,3 °C 81 % 1018,8 hPa 0,0 l/m² 0,0 km/h (0 Bft) N 0 ° 0,000 mm 3,3 °C 6,3 °C 0,0 km/h (0 Bft) 100,00 %
03.05.2026 06:28 6,3 °C 81 % 1018,7 hPa 0,0 l/m² 0,0 km/h (0 Bft) N 0 ° 0,000 mm 3,3 °C 6,3 °C 0,0 km/h (0 Bft) 100,00 %
03.05.2026 06:27 6,3 °C 81 % 1018,7 hPa 0,0 l/m² 0,0 km/h (0 Bft) N 0 ° 0,000 mm 3,3 °C 6,3 °C 0,0 km/h (0 Bft) 100,00 %
03.05.2026 06:26 6,2 °C 82 % 1018,7 hPa 0,0 l/m² 0,0 km/h (0 Bft) N 0 ° 0,000 mm 3,4 °C 6,2 °C 0,0 km/h (0 Bft) 100,00 %
03.05.2026 06:25 6,2 °C 82 % 1018,7 hPa 0,0 l/m² 0,0 km/h (0 Bft) N 0 ° 0,000 mm 3,4 °C 6,2 °C 0,0 km/h (0 Bft) 100,00 %
03.05.2026 06:24 6,2 °C 81 % 1018,8 hPa 0,0 l/m² 0,0 km/h (0 Bft) N 0 ° 0,000 mm 3,2 °C 6,2 °C 0,0 km/h (0 Bft) 100,00 %
03.05.2026 06:23 6,2 °C 82 % 1018,7 hPa 0,0 l/m² 0,0 km/h (0 Bft) N 0 ° 0,000 mm 3,4 °C 6,2 °C 0,0 km/h (0 Bft) 100,00 %
03.05.2026 06:22 6,2 °C 82 % 1018,6 hPa 0,0 l/m² 0,0 km/h (0 Bft) N 0 ° 0,000 mm 3,4 °C 6,2 °C 0,0 km/h (0 Bft) 100,00 %
03.05.2026 06:21 6,2 °C 82 % 1018,6 hPa 0,0 l/m² 0,0 km/h (0 Bft) N 0 ° 0,000 mm 3,4 °C 6,2 °C 0,0 km/h (0 Bft) 100,00 %
03.05.2026 06:20 6,1 °C 82 % 1018,6 hPa 0,0 l/m² 0,0 km/h (0 Bft) N 0 ° 0,000 mm 3,3 °C 6,1 °C 0,0 km/h (0 Bft) 100,00 %
03.05.2026 06:19 6,1 °C 82 % 1018,7 hPa 0,0 l/m² 0,0 km/h (0 Bft) N 0 ° 0,000 mm 3,3 °C 6,1 °C 0,0 km/h (0 Bft) 95,65 %
03.05.2026 06:18 6,0 °C 82 % 1018,6 hPa 0,0 l/m² 0,0 km/h (0 Bft) N 0 ° 0,000 mm 3,2 °C 6,0 °C 0,0 km/h (0 Bft) 95,65 %
03.05.2026 06:17 6,0 °C 82 % 1018,7 hPa 0,0 l/m² 0,0 km/h (0 Bft) N 0 ° 0,000 mm 3,2 °C 6,0 °C 0,0 km/h (0 Bft) 100,00 %
03.05.2026 06:16 6,0 °C 82 % 1018,7 hPa 0,0 l/m² 0,0 km/h (0 Bft) N 0 ° 0,000 mm 3,2 °C 6,0 °C 0,0 km/h (0 Bft) 95,65 %
03.05.2026 06:15 5,9 °C 82 % 1018,7 hPa 0,0 l/m² 0,0 km/h (0 Bft) N 0 ° 0,000 mm 3,1 °C 5,9 °C 0,0 km/h (0 Bft) 100,00 %
03.05.2026 06:14 5,9 °C 82 % 1018,7 hPa 0,0 l/m² 0,0 km/h (0 Bft) N 0 ° 0,000 mm 3,1 °C 5,9 °C 0,0 km/h (0 Bft) 100,00 %
03.05.2026 06:13 5,9 °C 82 % 1018,6 hPa 0,0 l/m² 0,0 km/h (0 Bft) N 0 ° 0,000 mm 3,1 °C 5,9 °C 0,0 km/h (0 Bft) 100,00 %
03.05.2026 06:12 5,9 °C 82 % 1018,8 hPa 0,0 l/m² 0,0 km/h (0 Bft) N 0 ° 0,000 mm 3,1 °C 5,9 °C 0,0 km/h (0 Bft) 100,00 %
03.05.2026 06:11 5,8 °C 82 % 1018,7 hPa 0,0 l/m² 0,0 km/h (0 Bft) N 0 ° 0,000 mm 3,0 °C 5,8 °C 0,0 km/h (0 Bft) 100,00 %
03.05.2026 06:10 5,8 °C 82 % 1018,6 hPa 0,0 l/m² 0,0 km/h (0 Bft) N 0 ° 0,000 mm 3,0 °C 5,8 °C 0,0 km/h (0 Bft) 100,00 %
03.05.2026 06:09 5,9 °C 82 % 1018,6 hPa 0,0 l/m² 0,0 km/h (0 Bft) N 0 ° 0,000 mm 3,1 °C 5,9 °C 0,0 km/h (0 Bft) 100,00 %
03.05.2026 06:08 5,8 °C 82 % 1018,7 hPa 0,0 l/m² 0,0 km/h (0 Bft) N 0 ° 0,000 mm 3,0 °C 5,8 °C 0,0 km/h (0 Bft) 100,00 %
03.05.2026 06:07 5,8 °C 82 % 1018,6 hPa 0,0 l/m² 0,0 km/h (0 Bft) N 0 ° 0,000 mm 3,0 °C 5,8 °C 0,0 km/h (0 Bft) 100,00 %
03.05.2026 06:06 5,8 °C 82 % 1018,7 hPa 0,0 l/m² 0,0 km/h (0 Bft) N 0 ° 0,000 mm 3,0 °C 5,8 °C 0,0 km/h (0 Bft) 100,00 %
03.05.2026 06:05 5,8 °C 82 % 1018,7 hPa 0,0 l/m² 0,0 km/h (0 Bft) N 0 ° 0,000 mm 3,0 °C 5,8 °C 0,0 km/h (0 Bft) 100,00 %
03.05.2026 06:04 5,8 °C 83 % 1018,6 hPa 0,0 l/m² 0,0 km/h (0 Bft) N 0 ° 0,000 mm 3,1 °C 5,8 °C 0,0 km/h (0 Bft) 100,00 %
03.05.2026 06:03 5,8 °C 83 % 1018,6 hPa 0,0 l/m² 0,0 km/h (0 Bft) N 0 ° 0,000 mm 3,1 °C 5,8 °C 0,0 km/h (0 Bft) 100,00 %
03.05.2026 06:02 5,7 °C 83 % 1018,6 hPa 0,0 l/m² 0,0 km/h (0 Bft) N 0 ° 0,000 mm 3,0 °C 5,7 °C 0,0 km/h (0 Bft) 100,00 %
03.05.2026 06:01 5,7 °C 83 % 1018,6 hPa 0,0 l/m² 0,0 km/h (0 Bft) N 0 ° 0,000 mm 3,0 °C 5,7 °C 0,0 km/h (0 Bft) 100,00 %
03.05.2026 06:00 5,7 °C 83 % 1018,6 hPa 0,0 l/m² 0,0 km/h (0 Bft) N 0 ° 0,000 mm 3,0 °C 5,7 °C 0,0 km/h (0 Bft) 100,00 %
03.05.2026 05:59 5,7 °C 83 % 1018,6 hPa 0,0 l/m² 0,0 km/h (0 Bft) N 0 ° 0,000 mm 3,0 °C 5,7 °C 0,0 km/h (0 Bft) 100,00 %
03.05.2026 05:58 5,6 °C 83 % 1018,6 hPa 0,0 l/m² 0,0 km/h (0 Bft) N 0 ° 0,000 mm 2,9 °C 5,6 °C 0,0 km/h (0 Bft) 100,00 %
03.05.2026 05:57 5,6 °C 83 % 1018,5 hPa 0,0 l/m² 0,0 km/h (0 Bft) N 0 ° 0,000 mm 2,9 °C 5,6 °C 0,0 km/h (0 Bft) 100,00 %
03.05.2026 05:56 5,6 °C 83 % 1018,6 hPa 0,0 l/m² 0,0 km/h (0 Bft) N 0 ° 0,000 mm 2,9 °C 5,6 °C 0,0 km/h (0 Bft) 100,00 %
03.05.2026 05:55 5,6 °C 83 % 1018,5 hPa 0,0 l/m² 0,0 km/h (0 Bft) N 0 ° 0,000 mm 2,9 °C 5,6 °C 0,0 km/h (0 Bft) 100,00 %
03.05.2026 05:54 5,6 °C 83 % 1018,5 hPa 0,0 l/m² 0,0 km/h (0 Bft) N 0 ° 0,000 mm 2,9 °C 5,6 °C 0,0 km/h (0 Bft) 100,00 %
03.05.2026 05:53 5,6 °C 83 % 1018,6 hPa 0,0 l/m² 0,0 km/h (0 Bft) N 0 ° 0,000 mm 2,9 °C 5,6 °C 0,0 km/h (0 Bft) 100,00 %
03.05.2026 05:52 5,5 °C 83 % 1018,5 hPa 0,0 l/m² 0,0 km/h (0 Bft) N 0 ° 0,000 mm 2,8 °C 5,5 °C 0,0 km/h (0 Bft) 100,00 %
03.05.2026 05:51 5,4 °C 83 % 1018,6 hPa 0,0 l/m² 0,0 km/h (0 Bft) N 0 ° 0,000 mm 2,7 °C 5,4 °C 0,0 km/h (0 Bft) 100,00 %
03.05.2026 05:50 5,4 °C 83 % 1018,5 hPa 0,0 l/m² 0,0 km/h (0 Bft) N 0 ° 0,000 mm 2,7 °C 5,4 °C 0,0 km/h (0 Bft) 95,65 %
03.05.2026 05:49 5,4 °C 83 % 1018,6 hPa 0,0 l/m² 0,0 km/h (0 Bft) N 0 ° 0,000 mm 2,7 °C 5,4 °C 0,0 km/h (0 Bft) 95,65 %
03.05.2026 05:48 5,5 °C 82 % 1018,5 hPa 0,0 l/m² 0,0 km/h (0 Bft) N 0 ° 0,000 mm 2,7 °C 5,5 °C 0,0 km/h (0 Bft) 100,00 %
03.05.2026 05:47 5,5 °C 82 % 1018,5 hPa 0,0 l/m² 0,0 km/h (0 Bft) N 0 ° 0,000 mm 2,7 °C 5,5 °C 0,0 km/h (0 Bft) 100,00 %
03.05.2026 05:46 5,6 °C 82 % 1018,6 hPa 0,0 l/m² 0,0 km/h (0 Bft) N 0 ° 0,000 mm 2,8 °C 5,6 °C 0,0 km/h (0 Bft) 100,00 %
03.05.2026 05:45 5,6 °C 82 % 1018,5 hPa 0,0 l/m² 0,0 km/h (0 Bft) N 0 ° 0,000 mm 2,8 °C 5,6 °C 0,0 km/h (0 Bft) 95,65 %
03.05.2026 05:44 5,6 °C 83 % 1018,6 hPa 0,0 l/m² 0,0 km/h (0 Bft) N 0 ° 0,000 mm 2,9 °C 5,6 °C 0,0 km/h (0 Bft) 100,00 %
03.05.2026 05:43 5,6 °C 83 % 1018,5 hPa 0,0 l/m² 0,0 km/h (0 Bft) N 0 ° 0,000 mm 2,9 °C 5,6 °C 0,0 km/h (0 Bft) 100,00 %
03.05.2026 05:42 5,6 °C 83 % 1018,6 hPa 0,0 l/m² 0,0 km/h (0 Bft) N 0 ° 0,000 mm 2,9 °C 5,6 °C 0,0 km/h (0 Bft) 100,00 %
03.05.2026 05:41 5,6 °C 83 % 1018,7 hPa 0,0 l/m² 0,0 km/h (0 Bft) N 0 ° 0,000 mm 2,9 °C 5,6 °C 0,0 km/h (0 Bft) 100,00 %
03.05.2026 05:40 5,7 °C 83 % 1018,6 hPa 0,0 l/m² 0,0 km/h (0 Bft) N 0 ° 0,000 mm 3,0 °C 5,7 °C 0,0 km/h (0 Bft) 100,00 %
03.05.2026 05:39 5,7 °C 83 % 1018,7 hPa 0,0 l/m² 0,0 km/h (0 Bft) N 0 ° 0,000 mm 3,0 °C 5,7 °C 0,0 km/h (0 Bft) 100,00 %
03.05.2026 05:38 5,7 °C 83 % 1018,6 hPa 0,0 l/m² 0,0 km/h (0 Bft) N 0 ° 0,000 mm 3,0 °C 5,7 °C 0,0 km/h (0 Bft) 95,65 %
03.05.2026 05:37 5,7 °C 82 % 1018,5 hPa 0,0 l/m² 0,0 km/h (0 Bft) N 0 ° 0,000 mm 2,9 °C 5,7 °C 0,0 km/h (0 Bft) 100,00 %
03.05.2026 05:36 5,7 °C 82 % 1018,6 hPa 0,0 l/m² 0,0 km/h (0 Bft) N 0 ° 0,000 mm 2,9 °C 5,7 °C 0,0 km/h (0 Bft) 100,00 %
03.05.2026 05:35 5,7 °C 82 % 1018,6 hPa 0,0 l/m² 0,0 km/h (0 Bft) N 0 ° 0,000 mm 2,9 °C 5,7 °C 0,0 km/h (0 Bft) 95,65 %
03.05.2026 05:34 5,7 °C 82 % 1018,6 hPa 0,0 l/m² 0,0 km/h (0 Bft) N 0 ° 0,000 mm 2,9 °C 5,7 °C 0,0 km/h (0 Bft) 100,00 %
03.05.2026 05:33 5,7 °C 82 % 1018,6 hPa 0,0 l/m² 0,0 km/h (0 Bft) N 0 ° 0,000 mm 2,9 °C 5,7 °C 0,0 km/h (0 Bft) 100,00 %
03.05.2026 05:32 5,7 °C 82 % 1018,5 hPa 0,0 l/m² 0,0 km/h (0 Bft) N 0 ° 0,000 mm 2,9 °C 5,7 °C 0,0 km/h (0 Bft) 95,65 %
03.05.2026 05:31 5,7 °C 82 % 1018,6 hPa 0,0 l/m² 0,0 km/h (0 Bft) N 0 ° 0,000 mm 2,9 °C 5,7 °C 0,0 km/h (0 Bft) 100,00 %
03.05.2026 05:30 5,8 °C 82 % 1018,6 hPa 0,0 l/m² 0,0 km/h (0 Bft) N 0 ° 0,000 mm 3,0 °C 5,8 °C 0,0 km/h (0 Bft) 100,00 %
03.05.2026 05:29 5,8 °C 82 % 1018,7 hPa 0,0 l/m² 0,0 km/h (0 Bft) N 0 ° 0,000 mm 3,0 °C 5,8 °C 0,0 km/h (0 Bft) 100,00 %
03.05.2026 05:28 5,8 °C 82 % 1018,6 hPa 0,0 l/m² 0,0 km/h (0 Bft) N 0 ° 0,000 mm 3,0 °C 5,8 °C 0,0 km/h (0 Bft) 100,00 %
03.05.2026 05:27 5,8 °C 82 % 1018,6 hPa 0,0 l/m² 0,0 km/h (0 Bft) N 0 ° 0,000 mm 3,0 °C 5,8 °C 0,0 km/h (0 Bft) 100,00 %
03.05.2026 05:26 5,8 °C 82 % 1018,6 hPa 0,0 l/m² 0,0 km/h (0 Bft) N 0 ° 0,000 mm 3,0 °C 5,8 °C 0,0 km/h (0 Bft) 100,00 %
03.05.2026 05:25 5,8 °C 82 % 1018,6 hPa 0,0 l/m² 0,0 km/h (0 Bft) N 0 ° 0,000 mm 3,0 °C 5,8 °C 0,0 km/h (0 Bft) 100,00 %
03.05.2026 05:24 5,8 °C 82 % 1018,5 hPa 0,0 l/m² 0,0 km/h (0 Bft) N 0 ° 0,000 mm 3,0 °C 5,8 °C 0,0 km/h (0 Bft) 100,00 %
03.05.2026 05:23 5,8 °C 82 % 1018,5 hPa 0,0 l/m² 0,0 km/h (0 Bft) N 0 ° 0,000 mm 3,0 °C 5,8 °C 0,0 km/h (0 Bft) 100,00 %
03.05.2026 05:22 5,9 °C 82 % 1018,5 hPa 0,0 l/m² 0,0 km/h (0 Bft) N 0 ° 0,000 mm 3,1 °C 5,9 °C 0,0 km/h (0 Bft) 100,00 %
03.05.2026 05:21 5,8 °C 82 % 1018,5 hPa 0,0 l/m² 0,0 km/h (0 Bft) N 0 ° 0,000 mm 3,0 °C 5,8 °C 0,0 km/h (0 Bft) 100,00 %
03.05.2026 05:20 5,9 °C 82 % 1018,5 hPa 0,0 l/m² 0,0 km/h (0 Bft) N 0 ° 0,000 mm 3,1 °C 5,9 °C 0,0 km/h (0 Bft) 100,00 %
03.05.2026 05:19 5,9 °C 82 % 1018,5 hPa 0,0 l/m² 0,0 km/h (0 Bft) N 0 ° 0,000 mm 3,1 °C 5,9 °C 0,0 km/h (0 Bft) 100,00 %
03.05.2026 05:18 5,9 °C 82 % 1018,4 hPa 0,0 l/m² 0,0 km/h (0 Bft) N 0 ° 0,000 mm 3,1 °C 5,9 °C 0,0 km/h (0 Bft) 100,00 %
03.05.2026 05:17 5,9 °C 82 % 1018,5 hPa 0,0 l/m² 0,0 km/h (0 Bft) N 0 ° 0,000 mm 3,1 °C 5,9 °C 0,0 km/h (0 Bft) 100,00 %
03.05.2026 05:16 5,9 °C 82 % 1018,4 hPa 0,0 l/m² 0,0 km/h (0 Bft) N 0 ° 0,000 mm 3,1 °C 5,9 °C 0,0 km/h (0 Bft) 100,00 %
03.05.2026 05:15 5,9 °C 82 % 1018,5 hPa 0,0 l/m² 0,0 km/h (0 Bft) N 0 ° 0,000 mm 3,1 °C 5,9 °C 0,0 km/h (0 Bft) 100,00 %
03.05.2026 05:14 6,0 °C 82 % 1018,5 hPa 0,0 l/m² 0,0 km/h (0 Bft) N 0 ° 0,000 mm 3,2 °C 6,0 °C 0,0 km/h (0 Bft) 100,00 %
03.05.2026 05:13 6,0 °C 82 % 1018,5 hPa 0,0 l/m² 0,0 km/h (0 Bft) N 0 ° 0,000 mm 3,2 °C 6,0 °C 0,0 km/h (0 Bft) 100,00 %
03.05.2026 05:12 6,0 °C 82 % 1018,5 hPa 0,0 l/m² 0,0 km/h (0 Bft) N 0 ° 0,000 mm 3,2 °C 6,0 °C 0,0 km/h (0 Bft) 100,00 %
03.05.2026 05:11 6,0 °C 82 % 1018,5 hPa 0,0 l/m² 0,0 km/h (0 Bft) N 0 ° 0,000 mm 3,2 °C 6,0 °C 0,0 km/h (0 Bft) 95,65 %
03.05.2026 05:10 6,0 °C 82 % 1018,5 hPa 0,0 l/m² 0,0 km/h (0 Bft) N 0 ° 0,000 mm 3,2 °C 6,0 °C 0,0 km/h (0 Bft) 100,00 %
03.05.2026 05:09 6,0 °C 82 % 1018,4 hPa 0,0 l/m² 0,0 km/h (0 Bft) N 0 ° 0,000 mm 3,2 °C 6,0 °C 0,0 km/h (0 Bft) 95,65 %
03.05.2026 05:08 5,9 °C 82 % 1018,5 hPa 0,0 l/m² 0,0 km/h (0 Bft) N 0 ° 0,000 mm 3,1 °C 5,9 °C 0,0 km/h (0 Bft) 100,00 %
03.05.2026 05:07 5,9 °C 82 % 1018,4 hPa 0,0 l/m² 0,0 km/h (0 Bft) N 0 ° 0,000 mm 3,1 °C 5,9 °C 0,0 km/h (0 Bft) 100,00 %
03.05.2026 05:06 5,9 °C 82 % 1018,5 hPa 0,0 l/m² 0,0 km/h (0 Bft) N 0 ° 0,000 mm 3,1 °C 5,9 °C 0,0 km/h (0 Bft) 100,00 %
03.05.2026 05:05 5,9 °C 82 % 1018,5 hPa 0,0 l/m² 0,0 km/h (0 Bft) N 0 ° 0,000 mm 3,1 °C 5,9 °C 0,0 km/h (0 Bft) 100,00 %
03.05.2026 05:04 5,9 °C 81 % 1018,5 hPa 0,0 l/m² 0,0 km/h (0 Bft) N 0 ° 0,000 mm 2,9 °C 5,9 °C 0,0 km/h (0 Bft) 100,00 %
03.05.2026 05:03 5,9 °C 81 % 1018,6 hPa 0,0 l/m² 0,0 km/h (0 Bft) N 0 ° 0,000 mm 2,9 °C 5,9 °C 0,0 km/h (0 Bft) 100,00 %
03.05.2026 05:02 5,9 °C 81 % 1018,5 hPa 0,0 l/m² 0,0 km/h (0 Bft) N 0 ° 0,000 mm 2,9 °C 5,9 °C 0,0 km/h (0 Bft) 100,00 %
03.05.2026 05:01 5,9 °C 81 % 1018,5 hPa 0,0 l/m² 0,0 km/h (0 Bft) N 0 ° 0,000 mm 2,9 °C 5,9 °C 0,0 km/h (0 Bft) 100,00 %
03.05.2026 05:00 6,0 °C 81 % 1018,6 hPa 0,0 l/m² 0,0 km/h (0 Bft) N 0 ° 0,000 mm 3,0 °C 6,0 °C 0,0 km/h (0 Bft) 100,00 %
03.05.2026 04:59 6,0 °C 81 % 1018,6 hPa 0,0 l/m² 0,0 km/h (0 Bft) N 0 ° 0,000 mm 3,0 °C 6,0 °C 0,0 km/h (0 Bft) 95,65 %
03.05.2026 04:58 6,0 °C 81 % 1018,5 hPa 0,0 l/m² 0,0 km/h (0 Bft) N 0 ° 0,000 mm 3,0 °C 6,0 °C 0,0 km/h (0 Bft) 100,00 %
03.05.2026 04:57 6,1 °C 81 % 1018,5 hPa 0,0 l/m² 0,0 km/h (0 Bft) N 0 ° 0,000 mm 3,1 °C 6,1 °C 0,0 km/h (0 Bft) 100,00 %
03.05.2026 04:56 6,1 °C 81 % 1018,6 hPa 0,0 l/m² 0,0 km/h (0 Bft) N 0 ° 0,000 mm 3,1 °C 6,1 °C 0,0 km/h (0 Bft) 100,00 %
03.05.2026 04:55 6,1 °C 81 % 1018,6 hPa 0,0 l/m² 0,0 km/h (0 Bft) N 0 ° 0,000 mm 3,1 °C 6,1 °C 0,0 km/h (0 Bft) 100,00 %
03.05.2026 04:54 6,1 °C 81 % 1018,5 hPa 0,0 l/m² 0,0 km/h (0 Bft) N 0 ° 0,000 mm 3,1 °C 6,1 °C 0,0 km/h (0 Bft) 100,00 %
03.05.2026 04:53 6,1 °C 81 % 1018,6 hPa 0,0 l/m² 0,0 km/h (0 Bft) N 0 ° 0,000 mm 3,1 °C 6,1 °C 0,0 km/h (0 Bft) 100,00 %
03.05.2026 04:52 6,1 °C 81 % 1018,6 hPa 0,0 l/m² 0,0 km/h (0 Bft) N 0 ° 0,000 mm 3,1 °C 6,1 °C 0,0 km/h (0 Bft) 100,00 %
03.05.2026 04:51 6,1 °C 80 % 1018,6 hPa 0,0 l/m² 0,0 km/h (0 Bft) N 0 ° 0,000 mm 2,9 °C 6,1 °C 0,0 km/h (0 Bft) 100,00 %
03.05.2026 04:50 6,1 °C 80 % 1018,5 hPa 0,0 l/m² 0,0 km/h (0 Bft) N 0 ° 0,000 mm 2,9 °C 6,1 °C 0,0 km/h (0 Bft) 100,00 %
03.05.2026 04:49 6,2 °C 80 % 1018,6 hPa 0,0 l/m² 0,0 km/h (0 Bft) N 0 ° 0,000 mm 3,0 °C 6,2 °C 0,0 km/h (0 Bft) 100,00 %
03.05.2026 04:48 6,2 °C 80 % 1018,6 hPa 0,0 l/m² 0,0 km/h (0 Bft) N 0 ° 0,000 mm 3,0 °C 6,2 °C 0,0 km/h (0 Bft) 100,00 %
03.05.2026 04:47 6,2 °C 80 % 1018,7 hPa 0,0 l/m² 0,0 km/h (0 Bft) N 0 ° 0,000 mm 3,0 °C 6,2 °C 0,0 km/h (0 Bft) 95,65 %
03.05.2026 04:46 6,3 °C 80 % 1018,7 hPa 0,0 l/m² 0,0 km/h (0 Bft) N 0 ° 0,000 mm 3,1 °C 6,3 °C 0,0 km/h (0 Bft) 100,00 %
03.05.2026 04:45 6,3 °C 80 % 1018,7 hPa 0,0 l/m² 0,0 km/h (0 Bft) N 0 ° 0,000 mm 3,1 °C 6,3 °C 0,0 km/h (0 Bft) 100,00 %
03.05.2026 04:44 6,3 °C 80 % 1018,7 hPa 0,0 l/m² 0,0 km/h (0 Bft) N 0 ° 0,000 mm 3,1 °C 6,3 °C 0,0 km/h (0 Bft) 95,65 %
03.05.2026 04:43 6,4 °C 80 % 1018,7 hPa 0,0 l/m² 0,0 km/h (0 Bft) N 0 ° 0,000 mm 3,2 °C 6,4 °C 0,0 km/h (0 Bft) 100,00 %
03.05.2026 04:42 6,4 °C 80 % 1018,7 hPa 0,0 l/m² 0,0 km/h (0 Bft) N 0 ° 0,000 mm 3,2 °C 6,4 °C 0,0 km/h (0 Bft) 100,00 %
03.05.2026 04:41 6,5 °C 80 % 1018,7 hPa 0,0 l/m² 0,0 km/h (0 Bft) N 0 ° 0,000 mm 3,3 °C 6,5 °C 0,0 km/h (0 Bft) 100,00 %
03.05.2026 04:40 6,6 °C 80 % 1018,7 hPa 0,0 l/m² 0,0 km/h (0 Bft) N 0 ° 0,000 mm 3,4 °C 6,6 °C 0,0 km/h (0 Bft) 95,65 %
03.05.2026 04:39 6,6 °C 80 % 1018,7 hPa 0,0 l/m² 0,0 km/h (0 Bft) N 0 ° 0,000 mm 3,4 °C 6,6 °C 0,0 km/h (0 Bft) 100,00 %
03.05.2026 04:38 6,6 °C 80 % 1018,8 hPa 0,0 l/m² 0,0 km/h (0 Bft) N 0 ° 0,000 mm 3,4 °C 6,6 °C 0,0 km/h (0 Bft) 100,00 %
03.05.2026 04:37 6,6 °C 80 % 1018,7 hPa 0,0 l/m² 0,0 km/h (0 Bft) N 0 ° 0,000 mm 3,4 °C 6,6 °C 0,0 km/h (0 Bft) 100,00 %
03.05.2026 04:36 6,6 °C 80 % 1018,7 hPa 0,0 l/m² 0,0 km/h (0 Bft) N 0 ° 0,000 mm 3,4 °C 6,6 °C 0,0 km/h (0 Bft) 100,00 %
03.05.2026 04:35 6,6 °C 80 % 1018,6 hPa 0,0 l/m² 0,0 km/h (0 Bft) N 0 ° 0,000 mm 3,4 °C 6,6 °C 0,0 km/h (0 Bft) 95,65 %
03.05.2026 04:34 6,6 °C 80 % 1018,8 hPa 0,0 l/m² 0,0 km/h (0 Bft) N 0 ° 0,000 mm 3,4 °C 6,6 °C 0,0 km/h (0 Bft) 100,00 %
03.05.2026 04:33 6,6 °C 80 % 1018,8 hPa 0,0 l/m² 0,0 km/h (0 Bft) N 0 ° 0,000 mm 3,4 °C 6,6 °C 0,0 km/h (0 Bft) 100,00 %
03.05.2026 04:32 6,6 °C 80 % 1018,8 hPa 0,0 l/m² 0,0 km/h (0 Bft) N 0 ° 0,000 mm 3,4 °C 6,6 °C 0,0 km/h (0 Bft) 95,65 %
03.05.2026 04:31 6,6 °C 80 % 1018,7 hPa 0,0 l/m² 0,0 km/h (0 Bft) N 0 ° 0,000 mm 3,4 °C 6,6 °C 0,0 km/h (0 Bft) 100,00 %
03.05.2026 04:30 6,6 °C 80 % 1018,8 hPa 0,0 l/m² 0,0 km/h (0 Bft) N 0 ° 0,000 mm 3,4 °C 6,6 °C 0,0 km/h (0 Bft) 100,00 %
03.05.2026 04:29 6,6 °C 80 % 1018,8 hPa 0,0 l/m² 0,0 km/h (0 Bft) N 0 ° 0,000 mm 3,4 °C 6,6 °C 0,0 km/h (0 Bft) 100,00 %
03.05.2026 04:28 6,6 °C 81 % 1018,7 hPa 0,0 l/m² 0,0 km/h (0 Bft) N 0 ° 0,000 mm 3,6 °C 6,6 °C 0,0 km/h (0 Bft) 100,00 %
03.05.2026 04:27 6,5 °C 81 % 1018,8 hPa 0,0 l/m² 0,0 km/h (0 Bft) N 0 ° 0,000 mm 3,5 °C 6,5 °C 0,0 km/h (0 Bft) 100,00 %
03.05.2026 04:26 6,4 °C 81 % 1018,8 hPa 0,0 l/m² 0,0 km/h (0 Bft) N 0 ° 0,000 mm 3,4 °C 6,4 °C 0,0 km/h (0 Bft) 100,00 %
03.05.2026 04:25 6,4 °C 81 % 1018,7 hPa 0,0 l/m² 0,0 km/h (0 Bft) N 0 ° 0,000 mm 3,4 °C 6,4 °C 0,0 km/h (0 Bft) 100,00 %
03.05.2026 04:24 6,3 °C 82 % 1018,8 hPa 0,0 l/m² 0,0 km/h (0 Bft) N 0 ° 0,000 mm 3,5 °C 6,3 °C 0,0 km/h (0 Bft) 100,00 %
03.05.2026 04:23 6,3 °C 81 % 1018,8 hPa 0,0 l/m² 0,0 km/h (0 Bft) N 0 ° 0,000 mm 3,3 °C 6,3 °C 0,0 km/h (0 Bft) 100,00 %
03.05.2026 04:22 6,3 °C 81 % 1018,8 hPa 0,0 l/m² 0,0 km/h (0 Bft) N 0 ° 0,000 mm 3,3 °C 6,3 °C 0,0 km/h (0 Bft) 100,00 %
03.05.2026 04:21 6,3 °C 81 % 1018,8 hPa 0,0 l/m² 0,0 km/h (0 Bft) N 0 ° 0,000 mm 3,3 °C 6,3 °C 0,0 km/h (0 Bft) 100,00 %
03.05.2026 04:20 6,3 °C 81 % 1018,8 hPa 0,0 l/m² 0,0 km/h (0 Bft) N 0 ° 0,000 mm 3,3 °C 6,3 °C 0,0 km/h (0 Bft) 100,00 %
03.05.2026 04:19 6,3 °C 81 % 1018,8 hPa 0,0 l/m² 0,0 km/h (0 Bft) N 0 ° 0,000 mm 3,3 °C 6,3 °C 0,0 km/h (0 Bft) 100,00 %
03.05.2026 04:18 6,3 °C 81 % 1018,7 hPa 0,0 l/m² 0,0 km/h (0 Bft) N 0 ° 0,000 mm 3,3 °C 6,3 °C 0,0 km/h (0 Bft) 100,00 %
03.05.2026 04:17 6,3 °C 81 % 1018,8 hPa 0,0 l/m² 0,0 km/h (0 Bft) N 0 ° 0,000 mm 3,3 °C 6,3 °C 0,0 km/h (0 Bft) 100,00 %
03.05.2026 04:16 6,3 °C 81 % 1018,8 hPa 0,0 l/m² 0,0 km/h (0 Bft) N 0 ° 0,000 mm 3,3 °C 6,3 °C 0,0 km/h (0 Bft) 95,65 %
03.05.2026 04:15 6,3 °C 81 % 1018,7 hPa 0,0 l/m² 0,0 km/h (0 Bft) N 0 ° 0,000 mm 3,3 °C 6,3 °C 0,0 km/h (0 Bft) 100,00 %
03.05.2026 04:14 6,3 °C 81 % 1018,8 hPa 0,0 l/m² 0,0 km/h (0 Bft) N 0 ° 0,000 mm 3,3 °C 6,3 °C 0,0 km/h (0 Bft) 100,00 %
03.05.2026 04:13 6,3 °C 81 % 1018,8 hPa 0,0 l/m² 0,0 km/h (0 Bft) N 0 ° 0,000 mm 3,3 °C 6,3 °C 0,0 km/h (0 Bft) 100,00 %
03.05.2026 04:12 6,3 °C 81 % 1018,8 hPa 0,0 l/m² 0,0 km/h (0 Bft) N 0 ° 0,000 mm 3,3 °C 6,3 °C 0,0 km/h (0 Bft) 100,00 %
03.05.2026 04:11 6,3 °C 81 % 1018,7 hPa 0,0 l/m² 0,0 km/h (0 Bft) N 0 ° 0,000 mm 3,3 °C 6,3 °C 0,0 km/h (0 Bft) 100,00 %
03.05.2026 04:10 6,3 °C 80 % 1018,8 hPa 0,0 l/m² 0,0 km/h (0 Bft) N 0 ° 0,000 mm 3,1 °C 6,3 °C 0,0 km/h (0 Bft) 100,00 %
03.05.2026 04:09 6,3 °C 80 % 1018,8 hPa 0,0 l/m² 0,0 km/h (0 Bft) N 0 ° 0,000 mm 3,1 °C 6,3 °C 0,0 km/h (0 Bft) 100,00 %
03.05.2026 04:08 6,3 °C 80 % 1018,8 hPa 0,0 l/m² 0,0 km/h (0 Bft) N 0 ° 0,000 mm 3,1 °C 6,3 °C 0,0 km/h (0 Bft) 95,65 %
03.05.2026 04:07 6,4 °C 80 % 1018,8 hPa 0,0 l/m² 0,0 km/h (0 Bft) N 0 ° 0,000 mm 3,2 °C 6,4 °C 0,0 km/h (0 Bft) 100,00 %
03.05.2026 04:06 6,4 °C 80 % 1018,8 hPa 0,0 l/m² 0,0 km/h (0 Bft) N 0 ° 0,000 mm 3,2 °C 6,4 °C 0,0 km/h (0 Bft) 100,00 %
03.05.2026 04:05 6,4 °C 80 % 1018,8 hPa 0,0 l/m² 0,0 km/h (0 Bft) N 0 ° 0,000 mm 3,2 °C 6,4 °C 0,0 km/h (0 Bft) 100,00 %
03.05.2026 04:04 6,4 °C 80 % 1018,8 hPa 0,0 l/m² 0,0 km/h (0 Bft) N 0 ° 0,000 mm 3,2 °C 6,4 °C 0,0 km/h (0 Bft) 100,00 %
03.05.2026 04:03 6,4 °C 80 % 1018,8 hPa 0,0 l/m² 0,0 km/h (0 Bft) N 0 ° 0,000 mm 3,2 °C 6,4 °C 0,0 km/h (0 Bft) 95,65 %
03.05.2026 04:02 6,4 °C 80 % 1018,8 hPa 0,0 l/m² 0,0 km/h (0 Bft) N 0 ° 0,000 mm 3,2 °C 6,4 °C 0,0 km/h (0 Bft) 100,00 %
03.05.2026 04:01 6,4 °C 80 % 1018,8 hPa 0,0 l/m² 0,0 km/h (0 Bft) N 0 ° 0,000 mm 3,2 °C 6,4 °C 0,0 km/h (0 Bft) 100,00 %
03.05.2026 04:00 6,4 °C 80 % 1018,8 hPa 0,0 l/m² 0,0 km/h (0 Bft) N 0 ° 0,000 mm 3,2 °C 6,4 °C 0,0 km/h (0 Bft) 100,00 %
03.05.2026 03:59 6,4 °C 80 % 1018,8 hPa 0,0 l/m² 0,0 km/h (0 Bft) N 0 ° 0,000 mm 3,2 °C 6,4 °C 0,0 km/h (0 Bft) 100,00 %
03.05.2026 03:58 6,5 °C 80 % 1018,8 hPa 0,0 l/m² 0,0 km/h (0 Bft) N 0 ° 0,000 mm 3,3 °C 6,5 °C 0,0 km/h (0 Bft) 95,65 %
03.05.2026 03:57 6,6 °C 80 % 1018,8 hPa 0,0 l/m² 0,0 km/h (0 Bft) N 0 ° 0,000 mm 3,4 °C 6,6 °C 0,0 km/h (0 Bft) 100,00 %
03.05.2026 03:56 6,5 °C 80 % 1018,8 hPa 0,0 l/m² 0,0 km/h (0 Bft) N 0 ° 0,000 mm 3,3 °C 6,5 °C 0,0 km/h (0 Bft) 100,00 %
03.05.2026 03:55 6,5 °C 80 % 1018,9 hPa 0,0 l/m² 0,0 km/h (0 Bft) N 0 ° 0,000 mm 3,3 °C 6,5 °C 0,0 km/h (0 Bft) 100,00 %
03.05.2026 03:54 6,5 °C 80 % 1018,7 hPa 0,0 l/m² 0,0 km/h (0 Bft) N 0 ° 0,000 mm 3,3 °C 6,5 °C 0,0 km/h (0 Bft) 100,00 %
03.05.2026 03:53 6,5 °C 80 % 1018,8 hPa 0,0 l/m² 0,0 km/h (0 Bft) N 0 ° 0,000 mm 3,3 °C 6,5 °C 0,0 km/h (0 Bft) 100,00 %
03.05.2026 03:52 6,4 °C 80 % 1018,8 hPa 0,0 l/m² 0,0 km/h (0 Bft) N 0 ° 0,000 mm 3,2 °C 6,4 °C 0,0 km/h (0 Bft) 95,65 %
03.05.2026 03:51 6,4 °C 80 % 1018,8 hPa 0,0 l/m² 0,0 km/h (0 Bft) N 0 ° 0,000 mm 3,2 °C 6,4 °C 0,0 km/h (0 Bft) 100,00 %
03.05.2026 03:50 6,4 °C 80 % 1018,8 hPa 0,0 l/m² 0,0 km/h (0 Bft) N 0 ° 0,000 mm 3,2 °C 6,4 °C 0,0 km/h (0 Bft) 100,00 %
03.05.2026 03:49 6,4 °C 80 % 1018,9 hPa 0,0 l/m² 0,0 km/h (0 Bft) N 0 ° 0,000 mm 3,2 °C 6,4 °C 0,0 km/h (0 Bft) 100,00 %
03.05.2026 03:48 6,4 °C 80 % 1018,9 hPa 0,0 l/m² 0,0 km/h (0 Bft) N 0 ° 0,000 mm 3,2 °C 6,4 °C 0,0 km/h (0 Bft) 100,00 %
03.05.2026 03:47 6,4 °C 80 % 1018,9 hPa 0,0 l/m² 0,0 km/h (0 Bft) N 0 ° 0,000 mm 3,2 °C 6,4 °C 0,0 km/h (0 Bft) 100,00 %
03.05.2026 03:46 6,4 °C 79 % 1018,9 hPa 0,0 l/m² 0,0 km/h (0 Bft) N 0 ° 0,000 mm 3,0 °C 6,4 °C 0,0 km/h (0 Bft) 95,65 %
03.05.2026 03:45 6,4 °C 79 % 1018,9 hPa 0,0 l/m² 0,0 km/h (0 Bft) N 0 ° 0,000 mm 3,0 °C 6,4 °C 0,0 km/h (0 Bft) 100,00 %
03.05.2026 03:44 6,5 °C 79 % 1018,8 hPa 0,0 l/m² 0,0 km/h (0 Bft) N 0 ° 0,000 mm 3,1 °C 6,5 °C 0,0 km/h (0 Bft) 100,00 %
03.05.2026 03:43 6,6 °C 79 % 1018,9 hPa 0,0 l/m² 0,0 km/h (0 Bft) N 0 ° 0,000 mm 3,2 °C 6,6 °C 0,0 km/h (0 Bft) 100,00 %
03.05.2026 03:42 6,6 °C 79 % 1018,9 hPa 0,0 l/m² 0,0 km/h (0 Bft) N 0 ° 0,000 mm 3,2 °C 6,6 °C 0,0 km/h (0 Bft) 95,65 %
03.05.2026 03:41 6,7 °C 79 % 1018,9 hPa 0,0 l/m² 0,0 km/h (0 Bft) N 0 ° 0,000 mm 3,3 °C 6,7 °C 0,0 km/h (0 Bft) 100,00 %
03.05.2026 03:40 6,7 °C 79 % 1018,9 hPa 0,0 l/m² 0,0 km/h (0 Bft) N 0 ° 0,000 mm 3,3 °C 6,7 °C 0,0 km/h (0 Bft) 100,00 %
03.05.2026 03:39 6,7 °C 79 % 1018,9 hPa 0,0 l/m² 0,0 km/h (0 Bft) N 0 ° 0,000 mm 3,3 °C 6,7 °C 0,0 km/h (0 Bft) 100,00 %
03.05.2026 03:38 6,8 °C 79 % 1018,9 hPa 0,0 l/m² 0,0 km/h (0 Bft) N 0 ° 0,000 mm 3,4 °C 6,8 °C 0,0 km/h (0 Bft) 100,00 %
03.05.2026 03:37 6,8 °C 79 % 1018,8 hPa 0,0 l/m² 0,0 km/h (0 Bft) N 0 ° 0,000 mm 3,4 °C 6,8 °C 0,0 km/h (0 Bft) 100,00 %
03.05.2026 03:36 6,9 °C 78 % 1018,8 hPa 0,0 l/m² 0,0 km/h (0 Bft) N 0 ° 0,000 mm 3,3 °C 6,9 °C 0,0 km/h (0 Bft) 100,00 %
03.05.2026 03:35 6,9 °C 78 % 1018,8 hPa 0,0 l/m² 0,0 km/h (0 Bft) N 0 ° 0,000 mm 3,3 °C 6,9 °C 0,0 km/h (0 Bft) 100,00 %
03.05.2026 03:34 6,9 °C 78 % 1018,8 hPa 0,0 l/m² 0,0 km/h (0 Bft) N 0 ° 0,000 mm 3,3 °C 6,9 °C 0,0 km/h (0 Bft) 95,65 %
03.05.2026 03:33 7,0 °C 78 % 1018,8 hPa 0,0 l/m² 0,0 km/h (0 Bft) N 0 ° 0,000 mm 3,4 °C 7,0 °C 0,0 km/h (0 Bft) 100,00 %
03.05.2026 03:32 7,0 °C 78 % 1018,8 hPa 0,0 l/m² 0,0 km/h (0 Bft) N 0 ° 0,000 mm 3,4 °C 7,0 °C 0,0 km/h (0 Bft) 100,00 %
03.05.2026 03:31 7,0 °C 78 % 1018,9 hPa 0,0 l/m² 0,0 km/h (0 Bft) N 0 ° 0,000 mm 3,4 °C 7,0 °C 0,0 km/h (0 Bft) 100,00 %
03.05.2026 03:30 7,0 °C 78 % 1018,9 hPa 0,0 l/m² 0,0 km/h (0 Bft) N 0 ° 0,000 mm 3,4 °C 7,0 °C 0,0 km/h (0 Bft) 95,65 %
03.05.2026 03:29 7,1 °C 78 % 1018,9 hPa 0,0 l/m² 0,0 km/h (0 Bft) N 0 ° 0,000 mm 3,5 °C 7,1 °C 0,0 km/h (0 Bft) 100,00 %
03.05.2026 03:28 7,0 °C 78 % 1018,9 hPa 0,0 l/m² 0,0 km/h (0 Bft) N 0 ° 0,000 mm 3,4 °C 7,0 °C 0,0 km/h (0 Bft) 100,00 %
03.05.2026 03:27 7,0 °C 78 % 1018,8 hPa 0,0 l/m² 0,0 km/h (0 Bft) N 0 ° 0,000 mm 3,4 °C 7,0 °C 0,0 km/h (0 Bft) 100,00 %
03.05.2026 03:26 7,0 °C 78 % 1018,9 hPa 0,0 l/m² 0,0 km/h (0 Bft) N 0 ° 0,000 mm 3,4 °C 7,0 °C 0,0 km/h (0 Bft) 100,00 %
03.05.2026 03:25 7,0 °C 78 % 1018,9 hPa 0,0 l/m² 0,0 km/h (0 Bft) N 0 ° 0,000 mm 3,4 °C 7,0 °C 0,0 km/h (0 Bft) 100,00 %
03.05.2026 03:24 6,9 °C 78 % 1018,8 hPa 0,0 l/m² 0,0 km/h (0 Bft) N 0 ° 0,000 mm 3,3 °C 6,9 °C 0,0 km/h (0 Bft) 100,00 %
03.05.2026 03:23 7,0 °C 78 % 1018,9 hPa 0,0 l/m² 0,0 km/h (0 Bft) N 0 ° 0,000 mm 3,4 °C 7,0 °C 0,0 km/h (0 Bft) 100,00 %
03.05.2026 03:22 7,1 °C 77 % 1018,9 hPa 0,0 l/m² 0,0 km/h (0 Bft) N 0 ° 0,000 mm 3,3 °C 7,1 °C 0,0 km/h (0 Bft) 100,00 %
03.05.2026 03:21 7,1 °C 77 % 1018,8 hPa 0,0 l/m² 0,0 km/h (0 Bft) N 0 ° 0,000 mm 3,3 °C 7,1 °C 0,0 km/h (0 Bft) 100,00 %
03.05.2026 03:20 7,2 °C 77 % 1018,9 hPa 0,0 l/m² 0,0 km/h (0 Bft) N 0 ° 0,000 mm 3,4 °C 7,2 °C 0,0 km/h (0 Bft) 100,00 %
03.05.2026 03:19 7,3 °C 77 % 1018,9 hPa 0,0 l/m² 0,0 km/h (0 Bft) N 0 ° 0,000 mm 3,5 °C 7,3 °C 0,0 km/h (0 Bft) 100,00 %
03.05.2026 03:18 7,3 °C 77 % 1018,9 hPa 0,0 l/m² 0,0 km/h (0 Bft) N 0 ° 0,000 mm 3,5 °C 7,3 °C 0,0 km/h (0 Bft) 100,00 %
03.05.2026 03:17 7,3 °C 77 % 1019,0 hPa 0,0 l/m² 0,0 km/h (0 Bft) N 0 ° 0,000 mm 3,5 °C 7,3 °C 0,0 km/h (0 Bft) 100,00 %
03.05.2026 03:16 7,3 °C 77 % 1018,9 hPa 0,0 l/m² 0,0 km/h (0 Bft) N 0 ° 0,000 mm 3,5 °C 7,3 °C 0,0 km/h (0 Bft) 100,00 %
03.05.2026 03:15 7,3 °C 77 % 1018,9 hPa 0,0 l/m² 0,0 km/h (0 Bft) N 0 ° 0,000 mm 3,5 °C 7,3 °C 0,0 km/h (0 Bft) 100,00 %
03.05.2026 03:14 7,4 °C 77 % 1018,9 hPa 0,0 l/m² 0,0 km/h (0 Bft) N 0 ° 0,000 mm 3,6 °C 7,4 °C 0,0 km/h (0 Bft) 100,00 %
03.05.2026 03:13 7,4 °C 76 % 1019,0 hPa 0,0 l/m² 0,0 km/h (0 Bft) N 0 ° 0,000 mm 3,5 °C 7,4 °C 0,0 km/h (0 Bft) 100,00 %
03.05.2026 03:12 7,4 °C 76 % 1019,0 hPa 0,0 l/m² 0,0 km/h (0 Bft) N 0 ° 0,000 mm 3,5 °C 7,4 °C 0,0 km/h (0 Bft) 100,00 %
03.05.2026 03:11 7,4 °C 77 % 1018,9 hPa 0,0 l/m² 0,0 km/h (0 Bft) N 0 ° 0,000 mm 3,6 °C 7,4 °C 0,0 km/h (0 Bft) 13,04 %
03.05.2026 03:10 7,5 °C 77 % 1019,0 hPa 0,0 l/m² 0,0 km/h (0 Bft) N 0 ° 0,000 mm 3,7 °C 7,5 °C 0,0 km/h (0 Bft) 60,87 %
03.05.2026 03:09 7,5 °C 77 % 1019,0 hPa 0,0 l/m² 0,0 km/h (0 Bft) N 0 ° 0,000 mm 3,7 °C 7,5 °C 0,0 km/h (0 Bft) 100,00 %
03.05.2026 03:08 7,5 °C 77 % 1018,9 hPa 0,0 l/m² 0,0 km/h (0 Bft) N 0 ° 0,000 mm 3,7 °C 7,5 °C 0,0 km/h (0 Bft) 95,65 %
03.05.2026 03:07 7,5 °C 77 % 1019,0 hPa 0,0 l/m² 0,0 km/h (0 Bft) N 0 ° 0,000 mm 3,7 °C 7,5 °C 0,0 km/h (0 Bft) 100,00 %
03.05.2026 03:06 7,6 °C 77 % 1019,0 hPa 0,0 l/m² 0,0 km/h (0 Bft) N 0 ° 0,000 mm 3,8 °C 7,6 °C 0,0 km/h (0 Bft) 100,00 %
03.05.2026 03:05 7,5 °C 77 % 1019,0 hPa 0,0 l/m² 0,0 km/h (0 Bft) N 0 ° 0,000 mm 3,7 °C 7,5 °C 0,0 km/h (0 Bft) 100,00 %
03.05.2026 03:04 7,5 °C 77 % 1018,9 hPa 0,0 l/m² 0,0 km/h (0 Bft) N 0 ° 0,000 mm 3,7 °C 7,5 °C 0,0 km/h (0 Bft) 100,00 %
03.05.2026 03:03 7,5 °C 76 % 1019,0 hPa 0,0 l/m² 0,0 km/h (0 Bft) N 0 ° 0,000 mm 3,5 °C 7,5 °C 0,0 km/h (0 Bft) 100,00 %
03.05.2026 03:02 7,6 °C 76 % 1018,9 hPa 0,0 l/m² 0,0 km/h (0 Bft) N 0 ° 0,000 mm 3,6 °C 7,6 °C 0,0 km/h (0 Bft) 100,00 %
03.05.2026 03:01 7,6 °C 76 % 1019,0 hPa 0,0 l/m² 0,0 km/h (0 Bft) N 0 ° 0,000 mm 3,6 °C 7,6 °C 0,0 km/h (0 Bft) 100,00 %
03.05.2026 03:00 7,6 °C 76 % 1019,0 hPa 0,0 l/m² 0,0 km/h (0 Bft) N 0 ° 0,000 mm 3,6 °C 7,6 °C 0,0 km/h (0 Bft) 95,65 %
03.05.2026 02:59 7,7 °C 76 % 1018,9 hPa 0,0 l/m² 0,0 km/h (0 Bft) N 0 ° 0,000 mm 3,7 °C 7,7 °C 0,0 km/h (0 Bft) 100,00 %
03.05.2026 02:58 7,7 °C 76 % 1019,0 hPa 0,0 l/m² 0,0 km/h (0 Bft) N 0 ° 0,000 mm 3,7 °C 7,7 °C 0,0 km/h (0 Bft) 100,00 %
03.05.2026 02:57 7,6 °C 76 % 1019,1 hPa 0,0 l/m² 0,0 km/h (0 Bft) N 0 ° 0,000 mm 3,6 °C 7,6 °C 0,0 km/h (0 Bft) 100,00 %
03.05.2026 02:56 7,6 °C 76 % 1018,9 hPa 0,0 l/m² 0,0 km/h (0 Bft) N 0 ° 0,000 mm 3,6 °C 7,6 °C 0,0 km/h (0 Bft) 100,00 %
03.05.2026 02:55 7,6 °C 77 % 1019,0 hPa 0,0 l/m² 0,0 km/h (0 Bft) N 0 ° 0,000 mm 3,8 °C 7,6 °C 0,0 km/h (0 Bft) 100,00 %
03.05.2026 02:54 7,6 °C 76 % 1019,0 hPa 0,0 l/m² 0,0 km/h (0 Bft) N 0 ° 0,000 mm 3,6 °C 7,6 °C 0,0 km/h (0 Bft) 100,00 %
03.05.2026 02:53 7,6 °C 76 % 1019,0 hPa 0,0 l/m² 0,0 km/h (0 Bft) N 0 ° 0,000 mm 3,6 °C 7,6 °C 0,0 km/h (0 Bft) 100,00 %
03.05.2026 02:52 7,6 °C 76 % 1019,0 hPa 0,0 l/m² 0,0 km/h (0 Bft) N 0 ° 0,000 mm 3,6 °C 7,6 °C 0,0 km/h (0 Bft) 100,00 %
03.05.2026 02:51 7,7 °C 75 % 1019,0 hPa 0,0 l/m² 0,0 km/h (0 Bft) N 0 ° 0,000 mm 3,6 °C 7,7 °C 0,0 km/h (0 Bft) 100,00 %
03.05.2026 02:50 7,7 °C 75 % 1019,0 hPa 0,0 l/m² 0,0 km/h (0 Bft) N 0 ° 0,000 mm 3,6 °C 7,7 °C 0,0 km/h (0 Bft) 100,00 %
03.05.2026 02:49 7,8 °C 75 % 1019,1 hPa 0,0 l/m² 0,0 km/h (0 Bft) N 0 ° 0,000 mm 3,7 °C 7,8 °C 0,0 km/h (0 Bft) 100,00 %
03.05.2026 02:48 7,8 °C 75 % 1019,1 hPa 0,0 l/m² 0,0 km/h (0 Bft) N 0 ° 0,000 mm 3,7 °C 7,8 °C 0,0 km/h (0 Bft) 100,00 %
03.05.2026 02:47 7,8 °C 75 % 1019,0 hPa 0,0 l/m² 0,0 km/h (0 Bft) N 0 ° 0,000 mm 3,7 °C 7,8 °C 0,0 km/h (0 Bft) 100,00 %
03.05.2026 02:46 7,9 °C 75 % 1019,0 hPa 0,0 l/m² 0,0 km/h (0 Bft) N 0 ° 0,000 mm 3,7 °C 7,9 °C 0,0 km/h (0 Bft) 100,00 %
03.05.2026 02:45 7,9 °C 75 % 1019,0 hPa 0,0 l/m² 0,0 km/h (0 Bft) N 0 ° 0,000 mm 3,7 °C 7,9 °C 0,0 km/h (0 Bft) 100,00 %
03.05.2026 02:44 8,0 °C 75 % 1019,1 hPa 0,0 l/m² 0,0 km/h (0 Bft) N 0 ° 0,000 mm 3,8 °C 8,0 °C 0,0 km/h (0 Bft) 100,00 %
03.05.2026 02:43 8,0 °C 75 % 1019,1 hPa 0,0 l/m² 0,0 km/h (0 Bft) N 0 ° 0,000 mm 3,8 °C 8,0 °C 0,0 km/h (0 Bft) 100,00 %
03.05.2026 02:42 8,0 °C 75 % 1019,1 hPa 0,0 l/m² 0,0 km/h (0 Bft) N 0 ° 0,000 mm 3,8 °C 8,0 °C 0,0 km/h (0 Bft) 100,00 %
03.05.2026 02:41 8,0 °C 75 % 1019,1 hPa 0,0 l/m² 0,0 km/h (0 Bft) N 0 ° 0,000 mm 3,8 °C 8,0 °C 0,0 km/h (0 Bft) 100,00 %
03.05.2026 02:40 8,0 °C 75 % 1019,1 hPa 0,0 l/m² 0,0 km/h (0 Bft) N 0 ° 0,000 mm 3,8 °C 8,0 °C 0,0 km/h (0 Bft) 100,00 %
03.05.2026 02:39 7,9 °C 75 % 1019,1 hPa 0,0 l/m² 0,0 km/h (0 Bft) N 0 ° 0,000 mm 3,7 °C 7,9 °C 0,0 km/h (0 Bft) 100,00 %
03.05.2026 02:38 7,9 °C 75 % 1019,2 hPa 0,0 l/m² 0,0 km/h (0 Bft) N 0 ° 0,000 mm 3,7 °C 7,9 °C 0,0 km/h (0 Bft) 100,00 %
03.05.2026 02:37 7,9 °C 75 % 1019,1 hPa 0,0 l/m² 0,0 km/h (0 Bft) N 0 ° 0,000 mm 3,7 °C 7,9 °C 0,0 km/h (0 Bft) 100,00 %
03.05.2026 02:36 7,9 °C 76 % 1019,1 hPa 0,0 l/m² 0,0 km/h (0 Bft) N 0 ° 0,000 mm 3,9 °C 7,9 °C 0,0 km/h (0 Bft) 100,00 %
03.05.2026 02:35 7,8 °C 76 % 1019,1 hPa 0,0 l/m² 0,0 km/h (0 Bft) N 0 ° 0,000 mm 3,8 °C 7,8 °C 0,0 km/h (0 Bft) 100,00 %
03.05.2026 02:34 7,8 °C 76 % 1019,1 hPa 0,0 l/m² 0,0 km/h (0 Bft) N 0 ° 0,000 mm 3,8 °C 7,8 °C 0,0 km/h (0 Bft) 100,00 %
03.05.2026 02:33 7,7 °C 76 % 1019,2 hPa 0,0 l/m² 0,0 km/h (0 Bft) N 0 ° 0,000 mm 3,7 °C 7,7 °C 0,0 km/h (0 Bft) 100,00 %
03.05.2026 02:32 7,7 °C 76 % 1019,1 hPa 0,0 l/m² 0,0 km/h (0 Bft) N 0 ° 0,000 mm 3,7 °C 7,7 °C 0,0 km/h (0 Bft) 100,00 %
03.05.2026 02:31 7,6 °C 76 % 1019,1 hPa 0,0 l/m² 0,0 km/h (0 Bft) N 0 ° 0,000 mm 3,6 °C 7,6 °C 0,0 km/h (0 Bft) 100,00 %
03.05.2026 02:30 7,7 °C 76 % 1019,2 hPa 0,0 l/m² 0,0 km/h (0 Bft) N 0 ° 0,000 mm 3,7 °C 7,7 °C 0,0 km/h (0 Bft) 100,00 %
03.05.2026 02:29 7,8 °C 76 % 1019,2 hPa 0,0 l/m² 0,0 km/h (0 Bft) N 0 ° 0,000 mm 3,8 °C 7,8 °C 0,0 km/h (0 Bft) 100,00 %
03.05.2026 02:28 7,8 °C 75 % 1019,2 hPa 0,0 l/m² 0,0 km/h (0 Bft) N 0 ° 0,000 mm 3,7 °C 7,8 °C 0,0 km/h (0 Bft) 100,00 %
03.05.2026 02:27 7,8 °C 75 % 1019,1 hPa 0,0 l/m² 0,0 km/h (0 Bft) N 0 ° 0,000 mm 3,7 °C 7,8 °C 0,0 km/h (0 Bft) 100,00 %
03.05.2026 02:26 7,9 °C 75 % 1019,2 hPa 0,0 l/m² 0,0 km/h (0 Bft) N 0 ° 0,000 mm 3,7 °C 7,9 °C 0,0 km/h (0 Bft) 100,00 %
03.05.2026 02:25 8,0 °C 75 % 1019,2 hPa 0,0 l/m² 0,0 km/h (0 Bft) W-SW 247 ° 0,000 mm 3,8 °C 8,0 °C 1,6 km/h (1 Bft) 100,00 %
03.05.2026 02:24 8,1 °C 74 % 1019,2 hPa 0,0 l/m² 0,0 km/h (0 Bft) N 0 ° 0,000 mm 3,8 °C 8,1 °C 0,0 km/h (0 Bft) 100,00 %
03.05.2026 02:23 8,1 °C 74 % 1019,2 hPa 0,0 l/m² 0,0 km/h (0 Bft) N 0 ° 0,000 mm 3,8 °C 8,1 °C 0,0 km/h (0 Bft) 100,00 %
03.05.2026 02:22 8,1 °C 74 % 1019,2 hPa 0,0 l/m² 0,0 km/h (0 Bft) N 0 ° 0,000 mm 3,8 °C 8,1 °C 0,0 km/h (0 Bft) 100,00 %
03.05.2026 02:21 8,2 °C 74 % 1019,1 hPa 0,0 l/m² 0,0 km/h (0 Bft) N 0 ° 0,000 mm 3,8 °C 8,2 °C 0,0 km/h (0 Bft) 100,00 %
03.05.2026 02:20 8,2 °C 73 % 1019,2 hPa 0,0 l/m² 0,0 km/h (0 Bft) N 0 ° 0,000 mm 3,7 °C 8,2 °C 0,0 km/h (0 Bft) 100,00 %
03.05.2026 02:19 8,2 °C 73 % 1019,2 hPa 0,0 l/m² 0,0 km/h (0 Bft) N 0 ° 0,000 mm 3,7 °C 8,2 °C 0,0 km/h (0 Bft) 100,00 %
03.05.2026 02:18 8,3 °C 73 % 1019,1 hPa 0,0 l/m² 0,0 km/h (0 Bft) N 0 ° 0,000 mm 3,8 °C 8,3 °C 0,0 km/h (0 Bft) 100,00 %
03.05.2026 02:17 8,3 °C 73 % 1019,2 hPa 0,0 l/m² 0,0 km/h (0 Bft) N 0 ° 0,000 mm 3,8 °C 8,3 °C 0,0 km/h (0 Bft) 95,65 %
03.05.2026 02:16 8,3 °C 73 % 1019,2 hPa 0,0 l/m² 0,0 km/h (0 Bft) N 0 ° 0,000 mm 3,8 °C 8,3 °C 0,0 km/h (0 Bft) 100,00 %
03.05.2026 02:15 8,3 °C 73 % 1019,3 hPa 0,0 l/m² 0,0 km/h (0 Bft) N 0 ° 0,000 mm 3,8 °C 8,3 °C 0,0 km/h (0 Bft) 95,65 %
03.05.2026 02:14 8,3 °C 73 % 1019,3 hPa 0,0 l/m² 0,0 km/h (0 Bft) N 0 ° 0,000 mm 3,8 °C 8,3 °C 0,0 km/h (0 Bft) 100,00 %
03.05.2026 02:13 8,3 °C 73 % 1019,3 hPa 0,0 l/m² 0,0 km/h (0 Bft) N 0 ° 0,000 mm 3,8 °C 8,3 °C 0,0 km/h (0 Bft) 100,00 %
03.05.2026 02:12 8,4 °C 73 % 1019,4 hPa 0,0 l/m² 0,0 km/h (0 Bft) N 0 ° 0,000 mm 3,8 °C 8,4 °C 0,0 km/h (0 Bft) 100,00 %
03.05.2026 02:11 8,4 °C 73 % 1019,4 hPa 0,0 l/m² 0,0 km/h (0 Bft) N 0 ° 0,000 mm 3,8 °C 8,4 °C 0,0 km/h (0 Bft) 100,00 %
03.05.2026 02:10 8,4 °C 73 % 1019,3 hPa 0,0 l/m² 0,0 km/h (0 Bft) N 0 ° 0,000 mm 3,8 °C 8,4 °C 0,0 km/h (0 Bft) 100,00 %
03.05.2026 02:09 8,4 °C 73 % 1019,4 hPa 0,0 l/m² 0,0 km/h (0 Bft) N 0 ° 0,000 mm 3,8 °C 8,4 °C 0,0 km/h (0 Bft) 100,00 %
03.05.2026 02:08 8,5 °C 72 % 1019,4 hPa 0,0 l/m² 0,0 km/h (0 Bft) N 0 ° 0,000 mm 3,7 °C 8,5 °C 0,0 km/h (0 Bft) 100,00 %
03.05.2026 02:07 8,5 °C 72 % 1019,3 hPa 0,0 l/m² 0,0 km/h (0 Bft) N 0 ° 0,000 mm 3,7 °C 8,5 °C 0,0 km/h (0 Bft) 100,00 %
03.05.2026 02:06 8,6 °C 72 % 1019,4 hPa 0,0 l/m² 0,0 km/h (0 Bft) N 0 ° 0,000 mm 3,8 °C 8,6 °C 0,0 km/h (0 Bft) 100,00 %
03.05.2026 02:05 8,6 °C 72 % 1019,3 hPa 0,0 l/m² 0,0 km/h (0 Bft) N 0 ° 0,000 mm 3,8 °C 8,6 °C 0,0 km/h (0 Bft) 100,00 %
03.05.2026 02:04 8,6 °C 72 % 1019,3 hPa 0,0 l/m² 0,0 km/h (0 Bft) N 0 ° 0,000 mm 3,8 °C 8,6 °C 0,0 km/h (0 Bft) 100,00 %
03.05.2026 02:03 8,6 °C 72 % 1019,4 hPa 0,0 l/m² 0,0 km/h (0 Bft) N 0 ° 0,000 mm 3,8 °C 8,6 °C 0,0 km/h (0 Bft) 100,00 %
03.05.2026 02:02 8,7 °C 72 % 1019,4 hPa 0,0 l/m² 0,0 km/h (0 Bft) N 0 ° 0,000 mm 3,9 °C 8,7 °C 0,0 km/h (0 Bft) 100,00 %
03.05.2026 02:01 8,7 °C 71 % 1019,4 hPa 0,0 l/m² 0,0 km/h (0 Bft) N 0 ° 0,000 mm 3,7 °C 8,7 °C 0,0 km/h (0 Bft) 95,65 %
03.05.2026 02:00 8,7 °C 71 % 1019,3 hPa 0,0 l/m² 0,0 km/h (0 Bft) N 0 ° 0,000 mm 3,7 °C 8,7 °C 0,0 km/h (0 Bft) 100,00 %
03.05.2026 01:59 8,7 °C 71 % 1019,3 hPa 0,0 l/m² 0,0 km/h (0 Bft) N 0 ° 0,000 mm 3,7 °C 8,7 °C 0,0 km/h (0 Bft) 100,00 %
03.05.2026 01:58 8,7 °C 71 % 1019,4 hPa 0,0 l/m² 0,0 km/h (0 Bft) N 0 ° 0,000 mm 3,7 °C 8,7 °C 0,0 km/h (0 Bft) 100,00 %
03.05.2026 01:57 8,8 °C 70 % 1019,4 hPa 0,0 l/m² 0,0 km/h (0 Bft) N 0 ° 0,000 mm 3,6 °C 8,8 °C 0,0 km/h (0 Bft) 100,00 %
03.05.2026 01:56 8,8 °C 70 % 1019,4 hPa 0,0 l/m² 0,0 km/h (0 Bft) N 0 ° 0,000 mm 3,6 °C 8,8 °C 0,0 km/h (0 Bft) 100,00 %
03.05.2026 01:55 8,8 °C 70 % 1019,4 hPa 0,0 l/m² 0,0 km/h (0 Bft) N 0 ° 0,000 mm 3,6 °C 8,8 °C 0,0 km/h (0 Bft) 100,00 %
03.05.2026 01:54 8,9 °C 70 % 1019,4 hPa 0,0 l/m² 0,0 km/h (0 Bft) N 0 ° 0,000 mm 3,7 °C 8,9 °C 0,0 km/h (0 Bft) 100,00 %
03.05.2026 01:53 8,9 °C 70 % 1019,4 hPa 0,0 l/m² 0,0 km/h (0 Bft) N 0 ° 0,000 mm 3,7 °C 8,9 °C 0,0 km/h (0 Bft) 100,00 %
03.05.2026 01:52 9,0 °C 70 % 1019,3 hPa 0,0 l/m² 0,0 km/h (0 Bft) N 0 ° 0,000 mm 3,8 °C 9,0 °C 0,0 km/h (0 Bft) 100,00 %
03.05.2026 01:51 9,0 °C 70 % 1019,4 hPa 0,0 l/m² 0,0 km/h (0 Bft) N 0 ° 0,000 mm 3,8 °C 9,0 °C 0,0 km/h (0 Bft) 100,00 %
03.05.2026 01:50 9,1 °C 70 % 1019,3 hPa 0,0 l/m² 0,0 km/h (0 Bft) N 0 ° 0,000 mm 3,9 °C 9,1 °C 0,0 km/h (0 Bft) 100,00 %
03.05.2026 01:49 9,1 °C 69 % 1019,4 hPa 0,0 l/m² 0,0 km/h (0 Bft) N 0 ° 0,000 mm 3,7 °C 9,1 °C 0,0 km/h (0 Bft) 100,00 %
03.05.2026 01:48 9,2 °C 69 % 1019,3 hPa 0,0 l/m² 0,0 km/h (0 Bft) N 0 ° 0,000 mm 3,8 °C 9,2 °C 0,0 km/h (0 Bft) 100,00 %
03.05.2026 01:47 9,2 °C 69 % 1019,4 hPa 0,0 l/m² 0,0 km/h (0 Bft) N 0 ° 0,000 mm 3,8 °C 9,2 °C 0,0 km/h (0 Bft) 100,00 %
03.05.2026 01:46 9,3 °C 69 % 1019,5 hPa 0,0 l/m² 0,0 km/h (0 Bft) N 0 ° 0,000 mm 3,9 °C 9,3 °C 0,0 km/h (0 Bft) 95,65 %
03.05.2026 01:45 9,3 °C 68 % 1019,4 hPa 0,0 l/m² 0,0 km/h (0 Bft) N 0 ° 0,000 mm 3,7 °C 9,3 °C 0,0 km/h (0 Bft) 100,00 %
03.05.2026 01:44 9,4 °C 68 % 1019,5 hPa 0,0 l/m² 0,0 km/h (0 Bft) N 0 ° 0,000 mm 3,8 °C 9,4 °C 0,0 km/h (0 Bft) 100,00 %
03.05.2026 01:43 9,4 °C 68 % 1019,4 hPa 0,0 l/m² 0,0 km/h (0 Bft) N 0 ° 0,000 mm 3,8 °C 9,4 °C 0,0 km/h (0 Bft) 100,00 %
03.05.2026 01:42 9,5 °C 68 % 1019,5 hPa 0,0 l/m² 0,0 km/h (0 Bft) N 0 ° 0,000 mm 3,9 °C 9,5 °C 0,0 km/h (0 Bft) 100,00 %
03.05.2026 01:41 9,6 °C 67 % 1019,5 hPa 0,0 l/m² 0,0 km/h (0 Bft) N 0 ° 0,000 mm 3,8 °C 9,6 °C 0,0 km/h (0 Bft) 100,00 %
03.05.2026 01:40 9,7 °C 67 % 1019,5 hPa 0,0 l/m² 0,0 km/h (0 Bft) N 0 ° 0,000 mm 3,9 °C 9,7 °C 0,0 km/h (0 Bft) 100,00 %
03.05.2026 01:39 9,7 °C 66 % 1019,4 hPa 0,0 l/m² 0,0 km/h (0 Bft) N 0 ° 0,000 mm 3,7 °C 9,7 °C 0,0 km/h (0 Bft) 100,00 %
03.05.2026 01:38 9,8 °C 66 % 1019,5 hPa 0,0 l/m² 0,0 km/h (0 Bft) N 0 ° 0,000 mm 3,8 °C 9,8 °C 0,0 km/h (0 Bft) 100,00 %
03.05.2026 01:37 9,8 °C 66 % 1019,5 hPa 0,0 l/m² 0,0 km/h (0 Bft) N 0 ° 0,000 mm 3,8 °C 9,8 °C 0,0 km/h (0 Bft) 100,00 %
03.05.2026 01:36 9,8 °C 66 % 1019,3 hPa 0,0 l/m² 0,0 km/h (0 Bft) N 0 ° 0,000 mm 3,8 °C 9,8 °C 0,0 km/h (0 Bft) 95,65 %
03.05.2026 01:35 9,8 °C 65 % 1019,5 hPa 0,0 l/m² 0,0 km/h (0 Bft) N 0 ° 0,000 mm 3,5 °C 9,8 °C 0,0 km/h (0 Bft) 100,00 %
03.05.2026 01:34 9,7 °C 66 % 1019,4 hPa 0,0 l/m² 0,0 km/h (0 Bft) N 0 ° 0,000 mm 3,7 °C 9,7 °C 0,0 km/h (0 Bft) 100,00 %
03.05.2026 01:33 9,7 °C 66 % 1019,4 hPa 0,0 l/m² 0,0 km/h (0 Bft) N 0 ° 0,000 mm 3,7 °C 9,7 °C 0,0 km/h (0 Bft) 100,00 %
03.05.2026 01:32 9,6 °C 66 % 1019,4 hPa 0,0 l/m² 0,0 km/h (0 Bft) N 0 ° 0,000 mm 3,6 °C 9,6 °C 0,0 km/h (0 Bft) 95,65 %
03.05.2026 01:31 9,6 °C 67 % 1019,5 hPa 0,0 l/m² 0,0 km/h (0 Bft) N 0 ° 0,000 mm 3,8 °C 9,6 °C 0,0 km/h (0 Bft) 100,00 %
03.05.2026 01:30 9,5 °C 68 % 1019,4 hPa 0,0 l/m² 0,0 km/h (0 Bft) N 0 ° 0,000 mm 3,9 °C 9,5 °C 0,0 km/h (0 Bft) 100,00 %
03.05.2026 01:29 9,5 °C 68 % 1019,5 hPa 0,0 l/m² 0,0 km/h (0 Bft) N 0 ° 0,000 mm 3,9 °C 9,5 °C 0,0 km/h (0 Bft) 95,65 %
03.05.2026 01:28 9,5 °C 68 % 1019,5 hPa 0,0 l/m² 0,0 km/h (0 Bft) N 0 ° 0,000 mm 3,9 °C 9,5 °C 0,0 km/h (0 Bft) 100,00 %
03.05.2026 01:27 9,6 °C 67 % 1019,5 hPa 0,0 l/m² 0,0 km/h (0 Bft) N 0 ° 0,000 mm 3,8 °C 9,6 °C 0,0 km/h (0 Bft) 100,00 %
03.05.2026 01:26 9,5 °C 67 % 1019,5 hPa 0,0 l/m² 0,0 km/h (0 Bft) N 0 ° 0,000 mm 3,7 °C 9,5 °C 0,0 km/h (0 Bft) 100,00 %
03.05.2026 01:25 9,6 °C 67 % 1019,5 hPa 0,0 l/m² 0,0 km/h (0 Bft) N 0 ° 0,000 mm 3,8 °C 9,6 °C 0,0 km/h (0 Bft) 100,00 %
03.05.2026 01:24 9,6 °C 67 % 1019,6 hPa 0,0 l/m² 0,0 km/h (0 Bft) N 0 ° 0,000 mm 3,8 °C 9,6 °C 0,0 km/h (0 Bft) 95,65 %
03.05.2026 01:23 9,6 °C 67 % 1019,6 hPa 0,0 l/m² 0,0 km/h (0 Bft) N 0 ° 0,000 mm 3,8 °C 9,6 °C 0,0 km/h (0 Bft) 100,00 %
03.05.2026 01:22 9,6 °C 67 % 1019,6 hPa 0,0 l/m² 0,0 km/h (0 Bft) N 0 ° 0,000 mm 3,8 °C 9,6 °C 0,0 km/h (0 Bft) 100,00 %
03.05.2026 01:21 9,6 °C 67 % 1019,6 hPa 0,0 l/m² 0,0 km/h (0 Bft) N 0 ° 0,000 mm 3,8 °C 9,6 °C 0,0 km/h (0 Bft) 100,00 %
03.05.2026 01:20 9,7 °C 67 % 1019,6 hPa 0,0 l/m² 0,0 km/h (0 Bft) N 0 ° 0,000 mm 3,9 °C 9,7 °C 0,0 km/h (0 Bft) 100,00 %
03.05.2026 01:19 9,7 °C 67 % 1019,6 hPa 0,0 l/m² 0,0 km/h (0 Bft) N 0 ° 0,000 mm 3,9 °C 9,7 °C 0,0 km/h (0 Bft) 100,00 %
03.05.2026 01:18 9,7 °C 67 % 1019,6 hPa 0,0 l/m² 0,0 km/h (0 Bft) N 0 ° 0,000 mm 3,9 °C 9,7 °C 0,0 km/h (0 Bft) 100,00 %
03.05.2026 01:17 9,8 °C 67 % 1019,5 hPa 0,0 l/m² 0,0 km/h (0 Bft) N 0 ° 0,000 mm 4,0 °C 9,8 °C 0,0 km/h (0 Bft) 100,00 %
03.05.2026 01:16 9,8 °C 67 % 1019,6 hPa 0,0 l/m² 0,0 km/h (0 Bft) N 0 ° 0,000 mm 4,0 °C 9,8 °C 0,0 km/h (0 Bft) 100,00 %
03.05.2026 01:15 9,8 °C 67 % 1019,6 hPa 0,0 l/m² 0,0 km/h (0 Bft) N 0 ° 0,000 mm 4,0 °C 9,8 °C 0,0 km/h (0 Bft) 100,00 %
03.05.2026 01:14 9,9 °C 67 % 1019,6 hPa 0,0 l/m² 0,0 km/h (0 Bft) N 0 ° 0,000 mm 4,1 °C 9,9 °C 0,0 km/h (0 Bft) 100,00 %
03.05.2026 01:13 9,9 °C 67 % 1019,6 hPa 0,0 l/m² 0,0 km/h (0 Bft) N 0 ° 0,000 mm 4,1 °C 9,9 °C 0,0 km/h (0 Bft) 100,00 %
03.05.2026 01:12 10,1 °C 67 % 1019,6 hPa 0,0 l/m² 0,0 km/h (0 Bft) W-SW 247 ° 0,000 mm 4,3 °C 10,1 °C 1,6 km/h (1 Bft) 100,00 %
03.05.2026 01:11 10,1 °C 66 % 1019,6 hPa 0,0 l/m² 0,0 km/h (0 Bft) W-SW 247 ° 0,000 mm 4,0 °C 10,1 °C 1,6 km/h (1 Bft) 100,00 %
03.05.2026 01:10 10,2 °C 66 % 1019,6 hPa 0,0 l/m² 0,0 km/h (0 Bft) N 0 ° 0,000 mm 4,1 °C 10,2 °C 0,0 km/h (0 Bft) 95,65 %
03.05.2026 01:09 10,2 °C 65 % 1019,7 hPa 0,0 l/m² 0,0 km/h (0 Bft) N 0 ° 0,000 mm 3,9 °C 10,2 °C 0,0 km/h (0 Bft) 100,00 %
03.05.2026 01:08 10,2 °C 65 % 1019,5 hPa 0,0 l/m² 0,0 km/h (0 Bft) N 0 ° 0,000 mm 3,9 °C 10,2 °C 0,0 km/h (0 Bft) 100,00 %
03.05.2026 01:07 10,3 °C 65 % 1019,6 hPa 0,0 l/m² 0,0 km/h (0 Bft) N 0 ° 0,000 mm 4,0 °C 10,3 °C 0,0 km/h (0 Bft) 95,65 %
03.05.2026 01:06 10,3 °C 65 % 1019,5 hPa 0,0 l/m² 0,0 km/h (0 Bft) N 0 ° 0,000 mm 4,0 °C 10,3 °C 0,0 km/h (0 Bft) 100,00 %
03.05.2026 01:05 10,2 °C 64 % 1019,6 hPa 0,0 l/m² 0,0 km/h (0 Bft) N 0 ° 0,000 mm 3,7 °C 10,2 °C 0,0 km/h (0 Bft) 100,00 %
03.05.2026 01:04 10,1 °C 64 % 1019,6 hPa 0,0 l/m² 0,0 km/h (0 Bft) W-SW 247 ° 0,000 mm 3,6 °C 10,1 °C 1,6 km/h (1 Bft) 100,00 %
03.05.2026 01:03 10,1 °C 66 % 1019,6 hPa 0,0 l/m² 0,0 km/h (0 Bft) N 0 ° 0,000 mm 4,0 °C 10,1 °C 0,0 km/h (0 Bft) 95,65 %
03.05.2026 01:02 10,1 °C 66 % 1019,6 hPa 0,0 l/m² 0,0 km/h (0 Bft) N 0 ° 0,000 mm 4,0 °C 10,1 °C 0,0 km/h (0 Bft) 95,65 %
03.05.2026 01:01 10,1 °C 66 % 1019,5 hPa 0,0 l/m² 0,0 km/h (0 Bft) N 0 ° 0,000 mm 4,0 °C 10,1 °C 0,0 km/h (0 Bft) 100,00 %
03.05.2026 01:00 10,1 °C 66 % 1019,5 hPa 0,0 l/m² 0,0 km/h (0 Bft) N 0 ° 0,000 mm 4,0 °C 10,1 °C 0,0 km/h (0 Bft) 100,00 %
03.05.2026 00:59 10,1 °C 66 % 1019,6 hPa 0,0 l/m² 0,0 km/h (0 Bft) W-SW 247 ° 0,000 mm 4,0 °C 10,1 °C 1,6 km/h (1 Bft) 100,00 %
03.05.2026 00:58 10,2 °C 65 % 1019,6 hPa 0,0 l/m² 1,6 km/h (1 Bft) W-SW 247 ° 0,000 mm 3,9 °C 10,2 °C 3,2 km/h (1 Bft) 95,65 %
03.05.2026 00:57 10,3 °C 65 % 1019,6 hPa 0,0 l/m² 1,6 km/h (1 Bft) SW 225 ° 0,000 mm 4,0 °C 10,3 °C 3,2 km/h (1 Bft) 100,00 %
03.05.2026 00:56 10,4 °C 64 % 1019,6 hPa 0,0 l/m² 0,0 km/h (0 Bft) SW 225 ° 0,000 mm 3,9 °C 10,4 °C 3,2 km/h (1 Bft) 100,00 %
03.05.2026 00:55 10,5 °C 64 % 1019,6 hPa 0,0 l/m² 0,0 km/h (0 Bft) N 0 ° 0,000 mm 4,0 °C 10,5 °C 0,0 km/h (0 Bft) 100,00 %
03.05.2026 00:54 10,6 °C 64 % 1019,7 hPa 0,0 l/m² 0,0 km/h (0 Bft) N 0 ° 0,000 mm 4,1 °C 10,6 °C 0,0 km/h (0 Bft) 100,00 %
03.05.2026 00:53 10,7 °C 63 % 1019,6 hPa 0,0 l/m² 0,0 km/h (0 Bft) N 0 ° 0,000 mm 3,9 °C 10,7 °C 0,0 km/h (0 Bft) 95,65 %
03.05.2026 00:52 10,7 °C 62 % 1019,6 hPa 0,0 l/m² 0,0 km/h (0 Bft) N 0 ° 0,000 mm 3,7 °C 10,7 °C 0,0 km/h (0 Bft) 100,00 %
03.05.2026 00:51 10,8 °C 62 % 1019,6 hPa 0,0 l/m² 0,0 km/h (0 Bft) SW 225 ° 0,000 mm 3,8 °C 10,8 °C 1,6 km/h (1 Bft) 95,65 %
03.05.2026 00:50 10,8 °C 62 % 1019,6 hPa 0,0 l/m² 0,0 km/h (0 Bft) N 0 ° 0,000 mm 3,8 °C 10,8 °C 0,0 km/h (0 Bft) 100,00 %
03.05.2026 00:49 10,9 °C 62 % 1019,6 hPa 0,0 l/m² 0,0 km/h (0 Bft) N 0 ° 0,000 mm 3,9 °C 10,9 °C 0,0 km/h (0 Bft) 100,00 %
03.05.2026 00:48 10,9 °C 61 % 1019,6 hPa 0,0 l/m² 0,0 km/h (0 Bft) N 0 ° 0,000 mm 3,7 °C 10,9 °C 0,0 km/h (0 Bft) 95,65 %
03.05.2026 00:47 11,1 °C 61 % 1019,7 hPa 0,0 l/m² 0,0 km/h (0 Bft) N 0 ° 0,000 mm 3,9 °C 11,1 °C 0,0 km/h (0 Bft) 100,00 %
03.05.2026 00:46 11,1 °C 61 % 1019,6 hPa 0,0 l/m² 0,0 km/h (0 Bft) N 0 ° 0,000 mm 3,9 °C 11,1 °C 0,0 km/h (0 Bft) 100,00 %
03.05.2026 00:45 11,1 °C 61 % 1019,6 hPa 0,0 l/m² 0,0 km/h (0 Bft) N 0 ° 0,000 mm 3,9 °C 11,1 °C 0,0 km/h (0 Bft) 100,00 %
03.05.2026 00:44 11,2 °C 60 % 1019,6 hPa 0,0 l/m² 0,0 km/h (0 Bft) SW 225 ° 0,000 mm 3,7 °C 11,2 °C 1,6 km/h (1 Bft) 100,00 %
03.05.2026 00:43 11,2 °C 60 % 1019,6 hPa 0,0 l/m² 0,0 km/h (0 Bft) N 0 ° 0,000 mm 3,7 °C 11,2 °C 0,0 km/h (0 Bft) 100,00 %
03.05.2026 00:42 11,2 °C 59 % 1019,6 hPa 0,0 l/m² 0,0 km/h (0 Bft) N 0 ° 0,000 mm 3,5 °C 11,2 °C 0,0 km/h (0 Bft) 100,00 %
03.05.2026 00:41 11,3 °C 59 % 1019,7 hPa 0,0 l/m² 0,0 km/h (0 Bft) N 0 ° 0,000 mm 3,6 °C 11,3 °C 0,0 km/h (0 Bft) 100,00 %
03.05.2026 00:40 11,3 °C 59 % 1019,6 hPa 0,0 l/m² 0,0 km/h (0 Bft) N 0 ° 0,000 mm 3,6 °C 11,3 °C 0,0 km/h (0 Bft) 100,00 %
03.05.2026 00:39 11,4 °C 60 % 1019,7 hPa 0,0 l/m² 0,0 km/h (0 Bft) N 0 ° 0,000 mm 3,9 °C 11,4 °C 0,0 km/h (0 Bft) 100,00 %
03.05.2026 00:38 11,4 °C 59 % 1019,7 hPa 0,0 l/m² 0,0 km/h (0 Bft) N 0 ° 0,000 mm 3,7 °C 11,4 °C 0,0 km/h (0 Bft) 100,00 %
03.05.2026 00:37 11,5 °C 59 % 1019,7 hPa 0,0 l/m² 0,0 km/h (0 Bft) N 0 ° 0,000 mm 3,8 °C 11,5 °C 0,0 km/h (0 Bft) 100,00 %
03.05.2026 00:36 11,6 °C 59 % 1019,7 hPa 0,0 l/m² 0,0 km/h (0 Bft) N 0 ° 0,000 mm 3,9 °C 11,6 °C 0,0 km/h (0 Bft) 100,00 %
03.05.2026 00:35 11,7 °C 59 % 1019,7 hPa 0,0 l/m² 0,0 km/h (0 Bft) N 0 ° 0,000 mm 4,0 °C 11,7 °C 0,0 km/h (0 Bft) 100,00 %
03.05.2026 00:34 11,8 °C 59 % 1019,7 hPa 0,0 l/m² 0,0 km/h (0 Bft) N 0 ° 0,000 mm 4,1 °C 11,8 °C 0,0 km/h (0 Bft) 95,65 %
03.05.2026 00:33 11,8 °C 59 % 1019,6 hPa 0,0 l/m² 0,0 km/h (0 Bft) N 0 ° 0,000 mm 4,1 °C 11,8 °C 3,2 km/h (1 Bft) 100,00 %
03.05.2026 00:32 11,9 °C 59 % 1019,7 hPa 0,0 l/m² 1,6 km/h (1 Bft) SW 225 ° 0,000 mm 4,1 °C 11,9 °C 3,2 km/h (1 Bft) 100,00 %
03.05.2026 00:31 11,9 °C 57 % 1019,7 hPa 0,0 l/m² 0,0 km/h (0 Bft) W-SW 247 ° 0,000 mm 3,7 °C 11,9 °C 1,6 km/h (1 Bft) 100,00 %
03.05.2026 00:30 11,9 °C 58 % 1019,7 hPa 0,0 l/m² 0,0 km/h (0 Bft) N 0 ° 0,000 mm 3,9 °C 11,9 °C 0,0 km/h (0 Bft) 100,00 %
03.05.2026 00:29 11,9 °C 58 % 1019,7 hPa 0,0 l/m² 0,0 km/h (0 Bft) W-SW 247 ° 0,000 mm 3,9 °C 11,9 °C 1,6 km/h (1 Bft) 100,00 %
03.05.2026 00:28 12,0 °C 58 % 1019,7 hPa 0,0 l/m² 0,0 km/h (0 Bft) N 0 ° 0,000 mm 4,0 °C 12,0 °C 0,0 km/h (0 Bft) 100,00 %
03.05.2026 00:27 12,2 °C 58 % 1019,7 hPa 0,0 l/m² 0,0 km/h (0 Bft) N 0 ° 0,000 mm 4,2 °C 12,2 °C 0,0 km/h (0 Bft) 100,00 %
03.05.2026 00:26 12,3 °C 57 % 1019,8 hPa 0,0 l/m² 0,0 km/h (0 Bft) N 0 ° 0,000 mm 4,0 °C 12,3 °C 0,0 km/h (0 Bft) 100,00 %
03.05.2026 00:25 12,4 °C 57 % 1019,7 hPa 0,0 l/m² 0,0 km/h (0 Bft) N 0 ° 0,000 mm 4,1 °C 12,4 °C 0,0 km/h (0 Bft) 100,00 %
03.05.2026 00:24 12,6 °C 57 % 1019,7 hPa 0,0 l/m² 0,0 km/h (0 Bft) N 0 ° 0,000 mm 4,3 °C 12,6 °C 0,0 km/h (0 Bft) 100,00 %
03.05.2026 00:23 12,7 °C 56 % 1019,8 hPa 0,0 l/m² 0,0 km/h (0 Bft) W-SW 247 ° 0,000 mm 4,2 °C 12,7 °C 1,6 km/h (1 Bft) 100,00 %
03.05.2026 00:22 12,9 °C 56 % 1019,8 hPa 0,0 l/m² 0,0 km/h (0 Bft) W-SW 247 ° 0,000 mm 4,3 °C 12,9 °C 1,6 km/h (1 Bft) 100,00 %
03.05.2026 00:21 12,9 °C 55 % 1019,8 hPa 0,0 l/m² 0,0 km/h (0 Bft) N 0 ° 0,000 mm 4,1 °C 12,9 °C 0,0 km/h (0 Bft) 100,00 %
03.05.2026 00:20 13,0 °C 54 % 1019,8 hPa 0,0 l/m² 0,0 km/h (0 Bft) N 0 ° 0,000 mm 3,9 °C 13,0 °C 0,0 km/h (0 Bft) 100,00 %
03.05.2026 00:19 13,1 °C 54 % 1019,8 hPa 0,0 l/m² 0,0 km/h (0 Bft) N 0 ° 0,000 mm 4,0 °C 13,1 °C 0,0 km/h (0 Bft) 100,00 %
03.05.2026 00:18 13,1 °C 54 % 1019,8 hPa 0,0 l/m² 0,0 km/h (0 Bft) N 0 ° 0,000 mm 4,0 °C 13,1 °C 0,0 km/h (0 Bft) 100,00 %
03.05.2026 00:17 13,2 °C 54 % 1019,8 hPa 0,0 l/m² 0,0 km/h (0 Bft) N 0 ° 0,000 mm 4,1 °C 13,2 °C 0,0 km/h (0 Bft) 100,00 %
03.05.2026 00:16 13,3 °C 55 % 1019,8 hPa 0,0 l/m² 0,0 km/h (0 Bft) W-SW 247 ° 0,000 mm 4,5 °C 13,3 °C 1,6 km/h (1 Bft) 100,00 %
03.05.2026 00:15 13,3 °C 53 % 1019,7 hPa 0,0 l/m² 0,0 km/h (0 Bft) N 0 ° 0,000 mm 3,9 °C 13,3 °C 0,0 km/h (0 Bft) 100,00 %
03.05.2026 00:14 13,3 °C 54 % 1019,8 hPa 0,0 l/m² 0,0 km/h (0 Bft) N 0 ° 0,000 mm 4,2 °C 13,3 °C 0,0 km/h (0 Bft) 100,00 %
03.05.2026 00:13 13,3 °C 54 % 1019,7 hPa 0,0 l/m² 0,0 km/h (0 Bft) N 0 ° 0,000 mm 4,2 °C 13,3 °C 0,0 km/h (0 Bft) 100,00 %
03.05.2026 00:12 13,2 °C 53 % 1019,8 hPa 0,0 l/m² 0,0 km/h (0 Bft) W-SW 247 ° 0,000 mm 3,8 °C 13,2 °C 1,6 km/h (1 Bft) 100,00 %
03.05.2026 00:11 13,1 °C 54 % 1019,8 hPa 0,0 l/m² 0,0 km/h (0 Bft) N 0 ° 0,000 mm 4,0 °C 13,1 °C 0,0 km/h (0 Bft) 100,00 %
03.05.2026 00:10 12,9 °C 54 % 1019,8 hPa 0,0 l/m² 0,0 km/h (0 Bft) N 0 ° 0,000 mm 3,8 °C 12,9 °C 0,0 km/h (0 Bft) 100,00 %
03.05.2026 00:09 12,8 °C 54 % 1019,7 hPa 0,0 l/m² 0,0 km/h (0 Bft) N 0 ° 0,000 mm 3,7 °C 12,8 °C 0,0 km/h (0 Bft) 100,00 %
03.05.2026 00:08 12,7 °C 54 % 1019,7 hPa 0,0 l/m² 0,0 km/h (0 Bft) N 0 ° 0,000 mm 3,6 °C 12,7 °C 0,0 km/h (0 Bft) 100,00 %
03.05.2026 00:07 12,7 °C 54 % 1019,8 hPa 0,0 l/m² 0,0 km/h (0 Bft) N 0 ° 0,000 mm 3,6 °C 12,7 °C 0,0 km/h (0 Bft) 100,00 %
03.05.2026 00:06 12,7 °C 54 % 1019,8 hPa 0,0 l/m² 0,0 km/h (0 Bft) N 0 ° 0,000 mm 3,6 °C 12,7 °C 0,0 km/h (0 Bft) 100,00 %
03.05.2026 00:05 12,8 °C 55 % 1019,7 hPa 0,0 l/m² 0,0 km/h (0 Bft) N 0 ° 0,000 mm 4,0 °C 12,8 °C 0,0 km/h (0 Bft) 100,00 %
03.05.2026 00:04 12,8 °C 54 % 1019,8 hPa 0,0 l/m² 0,0 km/h (0 Bft) N 0 ° 0,000 mm 3,7 °C 12,8 °C 0,0 km/h (0 Bft) 100,00 %
03.05.2026 00:03 12,9 °C 55 % 1019,8 hPa 0,0 l/m² 0,0 km/h (0 Bft) N 0 ° 0,000 mm 4,1 °C 12,9 °C 0,0 km/h (0 Bft) 100,00 %
03.05.2026 00:02 12,9 °C 55 % 1019,7 hPa 0,0 l/m² 0,0 km/h (0 Bft) N 0 ° 0,000 mm 4,1 °C 12,9 °C 0,0 km/h (0 Bft) 95,65 %
03.05.2026 00:01 13,1 °C 55 % 1019,7 hPa 0,0 l/m² 0,0 km/h (0 Bft) W-SW 247 ° 0,000 mm 4,3 °C 13,1 °C 1,6 km/h (1 Bft) 100,00 %
03.05.2026 00:00 13,2 °C 55 % 1019,8 hPa 0,0 l/m² 0,0 km/h (0 Bft) N 0 ° 0,000 mm 4,4 °C 13,2 °C 0,0 km/h (0 Bft) 100,00 %
02.05.2026 23:59 13,3 °C 54 % 1019,8 hPa 0,0 l/m² 0,0 km/h (0 Bft) N 0 ° 0,000 mm 4,2 °C 13,3 °C 0,0 km/h (0 Bft) 100,00 %
02.05.2026 23:58 13,3 °C 54 % 1019,8 hPa 0,0 l/m² 0,0 km/h (0 Bft) N 0 ° 0,000 mm 4,2 °C 13,3 °C 0,0 km/h (0 Bft) 100,00 %
02.05.2026 23:57 13,3 °C 53 % 1019,7 hPa 0,0 l/m² 0,0 km/h (0 Bft) N 0 ° 0,000 mm 3,9 °C 13,3 °C 0,0 km/h (0 Bft) 100,00 %
02.05.2026 23:56 13,4 °C 53 % 1019,7 hPa 0,0 l/m² 0,0 km/h (0 Bft) N 0 ° 0,000 mm 4,0 °C 13,4 °C 0,0 km/h (0 Bft) 100,00 %
02.05.2026 23:55 13,4 °C 53 % 1019,7 hPa 0,0 l/m² 0,0 km/h (0 Bft) N 0 ° 0,000 mm 4,0 °C 13,4 °C 0,0 km/h (0 Bft) 100,00 %
02.05.2026 23:54 13,5 °C 53 % 1019,8 hPa 0,0 l/m² 0,0 km/h (0 Bft) W 270 ° 0,000 mm 4,1 °C 13,5 °C 1,6 km/h (1 Bft) 100,00 %
02.05.2026 23:53 13,5 °C 52 % 1019,8 hPa 0,0 l/m² 0,0 km/h (0 Bft) N 0 ° 0,000 mm 3,8 °C 13,5 °C 0,0 km/h (0 Bft) 100,00 %
02.05.2026 23:52 13,6 °C 52 % 1019,8 hPa 0,0 l/m² 0,0 km/h (0 Bft) N 0 ° 0,000 mm 3,9 °C 13,6 °C 0,0 km/h (0 Bft) 100,00 %
02.05.2026 23:51 13,6 °C 52 % 1019,7 hPa 0,0 l/m² 0,0 km/h (0 Bft) N 0 ° 0,000 mm 3,9 °C 13,6 °C 0,0 km/h (0 Bft) 100,00 %
02.05.2026 23:50 13,6 °C 52 % 1019,7 hPa 0,0 l/m² 0,0 km/h (0 Bft) N 0 ° 0,000 mm 3,9 °C 13,6 °C 0,0 km/h (0 Bft) 100,00 %
02.05.2026 23:49 13,6 °C 52 % 1019,6 hPa 0,0 l/m² 0,0 km/h (0 Bft) N 0 ° 0,000 mm 3,9 °C 13,6 °C 0,0 km/h (0 Bft) 100,00 %
02.05.2026 23:48 13,6 °C 52 % 1019,6 hPa 0,0 l/m² 0,0 km/h (0 Bft) W-NW 292 ° 0,000 mm 3,9 °C 13,6 °C 1,6 km/h (1 Bft) 100,00 %
02.05.2026 23:47 13,6 °C 52 % 1019,7 hPa 0,0 l/m² 0,0 km/h (0 Bft) N 0 ° 0,000 mm 3,9 °C 13,6 °C 0,0 km/h (0 Bft) 100,00 %
02.05.2026 23:46 13,7 °C 52 % 1019,7 hPa 0,0 l/m² 0,0 km/h (0 Bft) N 0 ° 0,000 mm 4,0 °C 13,7 °C 0,0 km/h (0 Bft) 100,00 %
02.05.2026 23:45 13,8 °C 51 % 1019,6 hPa 0,0 l/m² 0,0 km/h (0 Bft) N 0 ° 0,000 mm 3,8 °C 13,8 °C 0,0 km/h (0 Bft) 95,65 %
02.05.2026 23:44 13,8 °C 51 % 1019,6 hPa 0,0 l/m² 0,0 km/h (0 Bft) N 0 ° 0,000 mm 3,8 °C 13,8 °C 0,0 km/h (0 Bft) 100,00 %
02.05.2026 23:43 13,9 °C 51 % 1019,7 hPa 0,0 l/m² 0,0 km/h (0 Bft) N 0 ° 0,000 mm 3,9 °C 13,9 °C 0,0 km/h (0 Bft) 100,00 %
02.05.2026 23:42 14,1 °C 52 % 1019,6 hPa 0,0 l/m² 0,0 km/h (0 Bft) N 0 ° 0,000 mm 4,4 °C 14,1 °C 0,0 km/h (0 Bft) 100,00 %
02.05.2026 23:41 14,1 °C 51 % 1019,7 hPa 0,0 l/m² 0,0 km/h (0 Bft) N 0 ° 0,000 mm 4,1 °C 14,1 °C 0,0 km/h (0 Bft) 100,00 %
02.05.2026 23:40 14,2 °C 50 % 1019,7 hPa 0,0 l/m² 0,0 km/h (0 Bft) N 0 ° 0,000 mm 3,9 °C 14,2 °C 0,0 km/h (0 Bft) 100,00 %
02.05.2026 23:39 14,3 °C 50 % 1019,6 hPa 0,0 l/m² 0,0 km/h (0 Bft) N 0 ° 0,000 mm 4,0 °C 14,3 °C 0,0 km/h (0 Bft) 100,00 %
02.05.2026 23:38 14,3 °C 50 % 1019,6 hPa 0,0 l/m² 0,0 km/h (0 Bft) N 0 ° 0,000 mm 4,0 °C 14,3 °C 0,0 km/h (0 Bft) 100,00 %
02.05.2026 23:37 14,4 °C 50 % 1019,7 hPa 0,0 l/m² 0,0 km/h (0 Bft) N 0 ° 0,000 mm 4,1 °C 14,4 °C 0,0 km/h (0 Bft) 100,00 %
02.05.2026 23:36 14,5 °C 49 % 1019,6 hPa 0,0 l/m² 0,0 km/h (0 Bft) N 0 ° 0,000 mm 3,9 °C 14,5 °C 0,0 km/h (0 Bft) 100,00 %
02.05.2026 23:35 14,5 °C 49 % 1019,6 hPa 0,0 l/m² 0,0 km/h (0 Bft) N 0 ° 0,000 mm 3,9 °C 14,5 °C 0,0 km/h (0 Bft) 100,00 %
02.05.2026 23:34 14,6 °C 49 % 1019,7 hPa 0,0 l/m² 0,0 km/h (0 Bft) W-NW 292 ° 0,000 mm 4,0 °C 14,6 °C 1,6 km/h (1 Bft) 100,00 %
02.05.2026 23:33 14,6 °C 49 % 1019,7 hPa 0,0 l/m² 0,0 km/h (0 Bft) N 0 ° 0,000 mm 4,0 °C 14,6 °C 0,0 km/h (0 Bft) 100,00 %
02.05.2026 23:32 14,6 °C 49 % 1019,7 hPa 0,0 l/m² 0,0 km/h (0 Bft) W-NW 292 ° 0,000 mm 4,0 °C 14,6 °C 1,6 km/h (1 Bft) 100,00 %
02.05.2026 23:31 14,7 °C 49 % 1019,7 hPa 0,0 l/m² 0,0 km/h (0 Bft) N 0 ° 0,000 mm 4,1 °C 14,7 °C 0,0 km/h (0 Bft) 100,00 %
02.05.2026 23:30 14,7 °C 49 % 1019,7 hPa 0,0 l/m² 0,0 km/h (0 Bft) N 0 ° 0,000 mm 4,1 °C 14,7 °C 0,0 km/h (0 Bft) 95,65 %
02.05.2026 23:29 14,7 °C 49 % 1019,7 hPa 0,0 l/m² 0,0 km/h (0 Bft) W-NW 292 ° 0,000 mm 4,1 °C 14,7 °C 1,6 km/h (1 Bft) 100,00 %
02.05.2026 23:28 14,7 °C 48 % 1019,8 hPa 0,0 l/m² 0,0 km/h (0 Bft) W-NW 292 ° 0,000 mm 3,8 °C 14,7 °C 1,6 km/h (1 Bft) 100,00 %
02.05.2026 23:27 14,7 °C 48 % 1019,8 hPa 0,0 l/m² 1,6 km/h (1 Bft) W-NW 292 ° 0,000 mm 3,8 °C 14,7 °C 1,6 km/h (1 Bft) 100,00 %
02.05.2026 23:26 14,7 °C 49 % 1019,8 hPa 0,0 l/m² 0,0 km/h (0 Bft) W-NW 292 ° 0,000 mm 4,1 °C 14,7 °C 1,6 km/h (1 Bft) 100,00 %
02.05.2026 23:25 14,8 °C 48 % 1019,8 hPa 0,0 l/m² 0,0 km/h (0 Bft) N 0 ° 0,000 mm 3,9 °C 14,8 °C 0,0 km/h (0 Bft) 100,00 %
02.05.2026 23:24 14,8 °C 48 % 1019,9 hPa 0,0 l/m² 0,0 km/h (0 Bft) N 0 ° 0,000 mm 3,9 °C 14,8 °C 0,0 km/h (0 Bft) 100,00 %
02.05.2026 23:23 14,9 °C 48 % 1019,8 hPa 0,0 l/m² 0,0 km/h (0 Bft) N 0 ° 0,000 mm 4,0 °C 14,9 °C 0,0 km/h (0 Bft) 95,65 %
02.05.2026 23:22 15,0 °C 48 % 1019,8 hPa 0,0 l/m² 0,0 km/h (0 Bft) N 0 ° 0,000 mm 4,1 °C 15,0 °C 0,0 km/h (0 Bft) 100,00 %
02.05.2026 23:21 15,1 °C 47 % 1019,9 hPa 0,0 l/m² 0,0 km/h (0 Bft) N 0 ° 0,000 mm 3,9 °C 15,1 °C 0,0 km/h (0 Bft) 100,00 %
02.05.2026 23:20 15,2 °C 47 % 1019,9 hPa 0,0 l/m² 0,0 km/h (0 Bft) W-NW 292 ° 0,000 mm 4,0 °C 15,2 °C 1,6 km/h (1 Bft) 95,65 %
02.05.2026 23:19 15,2 °C 47 % 1019,8 hPa 0,0 l/m² 0,0 km/h (0 Bft) N 0 ° 0,000 mm 4,0 °C 15,2 °C 0,0 km/h (0 Bft) 100,00 %
02.05.2026 23:18 15,3 °C 47 % 1019,8 hPa 0,0 l/m² 0,0 km/h (0 Bft) W-NW 292 ° 0,000 mm 4,1 °C 15,3 °C 1,6 km/h (1 Bft) 100,00 %
02.05.2026 23:17 15,3 °C 47 % 1019,8 hPa 0,0 l/m² 1,6 km/h (1 Bft) W-NW 292 ° 0,000 mm 4,1 °C 15,3 °C 3,2 km/h (1 Bft) 100,00 %
02.05.2026 23:16 15,3 °C 46 % 1019,9 hPa 0,0 l/m² 1,6 km/h (1 Bft) W-NW 292 ° 0,000 mm 3,8 °C 15,3 °C 3,2 km/h (1 Bft) 100,00 %
02.05.2026 23:15 15,3 °C 46 % 1019,8 hPa 0,0 l/m² 3,2 km/h (1 Bft) W-NW 292 ° 0,000 mm 3,8 °C 15,3 °C 3,2 km/h (1 Bft) 95,65 %
02.05.2026 23:14 15,3 °C 46 % 1019,9 hPa 0,0 l/m² 1,6 km/h (1 Bft) W-NW 292 ° 0,000 mm 3,8 °C 15,3 °C 3,2 km/h (1 Bft) 100,00 %
02.05.2026 23:13 15,3 °C 46 % 1020,0 hPa 0,0 l/m² 1,6 km/h (1 Bft) W-NW 292 ° 0,000 mm 3,8 °C 15,3 °C 3,2 km/h (1 Bft) 100,00 %
02.05.2026 23:12 15,4 °C 46 % 1019,9 hPa 0,0 l/m² 1,6 km/h (1 Bft) W-NW 292 ° 0,000 mm 3,8 °C 15,4 °C 1,6 km/h (1 Bft) 100,00 %
02.05.2026 23:11 15,3 °C 46 % 1019,8 hPa 0,0 l/m² 1,6 km/h (1 Bft) W-NW 292 ° 0,000 mm 3,8 °C 15,3 °C 3,2 km/h (1 Bft) 95,65 %
02.05.2026 23:10 15,3 °C 46 % 1019,8 hPa 0,0 l/m² 0,0 km/h (0 Bft) N 0 ° 0,000 mm 3,8 °C 15,3 °C 0,0 km/h (0 Bft) 100,00 %
02.05.2026 23:09 15,4 °C 46 % 1019,9 hPa 0,0 l/m² 0,0 km/h (0 Bft) N 0 ° 0,000 mm 3,8 °C 15,4 °C 0,0 km/h (0 Bft) 95,65 %
02.05.2026 23:08 15,4 °C 46 % 1019,9 hPa 0,0 l/m² 0,0 km/h (0 Bft) N 0 ° 0,000 mm 3,8 °C 15,4 °C 0,0 km/h (0 Bft) 100,00 %
02.05.2026 23:07 15,4 °C 46 % 1019,9 hPa 0,0 l/m² 0,0 km/h (0 Bft) N 0 ° 0,000 mm 3,8 °C 15,4 °C 0,0 km/h (0 Bft) 100,00 %
02.05.2026 23:06 15,4 °C 46 % 1019,9 hPa 0,0 l/m² 0,0 km/h (0 Bft) N 0 ° 0,000 mm 3,8 °C 15,4 °C 0,0 km/h (0 Bft) 100,00 %
02.05.2026 23:05 15,4 °C 46 % 1019,8 hPa 0,0 l/m² 0,0 km/h (0 Bft) N 0 ° 0,000 mm 3,8 °C 15,4 °C 0,0 km/h (0 Bft) 100,00 %
02.05.2026 23:04 15,4 °C 46 % 1019,9 hPa 0,0 l/m² 0,0 km/h (0 Bft) N 0 ° 0,000 mm 3,8 °C 15,4 °C 0,0 km/h (0 Bft) 100,00 %
02.05.2026 23:03 15,4 °C 46 % 1019,8 hPa 0,0 l/m² 0,0 km/h (0 Bft) N 0 ° 0,000 mm 3,8 °C 15,4 °C 0,0 km/h (0 Bft) 100,00 %
02.05.2026 23:02 15,4 °C 46 % 1019,9 hPa 0,0 l/m² 0,0 km/h (0 Bft) N 0 ° 0,000 mm 3,8 °C 15,4 °C 0,0 km/h (0 Bft) 100,00 %
02.05.2026 23:01 15,4 °C 46 % 1019,8 hPa 0,0 l/m² 0,0 km/h (0 Bft) N 0 ° 0,000 mm 3,8 °C 15,4 °C 0,0 km/h (0 Bft) 95,65 %
02.05.2026 23:00 15,4 °C 46 % 1019,9 hPa 0,0 l/m² 0,0 km/h (0 Bft) N 0 ° 0,000 mm 3,8 °C 15,4 °C 0,0 km/h (0 Bft) 100,00 %
02.05.2026 22:59 15,4 °C 46 % 1019,8 hPa 0,0 l/m² 0,0 km/h (0 Bft) N 0 ° 0,000 mm 3,8 °C 15,4 °C 0,0 km/h (0 Bft) 100,00 %
02.05.2026 22:58 15,4 °C 46 % 1019,9 hPa 0,0 l/m² 0,0 km/h (0 Bft) N 0 ° 0,000 mm 3,8 °C 15,4 °C 0,0 km/h (0 Bft) 100,00 %
02.05.2026 22:57 15,4 °C 46 % 1020,0 hPa 0,0 l/m² 0,0 km/h (0 Bft) N 0 ° 0,000 mm 3,8 °C 15,4 °C 0,0 km/h (0 Bft) 100,00 %
02.05.2026 22:56 15,4 °C 46 % 1019,9 hPa 0,0 l/m² 0,0 km/h (0 Bft) N 0 ° 0,000 mm 3,8 °C 15,4 °C 0,0 km/h (0 Bft) 100,00 %
02.05.2026 22:55 15,4 °C 46 % 1019,8 hPa 0,0 l/m² 0,0 km/h (0 Bft) N 0 ° 0,000 mm 3,8 °C 15,4 °C 0,0 km/h (0 Bft) 100,00 %
02.05.2026 22:54 15,4 °C 46 % 1019,9 hPa 0,0 l/m² 0,0 km/h (0 Bft) N 0 ° 0,000 mm 3,8 °C 15,4 °C 0,0 km/h (0 Bft) 95,65 %
02.05.2026 22:53 15,4 °C 46 % 1019,9 hPa 0,0 l/m² 0,0 km/h (0 Bft) W 270 ° 0,000 mm 3,8 °C 15,4 °C 1,6 km/h (1 Bft) 100,00 %
02.05.2026 22:52 15,4 °C 46 % 1019,9 hPa 0,0 l/m² 0,0 km/h (0 Bft) N 0 ° 0,000 mm 3,8 °C 15,4 °C 0,0 km/h (0 Bft) 100,00 %
02.05.2026 22:51 15,4 °C 46 % 1019,9 hPa 0,0 l/m² 0,0 km/h (0 Bft) W 270 ° 0,000 mm 3,8 °C 15,4 °C 1,6 km/h (1 Bft) 95,65 %
02.05.2026 22:50 15,4 °C 46 % 1019,9 hPa 0,0 l/m² 0,0 km/h (0 Bft) W 270 ° 0,000 mm 3,8 °C 15,4 °C 1,6 km/h (1 Bft) 100,00 %
02.05.2026 22:49 15,4 °C 46 % 1019,9 hPa 0,0 l/m² 1,6 km/h (1 Bft) W 270 ° 0,000 mm 3,8 °C 15,4 °C 1,6 km/h (1 Bft) 100,00 %
02.05.2026 22:48 15,5 °C 46 % 1020,0 hPa 0,0 l/m² 0,0 km/h (0 Bft) W 270 ° 0,000 mm 3,9 °C 15,5 °C 1,6 km/h (1 Bft) 100,00 %
02.05.2026 22:47 15,5 °C 46 % 1019,9 hPa 0,0 l/m² 1,6 km/h (1 Bft) NW 315 ° 0,000 mm 3,9 °C 15,5 °C 4,8 km/h (1 Bft) 100,00 %
02.05.2026 22:46 15,5 °C 46 % 1019,9 hPa 0,0 l/m² 0,0 km/h (0 Bft) W-NW 292 ° 0,000 mm 3,9 °C 15,5 °C 1,6 km/h (1 Bft) 100,00 %
02.05.2026 22:45 15,6 °C 46 % 1020,0 hPa 0,0 l/m² 0,0 km/h (0 Bft) W-NW 292 ° 0,000 mm 4,0 °C 15,6 °C 1,6 km/h (1 Bft) 100,00 %
02.05.2026 22:44 15,6 °C 46 % 1020,0 hPa 0,0 l/m² 1,6 km/h (1 Bft) W-NW 292 ° 0,000 mm 4,0 °C 15,6 °C 3,2 km/h (1 Bft) 100,00 %
02.05.2026 22:43 15,6 °C 46 % 1020,0 hPa 0,0 l/m² 0,0 km/h (0 Bft) W-NW 292 ° 0,000 mm 4,0 °C 15,6 °C 1,6 km/h (1 Bft) 100,00 %
02.05.2026 22:42 15,7 °C 45 % 1020,0 hPa 0,0 l/m² 0,0 km/h (0 Bft) W-NW 292 ° 0,000 mm 3,8 °C 15,7 °C 3,2 km/h (1 Bft) 100,00 %
02.05.2026 22:41 15,8 °C 45 % 1019,9 hPa 0,0 l/m² 0,0 km/h (0 Bft) W 270 ° 0,000 mm 3,9 °C 15,8 °C 1,6 km/h (1 Bft) 100,00 %
02.05.2026 22:40 15,9 °C 45 % 1019,9 hPa 0,0 l/m² 0,0 km/h (0 Bft) N 0 ° 0,000 mm 4,0 °C 15,9 °C 0,0 km/h (0 Bft) 100,00 %
02.05.2026 22:39 15,9 °C 45 % 1020,0 hPa 0,0 l/m² 0,0 km/h (0 Bft) W-NW 292 ° 0,000 mm 4,0 °C 15,9 °C 1,6 km/h (1 Bft) 100,00 %
02.05.2026 22:38 16,0 °C 45 % 1020,1 hPa 0,0 l/m² 1,6 km/h (1 Bft) W-NW 292 ° 0,000 mm 4,1 °C 16,0 °C 1,6 km/h (1 Bft) 100,00 %
02.05.2026 22:37 16,1 °C 44 % 1020,0 hPa 0,0 l/m² 1,6 km/h (1 Bft) W-NW 292 ° 0,000 mm 3,8 °C 16,1 °C 1,6 km/h (1 Bft) 100,00 %
02.05.2026 22:36 16,1 °C 44 % 1020,0 hPa 0,0 l/m² 0,0 km/h (0 Bft) W-NW 292 ° 0,000 mm 3,8 °C 16,1 °C 1,6 km/h (1 Bft) 100,00 %
02.05.2026 22:35 16,2 °C 44 % 1019,9 hPa 0,0 l/m² 0,0 km/h (0 Bft) NW 315 ° 0,000 mm 3,9 °C 16,2 °C 1,6 km/h (1 Bft) 100,00 %
02.05.2026 22:34 16,2 °C 44 % 1020,0 hPa 0,0 l/m² 1,6 km/h (1 Bft) W-NW 292 ° 0,000 mm 3,9 °C 16,2 °C 3,2 km/h (1 Bft) 100,00 %
02.05.2026 22:33 16,1 °C 44 % 1020,0 hPa 0,0 l/m² 3,2 km/h (1 Bft) NO 45 ° 0,000 mm 3,8 °C 16,1 °C 6,4 km/h (2 Bft) 100,00 %
02.05.2026 22:32 16,1 °C 44 % 1020,0 hPa 0,0 l/m² 0,0 km/h (0 Bft) W-NW 292 ° 0,000 mm 3,8 °C 16,1 °C 1,6 km/h (1 Bft) 100,00 %
02.05.2026 22:31 16,1 °C 44 % 1020,0 hPa 0,0 l/m² 1,6 km/h (1 Bft) W-NW 292 ° 0,000 mm 3,8 °C 16,1 °C 3,2 km/h (1 Bft) 100,00 %
02.05.2026 22:30 16,1 °C 44 % 1020,0 hPa 0,0 l/m² 1,6 km/h (1 Bft) N-NW 337 ° 0,000 mm 3,8 °C 16,1 °C 3,2 km/h (1 Bft) 100,00 %
02.05.2026 22:29 16,1 °C 44 % 1020,0 hPa 0,0 l/m² 1,6 km/h (1 Bft) W-NW 292 ° 0,000 mm 3,8 °C 16,1 °C 3,2 km/h (1 Bft) 100,00 %
02.05.2026 22:28 15,9 °C 44 % 1020,0 hPa 0,0 l/m² 0,0 km/h (0 Bft) W-NW 292 ° 0,000 mm 3,7 °C 15,9 °C 1,6 km/h (1 Bft) 100,00 %
02.05.2026 22:27 15,9 °C 44 % 1020,0 hPa 0,0 l/m² 0,0 km/h (0 Bft) NW 315 ° 0,000 mm 3,7 °C 15,9 °C 1,6 km/h (1 Bft) 100,00 %
02.05.2026 22:26 15,9 °C 44 % 1020,1 hPa 0,0 l/m² 0,0 km/h (0 Bft) NW 315 ° 0,000 mm 3,7 °C 15,9 °C 1,6 km/h (1 Bft) 100,00 %
02.05.2026 22:25 15,9 °C 44 % 1020,1 hPa 0,0 l/m² 0,0 km/h (0 Bft) W-SW 247 ° 0,000 mm 3,7 °C 15,9 °C 1,6 km/h (1 Bft) 100,00 %
02.05.2026 22:24 15,9 °C 44 % 1020,1 hPa 0,0 l/m² 0,0 km/h (0 Bft) W-SW 247 ° 0,000 mm 3,7 °C 15,9 °C 1,6 km/h (1 Bft) 100,00 %
02.05.2026 22:23 16,0 °C 44 % 1020,0 hPa 0,0 l/m² 0,0 km/h (0 Bft) W-SW 247 ° 0,000 mm 3,8 °C 16,0 °C 1,6 km/h (1 Bft) 100,00 %
02.05.2026 22:22 16,1 °C 44 % 1020,1 hPa 0,0 l/m² 0,0 km/h (0 Bft) N 0 ° 0,000 mm 3,8 °C 16,1 °C 0,0 km/h (0 Bft) 95,65 %
02.05.2026 22:21 16,1 °C 44 % 1020,1 hPa 0,0 l/m² 0,0 km/h (0 Bft) N 0 ° 0,000 mm 3,8 °C 16,1 °C 0,0 km/h (0 Bft) 100,00 %
02.05.2026 22:20 16,1 °C 44 % 1020,1 hPa 0,0 l/m² 0,0 km/h (0 Bft) N 0 ° 0,000 mm 3,8 °C 16,1 °C 0,0 km/h (0 Bft) 100,00 %
02.05.2026 22:19 16,2 °C 44 % 1020,1 hPa 0,0 l/m² 0,0 km/h (0 Bft) W-SW 247 ° 0,000 mm 3,9 °C 16,2 °C 1,6 km/h (1 Bft) 100,00 %
02.05.2026 22:18 16,2 °C 44 % 1020,1 hPa 0,0 l/m² 0,0 km/h (0 Bft) N 0 ° 0,000 mm 3,9 °C 16,2 °C 0,0 km/h (0 Bft) 95,65 %
02.05.2026 22:17 16,2 °C 44 % 1020,0 hPa 0,0 l/m² 0,0 km/h (0 Bft) W-NW 292 ° 0,000 mm 3,9 °C 16,2 °C 1,6 km/h (1 Bft) 100,00 %
02.05.2026 22:16 16,3 °C 44 % 1020,1 hPa 0,0 l/m² 0,0 km/h (0 Bft) N 0 ° 0,000 mm 4,0 °C 16,3 °C 0,0 km/h (0 Bft) 100,00 %
02.05.2026 22:15 16,3 °C 43 % 1020,1 hPa 0,0 l/m² 0,0 km/h (0 Bft) NW 315 ° 0,000 mm 3,7 °C 16,3 °C 1,6 km/h (1 Bft) 100,00 %
02.05.2026 22:14 16,3 °C 43 % 1020,1 hPa 0,0 l/m² 0,0 km/h (0 Bft) W-NW 292 ° 0,000 mm 3,7 °C 16,3 °C 3,2 km/h (1 Bft) 100,00 %
02.05.2026 22:13 16,3 °C 43 % 1020,1 hPa 0,0 l/m² 1,6 km/h (1 Bft) W-NW 292 ° 0,000 mm 3,7 °C 16,3 °C 3,2 km/h (1 Bft) 100,00 %
02.05.2026 22:12 16,4 °C 43 % 1020,1 hPa 0,0 l/m² 0,0 km/h (0 Bft) W-NW 292 ° 0,000 mm 3,8 °C 16,4 °C 1,6 km/h (1 Bft) 100,00 %
02.05.2026 22:11 16,4 °C 43 % 1020,1 hPa 0,0 l/m² 0,0 km/h (0 Bft) N 0 ° 0,000 mm 3,8 °C 16,4 °C 0,0 km/h (0 Bft) 100,00 %
02.05.2026 22:10 16,4 °C 43 % 1020,1 hPa 0,0 l/m² 1,6 km/h (1 Bft) NW 315 ° 0,000 mm 3,8 °C 16,4 °C 4,8 km/h (1 Bft) 100,00 %
02.05.2026 22:09 16,4 °C 43 % 1020,1 hPa 0,0 l/m² 0,0 km/h (0 Bft) N 0 ° 0,000 mm 3,8 °C 16,4 °C 0,0 km/h (0 Bft) 100,00 %
02.05.2026 22:08 16,5 °C 43 % 1020,2 hPa 0,0 l/m² 0,0 km/h (0 Bft) W-SW 247 ° 0,000 mm 3,9 °C 16,5 °C 1,6 km/h (1 Bft) 100,00 %
02.05.2026 22:07 16,5 °C 43 % 1020,1 hPa 0,0 l/m² 0,0 km/h (0 Bft) N 0 ° 0,000 mm 3,9 °C 16,5 °C 0,0 km/h (0 Bft) 100,00 %
02.05.2026 22:06 16,6 °C 43 % 1020,1 hPa 0,0 l/m² 0,0 km/h (0 Bft) W-SW 247 ° 0,000 mm 4,0 °C 16,6 °C 3,2 km/h (1 Bft) 100,00 %
02.05.2026 22:05 16,6 °C 43 % 1020,1 hPa 0,0 l/m² 0,0 km/h (0 Bft) W-NW 292 ° 0,000 mm 4,0 °C 16,6 °C 1,6 km/h (1 Bft) 100,00 %
02.05.2026 22:04 16,6 °C 43 % 1020,1 hPa 0,0 l/m² 0,0 km/h (0 Bft) N 0 ° 0,000 mm 4,0 °C 16,6 °C 0,0 km/h (0 Bft) 100,00 %
02.05.2026 22:03 16,6 °C 43 % 1020,1 hPa 0,0 l/m² 1,6 km/h (1 Bft) NW 315 ° 0,000 mm 4,0 °C 16,6 °C 3,2 km/h (1 Bft) 95,65 %
02.05.2026 22:02 16,6 °C 43 % 1020,1 hPa 0,0 l/m² 0,0 km/h (0 Bft) W 270 ° 0,000 mm 4,0 °C 16,6 °C 1,6 km/h (1 Bft) 100,00 %
02.05.2026 22:01 16,6 °C 43 % 1020,1 hPa 0,0 l/m² 1,6 km/h (1 Bft) N 360 ° 0,000 mm 4,0 °C 16,6 °C 4,8 km/h (1 Bft) 100,00 %
02.05.2026 22:00 16,6 °C 43 % 1020,1 hPa 0,0 l/m² 1,6 km/h (1 Bft) N-NO 22 ° 0,000 mm 4,0 °C 16,6 °C 6,4 km/h (2 Bft) 100,00 %
02.05.2026 21:59 16,6 °C 43 % 1020,1 hPa 0,0 l/m² 0,0 km/h (0 Bft) W-NW 292 ° 0,000 mm 4,0 °C 16,6 °C 3,2 km/h (1 Bft) 100,00 %
02.05.2026 21:58 16,6 °C 43 % 1020,1 hPa 0,0 l/m² 0,0 km/h (0 Bft) W-NW 292 ° 0,000 mm 4,0 °C 16,6 °C 1,6 km/h (1 Bft) 100,00 %
02.05.2026 21:57 16,6 °C 43 % 1020,2 hPa 0,0 l/m² 0,0 km/h (0 Bft) W 270 ° 0,000 mm 4,0 °C 16,6 °C 1,6 km/h (1 Bft) 100,00 %
02.05.2026 21:56 16,6 °C 43 % 1020,1 hPa 0,0 l/m² 1,6 km/h (1 Bft) NW 315 ° 0,000 mm 4,0 °C 16,6 °C 3,2 km/h (1 Bft) 100,00 %
02.05.2026 21:55 16,6 °C 43 % 1020,1 hPa 0,0 l/m² 0,0 km/h (0 Bft) W-NW 292 ° 0,000 mm 4,0 °C 16,6 °C 3,2 km/h (1 Bft) 100,00 %
02.05.2026 21:54 16,6 °C 43 % 1020,1 hPa 0,0 l/m² 0,0 km/h (0 Bft) W 270 ° 0,000 mm 4,0 °C 16,6 °C 1,6 km/h (1 Bft) 100,00 %
02.05.2026 21:53 16,7 °C 43 % 1020,1 hPa 0,0 l/m² 0,0 km/h (0 Bft) N 0 ° 0,000 mm 4,1 °C 16,7 °C 0,0 km/h (0 Bft) 100,00 %
02.05.2026 21:52 16,7 °C 43 % 1020,2 hPa 0,0 l/m² 0,0 km/h (0 Bft) N 0 ° 0,000 mm 4,1 °C 16,7 °C 0,0 km/h (0 Bft) 100,00 %
02.05.2026 21:51 16,7 °C 42 % 1020,1 hPa 0,0 l/m² 0,0 km/h (0 Bft) W-NW 292 ° 0,000 mm 3,7 °C 16,7 °C 1,6 km/h (1 Bft) 100,00 %
02.05.2026 21:50 16,8 °C 42 % 1020,2 hPa 0,0 l/m² 0,0 km/h (0 Bft) W-NW 292 ° 0,000 mm 3,8 °C 16,8 °C 1,6 km/h (1 Bft) 100,00 %
02.05.2026 21:49 16,8 °C 42 % 1020,1 hPa 0,0 l/m² 0,0 km/h (0 Bft) W-NW 292 ° 0,000 mm 3,8 °C 16,8 °C 1,6 km/h (1 Bft) 100,00 %
02.05.2026 21:48 16,8 °C 42 % 1020,3 hPa 0,0 l/m² 0,0 km/h (0 Bft) W-NW 292 ° 0,000 mm 3,8 °C 16,8 °C 1,6 km/h (1 Bft) 100,00 %
02.05.2026 21:47 16,8 °C 42 % 1020,1 hPa 0,0 l/m² 0,0 km/h (0 Bft) N 0 ° 0,000 mm 3,8 °C 16,8 °C 0,0 km/h (0 Bft) 100,00 %
02.05.2026 21:46 16,9 °C 42 % 1020,2 hPa 0,0 l/m² 1,6 km/h (1 Bft) W 270 ° 0,000 mm 3,9 °C 16,9 °C 3,2 km/h (1 Bft) 95,65 %
02.05.2026 21:45 16,9 °C 42 % 1020,3 hPa 0,0 l/m² 0,0 km/h (0 Bft) W-NW 292 ° 0,000 mm 3,9 °C 16,9 °C 1,6 km/h (1 Bft) 100,00 %
02.05.2026 21:44 16,9 °C 42 % 1020,2 hPa 0,0 l/m² 0,0 km/h (0 Bft) W-NW 292 ° 0,000 mm 3,9 °C 16,9 °C 1,6 km/h (1 Bft) 100,00 %
02.05.2026 21:43 16,9 °C 42 % 1020,3 hPa 0,0 l/m² 1,6 km/h (1 Bft) NW 315 ° 0,000 mm 3,9 °C 16,9 °C 4,8 km/h (1 Bft) 100,00 %
02.05.2026 21:42 17,0 °C 42 % 1020,2 hPa 0,0 l/m² 1,6 km/h (1 Bft) NW 315 ° 0,000 mm 4,0 °C 17,0 °C 3,2 km/h (1 Bft) 100,00 %
02.05.2026 21:41 16,9 °C 42 % 1020,3 hPa 0,0 l/m² 0,0 km/h (0 Bft) W-NW 292 ° 0,000 mm 3,9 °C 16,9 °C 1,6 km/h (1 Bft) 100,00 %
02.05.2026 21:40 16,9 °C 42 % 1020,3 hPa 0,0 l/m² 0,0 km/h (0 Bft) N 360 ° 0,000 mm 3,9 °C 16,9 °C 1,6 km/h (1 Bft) 100,00 %
02.05.2026 21:39 16,9 °C 42 % 1020,3 hPa 0,0 l/m² 1,6 km/h (1 Bft) O-NO 67 ° 0,000 mm 3,9 °C 16,9 °C 3,2 km/h (1 Bft) 100,00 %
02.05.2026 21:38 16,8 °C 42 % 1020,2 hPa 0,0 l/m² 1,6 km/h (1 Bft) NW 315 ° 0,000 mm 3,8 °C 16,8 °C 3,2 km/h (1 Bft) 100,00 %
02.05.2026 21:37 16,8 °C 42 % 1020,3 hPa 0,0 l/m² 0,0 km/h (0 Bft) W-NW 292 ° 0,000 mm 3,8 °C 16,8 °C 3,2 km/h (1 Bft) 100,00 %
02.05.2026 21:36 16,7 °C 42 % 1020,3 hPa 0,0 l/m² 0,0 km/h (0 Bft) W-NW 292 ° 0,000 mm 3,7 °C 16,7 °C 1,6 km/h (1 Bft) 100,00 %
02.05.2026 21:35 16,7 °C 42 % 1020,2 hPa 0,0 l/m² 1,6 km/h (1 Bft) W-NW 292 ° 0,000 mm 3,7 °C 16,7 °C 1,6 km/h (1 Bft) 100,00 %
02.05.2026 21:34 16,6 °C 43 % 1020,4 hPa 0,0 l/m² 1,6 km/h (1 Bft) SO 135 ° 0,000 mm 4,0 °C 16,6 °C 3,2 km/h (1 Bft) 95,65 %
02.05.2026 21:33 16,6 °C 43 % 1020,3 hPa 0,0 l/m² 0,0 km/h (0 Bft) SW 225 ° 0,000 mm 4,0 °C 16,6 °C 1,6 km/h (1 Bft) 100,00 %
02.05.2026 21:32 16,6 °C 43 % 1020,3 hPa 0,0 l/m² 1,6 km/h (1 Bft) O 90 ° 0,000 mm 4,0 °C 16,6 °C 3,2 km/h (1 Bft) 100,00 %
02.05.2026 21:31 16,7 °C 43 % 1020,3 hPa 0,0 l/m² 0,0 km/h (0 Bft) N 0 ° 0,000 mm 4,1 °C 16,7 °C 0,0 km/h (0 Bft) 100,00 %
02.05.2026 21:30 16,7 °C 43 % 1020,2 hPa 0,0 l/m² 0,0 km/h (0 Bft) N 0 ° 0,000 mm 4,1 °C 16,7 °C 0,0 km/h (0 Bft) 100,00 %
02.05.2026 21:29 16,8 °C 42 % 1020,3 hPa 0,0 l/m² 0,0 km/h (0 Bft) N 0 ° 0,000 mm 3,8 °C 16,8 °C 0,0 km/h (0 Bft) 100,00 %
02.05.2026 21:28 16,8 °C 42 % 1020,2 hPa 0,0 l/m² 0,0 km/h (0 Bft) N 0 ° 0,000 mm 3,8 °C 16,8 °C 0,0 km/h (0 Bft) 100,00 %
02.05.2026 21:27 16,9 °C 42 % 1020,3 hPa 0,0 l/m² 0,0 km/h (0 Bft) N 0 ° 0,000 mm 3,9 °C 16,9 °C 0,0 km/h (0 Bft) 95,65 %
02.05.2026 21:26 16,9 °C 42 % 1020,3 hPa 0,0 l/m² 0,0 km/h (0 Bft) N 0 ° 0,000 mm 3,9 °C 16,9 °C 0,0 km/h (0 Bft) 100,00 %
02.05.2026 21:25 17,1 °C 42 % 1020,3 hPa 0,0 l/m² 0,0 km/h (0 Bft) N 0 ° 0,000 mm 4,1 °C 17,1 °C 0,0 km/h (0 Bft) 100,00 %
02.05.2026 21:24 17,2 °C 42 % 1020,3 hPa 0,0 l/m² 0,0 km/h (0 Bft) N 0 ° 0,000 mm 4,2 °C 17,2 °C 0,0 km/h (0 Bft) 100,00 %
02.05.2026 21:23 17,2 °C 41 % 1020,1 hPa 0,0 l/m² 0,0 km/h (0 Bft) N 0 ° 0,000 mm 3,8 °C 17,2 °C 0,0 km/h (0 Bft) 95,65 %
02.05.2026 21:22 17,3 °C 41 % 1020,2 hPa 0,0 l/m² 0,0 km/h (0 Bft) N 0 ° 0,000 mm 3,9 °C 17,3 °C 0,0 km/h (0 Bft) 100,00 %
02.05.2026 21:21 17,3 °C 41 % 1020,1 hPa 0,0 l/m² 0,0 km/h (0 Bft) W-SW 247 ° 0,000 mm 3,9 °C 17,3 °C 1,6 km/h (1 Bft) 100,00 %
02.05.2026 21:20 17,4 °C 41 % 1020,3 hPa 0,0 l/m² 0,0 km/h (0 Bft) W-SW 247 ° 0,000 mm 4,0 °C 17,4 °C 1,6 km/h (1 Bft) 100,00 %
02.05.2026 21:19 17,4 °C 40 % 1020,2 hPa 0,0 l/m² 0,0 km/h (0 Bft) S-SW 202 ° 0,000 mm 3,7 °C 17,4 °C 3,2 km/h (1 Bft) 100,00 %
02.05.2026 21:18 17,4 °C 41 % 1020,1 hPa 0,0 l/m² 0,0 km/h (0 Bft) S-SW 202 ° 0,000 mm 4,0 °C 17,4 °C 1,6 km/h (1 Bft) 100,00 %
02.05.2026 21:17 17,5 °C 40 % 1020,3 hPa 0,0 l/m² 3,2 km/h (1 Bft) O 90 ° 0,000 mm 3,8 °C 17,5 °C 6,4 km/h (2 Bft) 100,00 %
02.05.2026 21:16 17,5 °C 40 % 1020,3 hPa 0,0 l/m² 1,6 km/h (1 Bft) S-SW 202 ° 0,000 mm 3,8 °C 17,5 °C 3,2 km/h (1 Bft) 100,00 %
02.05.2026 21:15 17,5 °C 40 % 1020,2 hPa 0,0 l/m² 0,0 km/h (0 Bft) W-SW 247 ° 0,000 mm 3,8 °C 17,5 °C 1,6 km/h (1 Bft) 95,65 %
02.05.2026 21:14 17,6 °C 40 % 1020,2 hPa 0,0 l/m² 0,0 km/h (0 Bft) SW 225 ° 0,000 mm 3,8 °C 17,6 °C 1,6 km/h (1 Bft) 100,00 %
02.05.2026 21:13 17,6 °C 40 % 1020,2 hPa 0,0 l/m² 0,0 km/h (0 Bft) SW 225 ° 0,000 mm 3,8 °C 17,6 °C 1,6 km/h (1 Bft) 100,00 %
02.05.2026 21:12 17,6 °C 40 % 1020,2 hPa 0,0 l/m² 1,6 km/h (1 Bft) SW 225 ° 0,000 mm 3,8 °C 17,6 °C 4,8 km/h (1 Bft) 100,00 %
02.05.2026 21:11 17,7 °C 40 % 1020,1 hPa 0,0 l/m² 0,0 km/h (0 Bft) W 270 ° 0,000 mm 3,9 °C 17,7 °C 1,6 km/h (1 Bft) 100,00 %
02.05.2026 21:10 17,7 °C 40 % 1020,2 hPa 0,0 l/m² 0,0 km/h (0 Bft) N 0 ° 0,000 mm 3,9 °C 17,7 °C 0,0 km/h (0 Bft) 100,00 %
02.05.2026 21:09 17,8 °C 39 % 1020,1 hPa 0,0 l/m² 0,0 km/h (0 Bft) NW 315 ° 0,000 mm 3,7 °C 17,8 °C 3,2 km/h (1 Bft) 100,00 %
02.05.2026 21:08 17,8 °C 39 % 1020,0 hPa 0,0 l/m² 0,0 km/h (0 Bft) S-SW 202 ° 0,000 mm 3,7 °C 17,8 °C 1,6 km/h (1 Bft) 100,00 %
02.05.2026 21:07 17,8 °C 39 % 1020,2 hPa 0,0 l/m² 0,0 km/h (0 Bft) N 0 ° 0,000 mm 3,7 °C 17,8 °C 0,0 km/h (0 Bft) 100,00 %
02.05.2026 21:06 17,9 °C 39 % 1020,2 hPa 0,0 l/m² 0,0 km/h (0 Bft) O 90 ° 0,000 mm 3,8 °C 17,9 °C 1,6 km/h (1 Bft) 100,00 %
02.05.2026 21:05 17,9 °C 39 % 1020,1 hPa 0,0 l/m² 0,0 km/h (0 Bft) N 0 ° 0,000 mm 3,8 °C 17,9 °C 0,0 km/h (0 Bft) 100,00 %
02.05.2026 21:04 17,9 °C 39 % 1020,1 hPa 0,0 l/m² 1,6 km/h (1 Bft) O 90 ° 0,000 mm 3,8 °C 17,9 °C 6,4 km/h (2 Bft) 100,00 %
02.05.2026 21:03 17,9 °C 39 % 1020,1 hPa 0,0 l/m² 1,6 km/h (1 Bft) W-NW 292 ° 0,000 mm 3,8 °C 17,9 °C 4,8 km/h (1 Bft) 95,65 %
02.05.2026 21:02 17,9 °C 39 % 1020,2 hPa 0,0 l/m² 0,0 km/h (0 Bft) W-NW 292 ° 0,000 mm 3,8 °C 17,9 °C 1,6 km/h (1 Bft) 100,00 %
02.05.2026 21:01 17,9 °C 39 % 1020,2 hPa 0,0 l/m² 0,0 km/h (0 Bft) N-NW 337 ° 0,000 mm 3,8 °C 17,9 °C 1,6 km/h (1 Bft) 100,00 %
02.05.2026 21:00 17,9 °C 39 % 1020,2 hPa 0,0 l/m² 0,0 km/h (0 Bft) W-NW 292 ° 0,000 mm 3,8 °C 17,9 °C 1,6 km/h (1 Bft) 100,00 %
02.05.2026 20:59 17,9 °C 39 % 1020,2 hPa 0,0 l/m² 1,6 km/h (1 Bft) NW 315 ° 0,000 mm 3,8 °C 17,9 °C 6,4 km/h (2 Bft) 100,00 %
02.05.2026 20:58 17,9 °C 39 % 1020,1 hPa 0,0 l/m² 0,0 km/h (0 Bft) W 270 ° 0,000 mm 3,8 °C 17,9 °C 1,6 km/h (1 Bft) 95,65 %
02.05.2026 20:57 17,9 °C 39 % 1020,2 hPa 0,0 l/m² 0,0 km/h (0 Bft) W 270 ° 0,000 mm 3,8 °C 17,9 °C 1,6 km/h (1 Bft) 100,00 %
02.05.2026 20:56 17,9 °C 39 % 1020,3 hPa 0,0 l/m² 1,6 km/h (1 Bft) N 360 ° 0,000 mm 3,8 °C 17,9 °C 8,0 km/h (2 Bft) 100,00 %
02.05.2026 20:55 17,9 °C 39 % 1020,3 hPa 0,0 l/m² 0,0 km/h (0 Bft) W 270 ° 0,000 mm 3,8 °C 17,9 °C 1,6 km/h (1 Bft) 100,00 %
02.05.2026 20:54 17,9 °C 39 % 1020,2 hPa 0,0 l/m² 0,0 km/h (0 Bft) N 0 ° 0,000 mm 3,8 °C 17,9 °C 0,0 km/h (0 Bft) 100,00 %
02.05.2026 20:53 18,0 °C 38 % 1020,2 hPa 0,0 l/m² 0,0 km/h (0 Bft) N 0 ° 0,000 mm 3,5 °C 18,0 °C 0,0 km/h (0 Bft) 100,00 %
02.05.2026 20:52 18,1 °C 38 % 1020,2 hPa 0,0 l/m² 0,0 km/h (0 Bft) N 0 ° 0,000 mm 3,6 °C 18,1 °C 0,0 km/h (0 Bft) 100,00 %
02.05.2026 20:51 18,1 °C 38 % 1020,1 hPa 0,0 l/m² 0,0 km/h (0 Bft) W 270 ° 0,000 mm 3,6 °C 18,1 °C 1,6 km/h (1 Bft) 100,00 %
02.05.2026 20:50 18,2 °C 38 % 1020,2 hPa 0,0 l/m² 0,0 km/h (0 Bft) N 0 ° 0,000 mm 3,7 °C 18,2 °C 0,0 km/h (0 Bft) 100,00 %
02.05.2026 20:49 18,2 °C 38 % 1020,2 hPa 0,0 l/m² 0,0 km/h (0 Bft) N 0 ° 0,000 mm 3,7 °C 18,2 °C 0,0 km/h (0 Bft) 100,00 %
02.05.2026 20:48 18,3 °C 38 % 1020,2 hPa 0,0 l/m² 0,0 km/h (0 Bft) W 270 ° 0,000 mm 3,7 °C 18,3 °C 1,6 km/h (1 Bft) 100,00 %
02.05.2026 20:47 18,3 °C 38 % 1020,2 hPa 0,0 l/m² 0,0 km/h (0 Bft) W 270 ° 0,000 mm 3,7 °C 18,3 °C 1,6 km/h (1 Bft) 100,00 %
02.05.2026 20:46 18,4 °C 37 % 1020,0 hPa 0,0 l/m² 1,6 km/h (1 Bft) W-NW 292 ° 0,000 mm 3,5 °C 18,4 °C 1,6 km/h (1 Bft) 100,00 %
02.05.2026 20:45 18,5 °C 37 % 1020,2 hPa 0,0 l/m² 1,6 km/h (1 Bft) W-NW 292 ° 0,000 mm 3,5 °C 18,5 °C 3,2 km/h (1 Bft) 100,00 %
02.05.2026 20:44 18,6 °C 37 % 1020,0 hPa 0,0 l/m² 0,0 km/h (0 Bft) N 0 ° 0,000 mm 3,6 °C 18,6 °C 0,0 km/h (0 Bft) 100,00 %
02.05.2026 20:43 18,6 °C 37 % 1020,0 hPa 0,0 l/m² 0,0 km/h (0 Bft) W-NW 292 ° 0,000 mm 3,6 °C 18,6 °C 1,6 km/h (1 Bft) 100,00 %
02.05.2026 20:42 18,7 °C 37 % 1020,1 hPa 0,0 l/m² 0,0 km/h (0 Bft) N 0 ° 0,000 mm 3,7 °C 18,7 °C 0,0 km/h (0 Bft) 100,00 %
02.05.2026 20:41 18,7 °C 37 % 1020,1 hPa 0,0 l/m² 0,0 km/h (0 Bft) N 0 ° 0,000 mm 3,7 °C 18,7 °C 0,0 km/h (0 Bft) 100,00 %
02.05.2026 20:40 18,8 °C 36 % 1019,9 hPa 0,0 l/m² 0,0 km/h (0 Bft) W 270 ° 0,000 mm 3,4 °C 18,8 °C 3,2 km/h (1 Bft) 100,00 %
02.05.2026 20:39 18,8 °C 36 % 1020,1 hPa 0,0 l/m² 0,0 km/h (0 Bft) N 0 ° 0,000 mm 3,4 °C 18,8 °C 0,0 km/h (0 Bft) 100,00 %
02.05.2026 20:38 18,8 °C 36 % 1020,0 hPa 0,0 l/m² 0,0 km/h (0 Bft) NW 315 ° 0,000 mm 3,4 °C 18,8 °C 3,2 km/h (1 Bft) 100,00 %
02.05.2026 20:37 18,8 °C 36 % 1020,0 hPa 0,0 l/m² 0,0 km/h (0 Bft) N 360 ° 0,000 mm 3,4 °C 18,8 °C 1,6 km/h (1 Bft) 95,65 %
02.05.2026 20:36 18,8 °C 36 % 1020,1 hPa 0,0 l/m² 1,6 km/h (1 Bft) W-NW 292 ° 0,000 mm 3,4 °C 18,8 °C 1,6 km/h (1 Bft) 100,00 %
02.05.2026 20:35 18,9 °C 36 % 1020,0 hPa 0,0 l/m² 0,0 km/h (0 Bft) NW 315 ° 0,000 mm 3,5 °C 18,9 °C 3,2 km/h (1 Bft) 100,00 %
02.05.2026 20:34 18,9 °C 36 % 1020,1 hPa 0,0 l/m² 0,0 km/h (0 Bft) W-NW 292 ° 0,000 mm 3,5 °C 18,9 °C 3,2 km/h (1 Bft) 100,00 %
02.05.2026 20:33 18,9 °C 36 % 1020,1 hPa 0,0 l/m² 1,6 km/h (1 Bft) W-NW 292 ° 0,000 mm 3,5 °C 18,9 °C 3,2 km/h (1 Bft) 100,00 %
02.05.2026 20:32 18,9 °C 36 % 1020,0 hPa 0,0 l/m² 1,6 km/h (1 Bft) W-NW 292 ° 0,000 mm 3,5 °C 18,9 °C 3,2 km/h (1 Bft) 100,00 %
02.05.2026 20:31 18,9 °C 36 % 1020,0 hPa 0,0 l/m² 1,6 km/h (1 Bft) NW 315 ° 0,000 mm 3,5 °C 18,9 °C 3,2 km/h (1 Bft) 100,00 %
02.05.2026 20:30 18,9 °C 35 % 1019,9 hPa 0,0 l/m² 0,0 km/h (0 Bft) W-NW 292 ° 0,000 mm 3,1 °C 18,9 °C 1,6 km/h (1 Bft) 100,00 %
02.05.2026 20:29 19,0 °C 35 % 1020,0 hPa 0,0 l/m² 1,6 km/h (1 Bft) W-NW 292 ° 0,000 mm 3,2 °C 19,0 °C 3,2 km/h (1 Bft) 95,65 %
02.05.2026 20:28 19,1 °C 35 % 1019,9 hPa 0,0 l/m² 0,0 km/h (0 Bft) N-NW 337 ° 0,000 mm 3,3 °C 19,1 °C 3,2 km/h (1 Bft) 100,00 %
02.05.2026 20:27 19,1 °C 35 % 1020,0 hPa 0,0 l/m² 0,0 km/h (0 Bft) W-NW 292 ° 0,000 mm 3,3 °C 19,1 °C 1,6 km/h (1 Bft) 95,65 %
02.05.2026 20:26 19,1 °C 34 % 1019,9 hPa 0,0 l/m² 0,0 km/h (0 Bft) W-NW 292 ° 0,000 mm 2,9 °C 19,1 °C 1,6 km/h (1 Bft) 100,00 %
02.05.2026 20:25 19,2 °C 34 % 1020,0 hPa 0,0 l/m² 0,0 km/h (0 Bft) W-NW 292 ° 0,000 mm 3,0 °C 19,2 °C 1,6 km/h (1 Bft) 100,00 %
02.05.2026 20:24 19,2 °C 34 % 1020,0 hPa 0,0 l/m² 1,6 km/h (1 Bft) N-NW 337 ° 0,000 mm 3,0 °C 19,2 °C 3,2 km/h (1 Bft) 95,65 %
02.05.2026 20:23 19,3 °C 34 % 1020,0 hPa 0,0 l/m² 0,0 km/h (0 Bft) N 0 ° 0,000 mm 3,0 °C 19,3 °C 0,0 km/h (0 Bft) 100,00 %
02.05.2026 20:22 19,3 °C 34 % 1020,1 hPa 0,0 l/m² 0,0 km/h (0 Bft) W-NW 292 ° 0,000 mm 3,0 °C 19,3 °C 1,6 km/h (1 Bft) 100,00 %
02.05.2026 20:21 19,3 °C 34 % 1020,0 hPa 0,0 l/m² 1,6 km/h (1 Bft) W-NW 292 ° 0,000 mm 3,0 °C 19,3 °C 3,2 km/h (1 Bft) 100,00 %
02.05.2026 20:20 19,4 °C 34 % 1020,1 hPa 0,0 l/m² 0,0 km/h (0 Bft) W-NW 292 ° 0,000 mm 3,1 °C 19,4 °C 1,6 km/h (1 Bft) 95,65 %
02.05.2026 20:19 19,4 °C 33 % 1020,0 hPa 0,0 l/m² 1,6 km/h (1 Bft) NW 315 ° 0,000 mm 2,7 °C 19,4 °C 3,2 km/h (1 Bft) 100,00 %
02.05.2026 20:18 19,4 °C 33 % 1020,0 hPa 0,0 l/m² 0,0 km/h (0 Bft) N 0 ° 0,000 mm 2,7 °C 19,4 °C 0,0 km/h (0 Bft) 100,00 %
02.05.2026 20:17 19,5 °C 33 % 1020,0 hPa 0,0 l/m² 0,0 km/h (0 Bft) N 0 ° 0,000 mm 2,8 °C 19,5 °C 0,0 km/h (0 Bft) 100,00 %
02.05.2026 20:16 19,6 °C 33 % 1020,0 hPa 0,0 l/m² 0,0 km/h (0 Bft) W-NW 292 ° 0,000 mm 2,9 °C 19,6 °C 1,6 km/h (1 Bft) 100,00 %
02.05.2026 20:15 19,6 °C 33 % 1020,0 hPa 0,0 l/m² 0,0 km/h (0 Bft) W-NW 292 ° 0,000 mm 2,9 °C 19,6 °C 1,6 km/h (1 Bft) 100,00 %
02.05.2026 20:14 19,7 °C 33 % 1020,1 hPa 0,0 l/m² 0,0 km/h (0 Bft) W-NW 292 ° 0,000 mm 3,0 °C 19,7 °C 1,6 km/h (1 Bft) 100,00 %
02.05.2026 20:13 19,8 °C 33 % 1020,0 hPa 0,0 l/m² 0,0 km/h (0 Bft) W-NW 292 ° 0,000 mm 3,1 °C 19,8 °C 1,6 km/h (1 Bft) 95,65 %
02.05.2026 20:12 19,8 °C 33 % 1019,9 hPa 0,0 l/m² 0,0 km/h (0 Bft) W-NW 292 ° 0,000 mm 3,1 °C 19,8 °C 1,6 km/h (1 Bft) 100,00 %
02.05.2026 20:11 19,8 °C 32 % 1020,0 hPa 0,0 l/m² 0,0 km/h (0 Bft) W-NW 292 ° 0,000 mm 2,6 °C 19,8 °C 1,6 km/h (1 Bft) 100,00 %
02.05.2026 20:10 19,9 °C 32 % 1019,9 hPa 0,0 l/m² 0,0 km/h (0 Bft) W-NW 292 ° 0,000 mm 2,7 °C 19,9 °C 1,6 km/h (1 Bft) 100,00 %
02.05.2026 20:09 20,0 °C 32 % 1019,9 hPa 0,0 l/m² 0,0 km/h (0 Bft) W-NW 292 ° 0,000 mm 2,8 °C 20,0 °C 1,6 km/h (1 Bft) 100,00 %
02.05.2026 20:08 20,1 °C 32 % 1020,0 hPa 0,0 l/m² 0,0 km/h (0 Bft) W-NW 292 ° 0,000 mm 2,9 °C 20,1 °C 1,6 km/h (1 Bft) 100,00 %
02.05.2026 20:07 20,1 °C 32 % 1019,9 hPa 0,0 l/m² 0,0 km/h (0 Bft) W-NW 292 ° 0,000 mm 2,9 °C 20,1 °C 1,6 km/h (1 Bft) 100,00 %
02.05.2026 20:06 20,2 °C 31 % 1019,9 hPa 0,0 l/m² 1,6 km/h (1 Bft) W-NW 292 ° 0,000 mm 2,5 °C 20,2 °C 1,6 km/h (1 Bft) 100,00 %
02.05.2026 20:05 20,3 °C 31 % 1019,9 hPa 0,0 l/m² 1,6 km/h (1 Bft) W-NW 292 ° 0,000 mm 2,6 °C 20,3 °C 3,2 km/h (1 Bft) 100,00 %
02.05.2026 20:04 20,4 °C 31 % 1019,9 hPa 0,0 l/m² 1,6 km/h (1 Bft) W-NW 292 ° 0,000 mm 2,7 °C 20,4 °C 3,2 km/h (1 Bft) 100,00 %
02.05.2026 20:03 20,4 °C 31 % 1020,0 hPa 0,0 l/m² 0,0 km/h (0 Bft) N 0 ° 0,000 mm 2,7 °C 20,4 °C 0,0 km/h (0 Bft) 95,65 %
02.05.2026 20:02 20,5 °C 31 % 1019,9 hPa 0,0 l/m² 0,0 km/h (0 Bft) W-NW 292 ° 0,000 mm 2,8 °C 20,5 °C 3,2 km/h (1 Bft) 100,00 %
02.05.2026 20:01 20,6 °C 31 % 1020,0 hPa 0,0 l/m² 1,6 km/h (1 Bft) N-NW 337 ° 0,000 mm 2,9 °C 20,6 °C 3,2 km/h (1 Bft) 100,00 %
02.05.2026 20:00 20,7 °C 30 % 1020,0 hPa 0,0 l/m² 0,0 km/h (0 Bft) W-NW 292 ° 0,000 mm 2,5 °C 20,7 °C 1,6 km/h (1 Bft) 100,00 %
02.05.2026 19:59 20,7 °C 30 % 1019,9 hPa 0,0 l/m² 1,6 km/h (1 Bft) NW 315 ° 0,000 mm 2,5 °C 20,7 °C 4,8 km/h (1 Bft) 100,00 %
02.05.2026 19:58 20,8 °C 30 % 1019,9 hPa 0,0 l/m² 0,0 km/h (0 Bft) W 270 ° 0,000 mm 2,6 °C 20,8 °C 1,6 km/h (1 Bft) 100,00 %
02.05.2026 19:57 20,9 °C 30 % 1019,9 hPa 0,0 l/m² 0,0 km/h (0 Bft) W 270 ° 0,000 mm 2,7 °C 20,9 °C 1,6 km/h (1 Bft) 100,00 %
02.05.2026 19:56 20,9 °C 30 % 1019,9 hPa 0,0 l/m² 1,6 km/h (1 Bft) W-NW 292 ° 0,000 mm 2,7 °C 20,9 °C 3,2 km/h (1 Bft) 100,00 %
02.05.2026 19:55 21,0 °C 30 % 1019,9 hPa 0,0 l/m² 0,0 km/h (0 Bft) W-NW 292 ° 0,000 mm 2,8 °C 21,0 °C 1,6 km/h (1 Bft) 95,65 %
02.05.2026 19:54 21,1 °C 29 % 1020,0 hPa 0,0 l/m² 0,0 km/h (0 Bft) W-NW 292 ° 0,000 mm 2,4 °C 21,1 °C 1,6 km/h (1 Bft) 100,00 %
02.05.2026 19:53 21,2 °C 29 % 1019,9 hPa 0,0 l/m² 1,6 km/h (1 Bft) NW 315 ° 0,000 mm 2,5 °C 21,2 °C 3,2 km/h (1 Bft) 95,65 %
02.05.2026 19:52 21,2 °C 29 % 1019,9 hPa 0,0 l/m² 0,0 km/h (0 Bft) NW 315 ° 0,000 mm 2,5 °C 21,2 °C 1,6 km/h (1 Bft) 100,00 %
02.05.2026 19:51 21,3 °C 29 % 1020,0 hPa 0,0 l/m² 3,2 km/h (1 Bft) N-NW 337 ° 0,000 mm 2,5 °C 21,3 °C 6,4 km/h (2 Bft) 100,00 %
02.05.2026 19:50 21,4 °C 29 % 1020,0 hPa 0,0 l/m² 1,6 km/h (1 Bft) W-NW 292 ° 0,000 mm 2,6 °C 21,4 °C 3,2 km/h (1 Bft) 100,00 %
02.05.2026 19:49 21,5 °C 29 % 1019,9 hPa 0,0 l/m² 1,6 km/h (1 Bft) W-NW 292 ° 0,000 mm 2,7 °C 21,5 °C 4,8 km/h (1 Bft) 100,00 %
02.05.2026 19:48 21,5 °C 28 % 1020,0 hPa 0,0 l/m² 1,6 km/h (1 Bft) W-NW 292 ° 0,000 mm 2,2 °C 21,5 °C 3,2 km/h (1 Bft) 100,00 %
02.05.2026 19:47 21,6 °C 28 % 1020,0 hPa 0,0 l/m² 3,2 km/h (1 Bft) W-NW 292 ° 0,000 mm 2,3 °C 21,6 °C 6,4 km/h (2 Bft) 100,00 %
02.05.2026 19:46 21,7 °C 28 % 1020,0 hPa 0,0 l/m² 0,0 km/h (0 Bft) W-NW 292 ° 0,000 mm 2,4 °C 21,7 °C 1,6 km/h (1 Bft) 100,00 %
02.05.2026 19:45 21,8 °C 28 % 1020,0 hPa 0,0 l/m² 0,0 km/h (0 Bft) W-NW 292 ° 0,000 mm 2,5 °C 21,8 °C 1,6 km/h (1 Bft) 100,00 %
02.05.2026 19:44 21,8 °C 27 % 1020,0 hPa 0,0 l/m² 1,6 km/h (1 Bft) NW 315 ° 0,000 mm 2,0 °C 21,8 °C 6,4 km/h (2 Bft) 95,65 %
02.05.2026 19:43 21,9 °C 27 % 1020,1 hPa 0,0 l/m² 1,6 km/h (1 Bft) NW 315 ° 0,000 mm 2,1 °C 21,9 °C 3,2 km/h (1 Bft) 100,00 %
02.05.2026 19:42 21,9 °C 27 % 1020,0 hPa 0,0 l/m² 1,6 km/h (1 Bft) W-NW 292 ° 0,000 mm 2,1 °C 21,9 °C 4,8 km/h (1 Bft) 100,00 %
02.05.2026 19:41 22,0 °C 27 % 1019,9 hPa 0,0 l/m² 1,6 km/h (1 Bft) NW 315 ° 0,000 mm 2,1 °C 22,0 °C 4,8 km/h (1 Bft) 91,30 %
02.05.2026 19:40 22,1 °C 27 % 1020,0 hPa 0,0 l/m² 0,0 km/h (0 Bft) W-SW 247 ° 0,000 mm 2,2 °C 22,1 °C 1,6 km/h (1 Bft) 100,00 %
02.05.2026 19:39 22,1 °C 27 % 1020,0 hPa 0,0 l/m² 1,6 km/h (1 Bft) W-NW 292 ° 0,000 mm 2,2 °C 22,1 °C 3,2 km/h (1 Bft) 95,65 %
02.05.2026 19:38 22,2 °C 26 % 1019,9 hPa 0,0 l/m² 1,6 km/h (1 Bft) W-NW 292 ° 0,000 mm 1,8 °C 22,2 °C 6,4 km/h (2 Bft) 95,65 %
02.05.2026 19:37 22,2 °C 26 % 1020,0 hPa 0,0 l/m² 3,2 km/h (1 Bft) N 360 ° 0,000 mm 1,8 °C 22,2 °C 6,4 km/h (2 Bft) 100,00 %
02.05.2026 19:36 22,3 °C 26 % 1020,0 hPa 0,0 l/m² 0,0 km/h (0 Bft) NW 315 ° 0,000 mm 1,9 °C 22,3 °C 3,2 km/h (1 Bft) 100,00 %
02.05.2026 19:35 22,4 °C 26 % 1020,0 hPa 0,0 l/m² 3,2 km/h (1 Bft) W 270 ° 0,000 mm 2,0 °C 22,4 °C 6,4 km/h (2 Bft) 100,00 %
02.05.2026 19:34 22,5 °C 26 % 1019,9 hPa 0,0 l/m² 3,2 km/h (1 Bft) N 360 ° 0,000 mm 2,0 °C 22,5 °C 6,4 km/h (2 Bft) 100,00 %
02.05.2026 19:33 22,6 °C 26 % 1020,0 hPa 0,0 l/m² 1,6 km/h (1 Bft) W-NW 292 ° 0,000 mm 2,1 °C 22,6 °C 3,2 km/h (1 Bft) 100,00 %
02.05.2026 19:32 22,7 °C 26 % 1020,1 hPa 0,0 l/m² 1,6 km/h (1 Bft) O-NO 67 ° 0,000 mm 2,2 °C 22,7 °C 6,4 km/h (2 Bft) 100,00 %
02.05.2026 19:31 22,8 °C 26 % 1020,0 hPa 0,0 l/m² 3,2 km/h (1 Bft) NO 45 ° 0,000 mm 2,3 °C 22,8 °C 6,4 km/h (2 Bft) 100,00 %
02.05.2026 19:30 22,8 °C 26 % 1020,1 hPa 0,0 l/m² 4,8 km/h (1 Bft) N-NO 22 ° 0,000 mm 2,3 °C 22,8 °C 6,4 km/h (2 Bft) 100,00 %
02.05.2026 19:29 23,0 °C 25 % 1020,0 hPa 0,0 l/m² 3,2 km/h (1 Bft) NO 45 ° 0,000 mm 1,9 °C 23,0 °C 4,8 km/h (1 Bft) 100,00 %
02.05.2026 19:28 23,1 °C 25 % 1020,0 hPa 0,0 l/m² 4,8 km/h (1 Bft) N 360 ° 0,000 mm 2,0 °C 23,1 °C 8,0 km/h (2 Bft) 100,00 %
02.05.2026 19:27 23,2 °C 25 % 1020,0 hPa 0,0 l/m² 3,2 km/h (1 Bft) O-NO 67 ° 0,000 mm 2,1 °C 23,2 °C 8,0 km/h (2 Bft) 100,00 %
02.05.2026 19:26 23,3 °C 25 % 1019,9 hPa 0,0 l/m² 1,6 km/h (1 Bft) NW 315 ° 0,000 mm 2,2 °C 23,3 °C 3,2 km/h (1 Bft) 100,00 %
02.05.2026 19:25 23,3 °C 25 % 1020,0 hPa 0,0 l/m² 1,6 km/h (1 Bft) W 270 ° 0,000 mm 2,2 °C 23,3 °C 3,2 km/h (1 Bft) 100,00 %
02.05.2026 19:24 23,4 °C 24 % 1020,0 hPa 0,0 l/m² 1,6 km/h (1 Bft) W-NW 292 ° 0,000 mm 1,7 °C 23,4 °C 4,8 km/h (1 Bft) 100,00 %
02.05.2026 19:23 23,4 °C 24 % 1020,0 hPa 0,0 l/m² 3,2 km/h (1 Bft) W-NW 292 ° 0,000 mm 1,7 °C 23,4 °C 9,7 km/h (2 Bft) 100,00 %
02.05.2026 19:22 23,5 °C 24 % 1020,0 hPa 0,0 l/m² 3,2 km/h (1 Bft) N-NW 337 ° 0,000 mm 1,8 °C 23,5 °C 4,8 km/h (1 Bft) 100,00 %
02.05.2026 19:21 23,6 °C 24 % 1020,0 hPa 0,0 l/m² 3,2 km/h (1 Bft) W-NW 292 ° 0,000 mm 1,8 °C 23,6 °C 6,4 km/h (2 Bft) 100,00 %
02.05.2026 19:20 23,6 °C 23 % 1020,0 hPa 0,0 l/m² 3,2 km/h (1 Bft) NW 315 ° 0,000 mm 1,3 °C 23,6 °C 8,0 km/h (2 Bft) 100,00 %
02.05.2026 19:19 23,7 °C 24 % 1020,0 hPa 0,0 l/m² 3,2 km/h (1 Bft) NW 315 ° 0,000 mm 1,9 °C 23,7 °C 9,7 km/h (2 Bft) 95,65 %
02.05.2026 19:18 23,7 °C 24 % 1020,0 hPa 0,0 l/m² 1,6 km/h (1 Bft) W-NW 292 ° 0,000 mm 1,9 °C 23,7 °C 9,7 km/h (2 Bft) 100,00 %
02.05.2026 19:17 23,8 °C 23 % 1020,0 hPa 0,0 l/m² 4,8 km/h (1 Bft) NO 45 ° 0,000 mm 1,4 °C 23,8 °C 6,4 km/h (2 Bft) 100,00 %
02.05.2026 19:16 23,8 °C 23 % 1020,1 hPa 0,0 l/m² 1,6 km/h (1 Bft) S-SW 202 ° 0,000 mm 1,4 °C 23,8 °C 3,2 km/h (1 Bft) 100,00 %
02.05.2026 19:15 23,8 °C 23 % 1020,1 hPa 0,0 l/m² 3,2 km/h (1 Bft) W 270 ° 0,000 mm 1,4 °C 23,8 °C 4,8 km/h (1 Bft) 100,00 %
02.05.2026 19:14 23,8 °C 23 % 1020,1 hPa 0,0 l/m² 1,6 km/h (1 Bft) O-NO 67 ° 0,000 mm 1,4 °C 23,8 °C 6,4 km/h (2 Bft) 100,00 %
02.05.2026 19:13 23,9 °C 23 % 1020,1 hPa 0,0 l/m² 3,2 km/h (1 Bft) O 90 ° 0,000 mm 1,5 °C 23,9 °C 8,0 km/h (2 Bft) 100,00 %
02.05.2026 19:12 23,9 °C 23 % 1020,0 hPa 0,0 l/m² 3,2 km/h (1 Bft) N-NO 22 ° 0,000 mm 1,5 °C 23,9 °C 4,8 km/h (1 Bft) 100,00 %
02.05.2026 19:11 23,9 °C 23 % 1019,9 hPa 0,0 l/m² 0,0 km/h (0 Bft) W 270 ° 0,000 mm 1,5 °C 23,9 °C 1,6 km/h (1 Bft) 100,00 %
02.05.2026 19:10 24,0 °C 23 % 1020,1 hPa 0,0 l/m² 3,2 km/h (1 Bft) W-NW 292 ° 0,000 mm 1,6 °C 24,0 °C 6,4 km/h (2 Bft) 95,65 %
02.05.2026 19:09 24,0 °C 23 % 1020,1 hPa 0,0 l/m² 1,6 km/h (1 Bft) N-NO 22 ° 0,000 mm 1,6 °C 24,0 °C 4,8 km/h (1 Bft) 100,00 %
02.05.2026 19:08 24,1 °C 23 % 1020,1 hPa 0,0 l/m² 4,8 km/h (1 Bft) N-NO 22 ° 0,000 mm 1,7 °C 24,1 °C 9,7 km/h (2 Bft) 95,65 %
02.05.2026 19:07 24,1 °C 23 % 1020,1 hPa 0,0 l/m² 1,6 km/h (1 Bft) NW 315 ° 0,000 mm 1,7 °C 24,1 °C 4,8 km/h (1 Bft) 100,00 %
02.05.2026 19:06 24,1 °C 23 % 1020,2 hPa 0,0 l/m² 3,2 km/h (1 Bft) NW 315 ° 0,000 mm 1,7 °C 24,1 °C 4,8 km/h (1 Bft) 100,00 %
02.05.2026 19:05 24,1 °C 23 % 1020,2 hPa 0,0 l/m² 1,6 km/h (1 Bft) SW 225 ° 0,000 mm 1,7 °C 24,1 °C 3,2 km/h (1 Bft) 100,00 %
02.05.2026 19:04 24,1 °C 22 % 1020,2 hPa 0,0 l/m² 3,2 km/h (1 Bft) N 360 ° 0,000 mm 1,1 °C 24,1 °C 6,4 km/h (2 Bft) 100,00 %
02.05.2026 19:03 24,1 °C 23 % 1020,2 hPa 0,0 l/m² 1,6 km/h (1 Bft) W 270 ° 0,000 mm 1,7 °C 24,1 °C 4,8 km/h (1 Bft) 100,00 %
02.05.2026 19:02 24,2 °C 23 % 1020,2 hPa 0,0 l/m² 3,2 km/h (1 Bft) O 90 ° 0,000 mm 1,8 °C 24,2 °C 6,4 km/h (2 Bft) 95,65 %
02.05.2026 19:01 24,2 °C 23 % 1020,3 hPa 0,0 l/m² 3,2 km/h (1 Bft) NW 315 ° 0,000 mm 1,8 °C 24,2 °C 4,8 km/h (1 Bft) 100,00 %
02.05.2026 19:00 24,2 °C 23 % 1020,2 hPa 0,0 l/m² 0,0 km/h (0 Bft) W-NW 292 ° 0,000 mm 1,8 °C 24,2 °C 3,2 km/h (1 Bft) 100,00 %
02.05.2026 18:59 24,2 °C 23 % 1020,3 hPa 0,0 l/m² 1,6 km/h (1 Bft) SW 225 ° 0,000 mm 1,8 °C 24,2 °C 3,2 km/h (1 Bft) 100,00 %
02.05.2026 18:58 24,2 °C 23 % 1020,2 hPa 0,0 l/m² 3,2 km/h (1 Bft) N-NW 337 ° 0,000 mm 1,8 °C 24,2 °C 4,8 km/h (1 Bft) 100,00 %
02.05.2026 18:57 24,3 °C 22 % 1020,3 hPa 0,0 l/m² 3,2 km/h (1 Bft) NO 45 ° 0,000 mm 1,2 °C 24,3 °C 6,4 km/h (2 Bft) 100,00 %
02.05.2026 18:56 24,2 °C 22 % 1020,2 hPa 0,0 l/m² 1,6 km/h (1 Bft) W 270 ° 0,000 mm 1,1 °C 24,2 °C 3,2 km/h (1 Bft) 100,00 %
02.05.2026 18:55 24,2 °C 22 % 1020,3 hPa 0,0 l/m² 0,0 km/h (0 Bft) W-SW 247 ° 0,000 mm 1,1 °C 24,2 °C 1,6 km/h (1 Bft) 95,65 %
02.05.2026 18:54 24,2 °C 22 % 1020,2 hPa 0,0 l/m² 1,6 km/h (1 Bft) W-NW 292 ° 0,000 mm 1,1 °C 24,2 °C 3,2 km/h (1 Bft) 100,00 %
02.05.2026 18:53 24,2 °C 22 % 1020,2 hPa 0,0 l/m² 1,6 km/h (1 Bft) O 90 ° 0,000 mm 1,1 °C 24,2 °C 6,4 km/h (2 Bft) 100,00 %
02.05.2026 18:52 24,2 °C 22 % 1020,1 hPa 0,0 l/m² 4,8 km/h (1 Bft) NO 45 ° 0,000 mm 1,1 °C 24,2 °C 9,7 km/h (2 Bft) 100,00 %
02.05.2026 18:51 24,2 °C 22 % 1020,1 hPa 0,0 l/m² 4,8 km/h (1 Bft) NO 45 ° 0,000 mm 1,1 °C 24,2 °C 8,0 km/h (2 Bft) 95,65 %
02.05.2026 18:50 24,2 °C 21 % 1020,2 hPa 0,0 l/m² 3,2 km/h (1 Bft) S 180 ° 0,000 mm 0,5 °C 24,2 °C 8,0 km/h (2 Bft) 100,00 %
02.05.2026 18:49 24,3 °C 21 % 1020,1 hPa 0,0 l/m² 4,8 km/h (1 Bft) O-NO 67 ° 0,000 mm 0,6 °C 24,3 °C 6,4 km/h (2 Bft) 100,00 %
02.05.2026 18:48 24,3 °C 21 % 1020,1 hPa 0,0 l/m² 3,2 km/h (1 Bft) O-SO 112 ° 0,000 mm 0,6 °C 24,3 °C 4,8 km/h (1 Bft) 100,00 %
02.05.2026 18:47 24,2 °C 21 % 1020,1 hPa 0,0 l/m² 1,6 km/h (1 Bft) SW 225 ° 0,000 mm 0,5 °C 24,2 °C 3,2 km/h (1 Bft) 100,00 %
02.05.2026 18:46 24,2 °C 22 % 1020,2 hPa 0,0 l/m² 3,2 km/h (1 Bft) NO 45 ° 0,000 mm 1,1 °C 24,2 °C 6,4 km/h (2 Bft) 100,00 %
02.05.2026 18:45 24,2 °C 22 % 1020,2 hPa 0,0 l/m² 3,2 km/h (1 Bft) S 180 ° 0,000 mm 1,1 °C 24,2 °C 6,4 km/h (2 Bft) 100,00 %
02.05.2026 18:44 24,2 °C 22 % 1020,1 hPa 0,0 l/m² 4,8 km/h (1 Bft) N-NO 22 ° 0,000 mm 1,1 °C 24,2 °C 6,4 km/h (2 Bft) 100,00 %
02.05.2026 18:43 24,3 °C 22 % 1020,1 hPa 0,0 l/m² 3,2 km/h (1 Bft) S-SO 157 ° 0,000 mm 1,2 °C 24,3 °C 6,4 km/h (2 Bft) 100,00 %
02.05.2026 18:42 24,3 °C 22 % 1020,1 hPa 0,0 l/m² 4,8 km/h (1 Bft) NO 45 ° 0,000 mm 1,2 °C 24,3 °C 9,7 km/h (2 Bft) 100,00 %
02.05.2026 18:41 24,3 °C 22 % 1020,1 hPa 0,0 l/m² 3,2 km/h (1 Bft) W-NW 292 ° 0,000 mm 1,2 °C 24,3 °C 8,0 km/h (2 Bft) 100,00 %
02.05.2026 18:40 24,3 °C 22 % 1020,2 hPa 0,0 l/m² 3,2 km/h (1 Bft) N-NO 22 ° 0,000 mm 1,2 °C 24,3 °C 6,4 km/h (2 Bft) 100,00 %
02.05.2026 18:39 24,3 °C 22 % 1020,1 hPa 0,0 l/m² 1,6 km/h (1 Bft) W-NW 292 ° 0,000 mm 1,2 °C 24,3 °C 4,8 km/h (1 Bft) 100,00 %
02.05.2026 18:38 24,4 °C 21 % 1020,1 hPa 0,0 l/m² 3,2 km/h (1 Bft) O-NO 67 ° 0,000 mm 0,7 °C 24,4 °C 4,8 km/h (1 Bft) 100,00 %
02.05.2026 18:37 24,4 °C 21 % 1020,2 hPa 0,0 l/m² 4,8 km/h (1 Bft) N-NO 22 ° 0,000 mm 0,7 °C 24,4 °C 11,3 km/h (2 Bft) 100,00 %
02.05.2026 18:36 24,4 °C 21 % 1020,2 hPa 0,0 l/m² 3,2 km/h (1 Bft) NW 315 ° 0,000 mm 0,7 °C 24,4 °C 9,7 km/h (2 Bft) 95,65 %
02.05.2026 18:35 24,4 °C 21 % 1020,3 hPa 0,0 l/m² 4,8 km/h (1 Bft) N-NW 337 ° 0,000 mm 0,7 °C 24,4 °C 8,0 km/h (2 Bft) 100,00 %
02.05.2026 18:34 24,5 °C 21 % 1020,3 hPa 0,0 l/m² 1,6 km/h (1 Bft) N-NO 22 ° 0,000 mm 0,7 °C 24,5 °C 4,8 km/h (1 Bft) 100,00 %
02.05.2026 18:33 24,5 °C 21 % 1020,3 hPa 0,0 l/m² 3,2 km/h (1 Bft) N 360 ° 0,000 mm 0,7 °C 24,5 °C 6,4 km/h (2 Bft) 100,00 %
02.05.2026 18:32 24,6 °C 21 % 1020,3 hPa 0,0 l/m² 1,6 km/h (1 Bft) SW 225 ° 0,000 mm 0,8 °C 24,6 °C 4,8 km/h (1 Bft) 100,00 %
02.05.2026 18:31 24,5 °C 20 % 1020,3 hPa 0,0 l/m² 4,8 km/h (1 Bft) NO 45 ° 0,000 mm 0,1 °C 24,5 °C 9,7 km/h (2 Bft) 100,00 %
02.05.2026 18:30 24,6 °C 20 % 1020,4 hPa 0,0 l/m² 3,2 km/h (1 Bft) N-NW 337 ° 0,000 mm 0,2 °C 24,6 °C 4,8 km/h (1 Bft) 100,00 %
02.05.2026 18:29 24,6 °C 20 % 1020,3 hPa 0,0 l/m² 1,6 km/h (1 Bft) S-SW 202 ° 0,000 mm 0,2 °C 24,6 °C 3,2 km/h (1 Bft) 100,00 %
02.05.2026 18:28 24,6 °C 20 % 1020,4 hPa 0,0 l/m² 3,2 km/h (1 Bft) NO 45 ° 0,000 mm 0,2 °C 24,6 °C 4,8 km/h (1 Bft) 100,00 %
02.05.2026 18:27 24,6 °C 20 % 1020,4 hPa 0,0 l/m² 1,6 km/h (1 Bft) W 270 ° 0,000 mm 0,2 °C 24,6 °C 3,2 km/h (1 Bft) 100,00 %
02.05.2026 18:26 24,5 °C 19 % 1020,4 hPa 0,0 l/m² 3,2 km/h (1 Bft) W-NW 292 ° 0,000 mm -0,6 °C 24,5 °C 4,8 km/h (1 Bft) 100,00 %
02.05.2026 18:25 24,5 °C 19 % 1020,4 hPa 0,0 l/m² 3,2 km/h (1 Bft) N-NO 22 ° 0,000 mm -0,6 °C 24,5 °C 4,8 km/h (1 Bft) 100,00 %
02.05.2026 18:24 24,6 °C 20 % 1020,5 hPa 0,0 l/m² 3,2 km/h (1 Bft) O 90 ° 0,000 mm 0,2 °C 24,6 °C 3,2 km/h (1 Bft) 100,00 %
02.05.2026 18:23 24,5 °C 20 % 1020,5 hPa 0,0 l/m² 4,8 km/h (1 Bft) NO 45 ° 0,000 mm 0,1 °C 24,5 °C 8,0 km/h (2 Bft) 100,00 %
02.05.2026 18:22 24,4 °C 20 % 1020,5 hPa 0,0 l/m² 3,2 km/h (1 Bft) N-NO 22 ° 0,000 mm -0,0 °C 24,4 °C 6,4 km/h (2 Bft) 100,00 %
02.05.2026 18:21 24,4 °C 20 % 1020,5 hPa 0,0 l/m² 1,6 km/h (1 Bft) SW 225 ° 0,000 mm -0,0 °C 24,4 °C 3,2 km/h (1 Bft) 95,65 %
02.05.2026 18:20 24,4 °C 20 % 1020,4 hPa 0,0 l/m² 3,2 km/h (1 Bft) O-SO 112 ° 0,000 mm -0,0 °C 24,4 °C 9,7 km/h (2 Bft) 100,00 %
02.05.2026 18:19 24,4 °C 19 % 1020,5 hPa 0,0 l/m² 4,8 km/h (1 Bft) O-SO 112 ° 0,000 mm -0,7 °C 24,4 °C 8,0 km/h (2 Bft) 100,00 %
02.05.2026 18:18 24,3 °C 20 % 1020,6 hPa 0,0 l/m² 3,2 km/h (1 Bft) S-SO 157 ° 0,000 mm -0,1 °C 24,3 °C 6,4 km/h (2 Bft) 100,00 %
02.05.2026 18:17 24,3 °C 19 % 1020,5 hPa 0,0 l/m² 3,2 km/h (1 Bft) N-NW 337 ° 0,000 mm -0,8 °C 24,3 °C 6,4 km/h (2 Bft) 100,00 %
02.05.2026 18:16 24,3 °C 19 % 1020,6 hPa 0,0 l/m² 3,2 km/h (1 Bft) W-NW 292 ° 0,000 mm -0,8 °C 24,3 °C 6,4 km/h (2 Bft) 100,00 %
02.05.2026 18:15 24,3 °C 19 % 1020,6 hPa 0,0 l/m² 4,8 km/h (1 Bft) NO 45 ° 0,000 mm -0,8 °C 24,3 °C 9,7 km/h (2 Bft) 100,00 %
02.05.2026 18:14 24,3 °C 19 % 1020,6 hPa 0,0 l/m² 4,8 km/h (1 Bft) NO 45 ° 0,000 mm -0,8 °C 24,3 °C 9,7 km/h (2 Bft) 100,00 %
02.05.2026 18:13 24,3 °C 18 % 1020,6 hPa 0,0 l/m² 8,0 km/h (2 Bft) N-NO 22 ° 0,000 mm -1,5 °C 23,9 °C 11,3 km/h (2 Bft) 100,00 %
02.05.2026 18:12 24,4 °C 18 % 1020,6 hPa 0,0 l/m² 4,8 km/h (1 Bft) W 270 ° 0,000 mm -1,5 °C 24,4 °C 9,7 km/h (2 Bft) 100,00 %
02.05.2026 18:11 24,4 °C 17 % 1020,7 hPa 0,0 l/m² 6,4 km/h (2 Bft) NO 45 ° 0,000 mm -2,2 °C 24,4 °C 9,7 km/h (2 Bft) 100,00 %
02.05.2026 18:10 24,4 °C 17 % 1020,7 hPa 0,0 l/m² 8,0 km/h (2 Bft) O-NO 67 ° 0,000 mm -2,2 °C 24,0 °C 14,5 km/h (3 Bft) 95,65 %
02.05.2026 18:09 24,5 °C 17 % 1020,7 hPa 0,0 l/m² 6,4 km/h (2 Bft) O-SO 112 ° 0,000 mm -2,1 °C 24,5 °C 16,1 km/h (3 Bft) 95,65 %
02.05.2026 18:08 24,6 °C 17 % 1020,7 hPa 0,0 l/m² 6,4 km/h (2 Bft) NO 45 ° 0,000 mm -2,1 °C 24,6 °C 9,7 km/h (2 Bft) 100,00 %
02.05.2026 18:07 24,6 °C 17 % 1020,7 hPa 0,0 l/m² 4,8 km/h (1 Bft) SW 225 ° 0,000 mm -2,1 °C 24,6 °C 11,3 km/h (2 Bft) 100,00 %
02.05.2026 18:06 24,7 °C 17 % 1020,7 hPa 0,0 l/m² 4,8 km/h (1 Bft) O-NO 67 ° 0,000 mm -2,0 °C 24,7 °C 9,7 km/h (2 Bft) 100,00 %
02.05.2026 18:05 24,7 °C 16 % 1020,6 hPa 0,0 l/m² 6,4 km/h (2 Bft) NO 45 ° 0,000 mm -2,8 °C 24,7 °C 11,3 km/h (2 Bft) 100,00 %
02.05.2026 18:04 24,8 °C 17 % 1020,7 hPa 0,0 l/m² 6,4 km/h (2 Bft) N 360 ° 0,000 mm -1,9 °C 24,8 °C 9,7 km/h (2 Bft) 100,00 %
02.05.2026 18:03 24,8 °C 17 % 1020,7 hPa 0,0 l/m² 1,6 km/h (1 Bft) W-NW 292 ° 0,000 mm -1,9 °C 24,8 °C 3,2 km/h (1 Bft) 100,00 %
02.05.2026 18:02 24,7 °C 16 % 1020,7 hPa 0,0 l/m² 3,2 km/h (1 Bft) S-SW 202 ° 0,000 mm -2,8 °C 24,7 °C 8,0 km/h (2 Bft) 95,65 %
02.05.2026 18:01 24,7 °C 16 % 1020,7 hPa 0,0 l/m² 1,6 km/h (1 Bft) S-SW 202 ° 0,000 mm -2,8 °C 24,7 °C 4,8 km/h (1 Bft) 100,00 %
02.05.2026 18:00 24,7 °C 15 % 1020,8 hPa 0,0 l/m² 3,2 km/h (1 Bft) SW 225 ° 0,000 mm -3,7 °C 24,7 °C 4,8 km/h (1 Bft) 95,65 %
02.05.2026 17:59 24,6 °C 15 % 1020,7 hPa 0,0 l/m² 3,2 km/h (1 Bft) N-NW 337 ° 0,000 mm -3,7 °C 24,6 °C 3,2 km/h (1 Bft) 100,00 %
02.05.2026 17:58 24,5 °C 15 % 1020,8 hPa 0,0 l/m² 1,6 km/h (1 Bft) S-SW 202 ° 0,000 mm -3,8 °C 24,5 °C 3,2 km/h (1 Bft) 95,65 %
02.05.2026 17:57 24,4 °C 15 % 1020,8 hPa 0,0 l/m² 3,2 km/h (1 Bft) SW 225 ° 0,000 mm -3,9 °C 24,4 °C 6,4 km/h (2 Bft) 95,65 %
02.05.2026 17:56 24,5 °C 15 % 1020,8 hPa 0,0 l/m² 4,8 km/h (1 Bft) N-NO 22 ° 0,000 mm -3,8 °C 24,5 °C 6,4 km/h (2 Bft) 95,65 %
02.05.2026 17:55 24,6 °C 15 % 1020,8 hPa 0,0 l/m² 4,8 km/h (1 Bft) NO 45 ° 0,000 mm -3,7 °C 24,6 °C 8,0 km/h (2 Bft) 100,00 %
02.05.2026 17:54 24,6 °C 16 % 1020,8 hPa 0,0 l/m² 4,8 km/h (1 Bft) N 360 ° 0,000 mm -2,9 °C 24,6 °C 11,3 km/h (2 Bft) 100,00 %
02.05.2026 17:53 24,7 °C 16 % 1021,0 hPa 0,0 l/m² 4,8 km/h (1 Bft) N 360 ° 0,000 mm -2,8 °C 24,7 °C 8,0 km/h (2 Bft) 100,00 %
02.05.2026 17:52 24,7 °C 16 % 1021,0 hPa 0,0 l/m² 4,8 km/h (1 Bft) NO 45 ° 0,000 mm -2,8 °C 24,7 °C 6,4 km/h (2 Bft) 100,00 %
02.05.2026 17:51 24,7 °C 17 % 1020,9 hPa 0,0 l/m² 3,2 km/h (1 Bft) W-SW 247 ° 0,000 mm -2,0 °C 24,7 °C 8,0 km/h (2 Bft) 100,00 %
02.05.2026 17:50 24,7 °C 17 % 1020,9 hPa 0,0 l/m² 3,2 km/h (1 Bft) O 90 ° 0,000 mm -2,0 °C 24,7 °C 4,8 km/h (1 Bft) 95,65 %
02.05.2026 17:49 24,6 °C 16 % 1020,8 hPa 0,0 l/m² 1,6 km/h (1 Bft) W 270 ° 0,000 mm -2,9 °C 24,6 °C 4,8 km/h (1 Bft) 100,00 %
02.05.2026 17:48 24,6 °C 16 % 1020,9 hPa 0,0 l/m² 4,8 km/h (1 Bft) N-NO 22 ° 0,000 mm -2,9 °C 24,6 °C 6,4 km/h (2 Bft) 100,00 %
02.05.2026 17:47 24,7 °C 17 % 1020,9 hPa 0,0 l/m² 3,2 km/h (1 Bft) O-NO 67 ° 0,000 mm -2,0 °C 24,7 °C 6,4 km/h (2 Bft) 100,00 %
02.05.2026 17:46 24,8 °C 16 % 1020,9 hPa 0,0 l/m² 9,7 km/h (2 Bft) NO 45 ° 0,000 mm -2,7 °C 24,0 °C 16,1 km/h (3 Bft) 100,00 %
02.05.2026 17:45 24,8 °C 17 % 1020,9 hPa 0,0 l/m² 4,8 km/h (1 Bft) SW 225 ° 0,000 mm -1,9 °C 24,8 °C 11,3 km/h (2 Bft) 95,65 %
02.05.2026 17:44 24,8 °C 17 % 1020,9 hPa 0,0 l/m² 3,2 km/h (1 Bft) NO 45 ° 0,000 mm -1,9 °C 24,8 °C 4,8 km/h (1 Bft) 100,00 %
02.05.2026 17:43 24,8 °C 17 % 1020,9 hPa 0,0 l/m² 3,2 km/h (1 Bft) NO 45 ° 0,000 mm -1,9 °C 24,8 °C 4,8 km/h (1 Bft) 100,00 %
02.05.2026 17:42 24,8 °C 17 % 1020,9 hPa 0,0 l/m² 3,2 km/h (1 Bft) N 360 ° 0,000 mm -1,9 °C 24,8 °C 6,4 km/h (2 Bft) 100,00 %
02.05.2026 17:41 24,8 °C 17 % 1020,9 hPa 0,0 l/m² 6,4 km/h (2 Bft) N 360 ° 0,000 mm -1,9 °C 24,8 °C 12,9 km/h (3 Bft) 95,65 %
02.05.2026 17:40 24,8 °C 16 % 1020,9 hPa 0,0 l/m² 6,4 km/h (2 Bft) NO 45 ° 0,000 mm -2,7 °C 24,8 °C 14,5 km/h (3 Bft) 95,65 %
02.05.2026 17:39 24,8 °C 17 % 1020,9 hPa 0,0 l/m² 3,2 km/h (1 Bft) SO 135 ° 0,000 mm -1,9 °C 24,8 °C 8,0 km/h (2 Bft) 100,00 %
02.05.2026 17:38 24,7 °C 17 % 1020,8 hPa 0,0 l/m² 3,2 km/h (1 Bft) SW 225 ° 0,000 mm -2,0 °C 24,7 °C 6,4 km/h (2 Bft) 91,30 %
02.05.2026 17:37 24,7 °C 17 % 1020,9 hPa 0,0 l/m² 6,4 km/h (2 Bft) S 180 ° 0,000 mm -2,0 °C 24,7 °C 8,0 km/h (2 Bft) 100,00 %
02.05.2026 17:36 24,7 °C 17 % 1020,9 hPa 0,0 l/m² 3,2 km/h (1 Bft) O-NO 67 ° 0,000 mm -2,0 °C 24,7 °C 8,0 km/h (2 Bft) 95,65 %
02.05.2026 17:35 24,7 °C 17 % 1020,9 hPa 0,0 l/m² 6,4 km/h (2 Bft) O-NO 67 ° 0,000 mm -2,0 °C 24,7 °C 11,3 km/h (2 Bft) 100,00 %
02.05.2026 17:34 24,8 °C 16 % 1021,0 hPa 0,0 l/m² 4,8 km/h (1 Bft) O 90 ° 0,000 mm -2,7 °C 24,8 °C 12,9 km/h (3 Bft) 100,00 %
02.05.2026 17:33 24,7 °C 16 % 1021,1 hPa 0,0 l/m² 8,0 km/h (2 Bft) N-NO 22 ° 0,000 mm -2,8 °C 24,3 °C 17,7 km/h (3 Bft) 100,00 %
02.05.2026 17:32 24,8 °C 17 % 1020,9 hPa 0,0 l/m² 4,8 km/h (1 Bft) N-NO 22 ° 0,000 mm -1,9 °C 24,8 °C 11,3 km/h (2 Bft) 100,00 %
02.05.2026 17:31 24,8 °C 17 % 1021,1 hPa 0,0 l/m² 6,4 km/h (2 Bft) O 90 ° 0,000 mm -1,9 °C 24,8 °C 9,7 km/h (2 Bft) 100,00 %
02.05.2026 17:30 24,7 °C 17 % 1021,1 hPa 0,0 l/m² 3,2 km/h (1 Bft) N-NW 337 ° 0,000 mm -2,0 °C 24,7 °C 6,4 km/h (2 Bft) 100,00 %
02.05.2026 17:29 24,7 °C 17 % 1021,1 hPa 0,0 l/m² 1,6 km/h (1 Bft) W-NW 292 ° 0,000 mm -2,0 °C 24,7 °C 4,8 km/h (1 Bft) 100,00 %
02.05.2026 17:28 24,7 °C 16 % 1021,1 hPa 0,0 l/m² 3,2 km/h (1 Bft) O 90 ° 0,000 mm -2,8 °C 24,7 °C 4,8 km/h (1 Bft) 100,00 %
02.05.2026 17:27 24,7 °C 17 % 1021,1 hPa 0,0 l/m² 6,4 km/h (2 Bft) N 360 ° 0,000 mm -2,0 °C 24,7 °C 12,9 km/h (3 Bft) 100,00 %
02.05.2026 17:26 24,7 °C 16 % 1021,1 hPa 0,0 l/m² 6,4 km/h (2 Bft) O 90 ° 0,000 mm -2,8 °C 24,7 °C 9,7 km/h (2 Bft) 100,00 %
02.05.2026 17:25 24,7 °C 16 % 1021,2 hPa 0,0 l/m² 4,8 km/h (1 Bft) O-NO 67 ° 0,000 mm -2,8 °C 24,7 °C 9,7 km/h (2 Bft) 100,00 %
02.05.2026 17:24 24,7 °C 17 % 1021,2 hPa 0,0 l/m² 4,8 km/h (1 Bft) O-NO 67 ° 0,000 mm -2,0 °C 24,7 °C 9,7 km/h (2 Bft) 100,00 %
02.05.2026 17:23 24,7 °C 17 % 1021,2 hPa 0,0 l/m² 3,2 km/h (1 Bft) N 360 ° 0,000 mm -2,0 °C 24,7 °C 6,4 km/h (2 Bft) 100,00 %
02.05.2026 17:22 24,7 °C 16 % 1021,2 hPa 0,0 l/m² 1,6 km/h (1 Bft) W-SW 247 ° 0,000 mm -2,8 °C 24,7 °C 4,8 km/h (1 Bft) 100,00 %
02.05.2026 17:21 24,7 °C 16 % 1021,2 hPa 0,0 l/m² 3,2 km/h (1 Bft) W-NW 292 ° 0,000 mm -2,8 °C 24,7 °C 6,4 km/h (2 Bft) 100,00 %
02.05.2026 17:20 24,7 °C 17 % 1021,2 hPa 0,0 l/m² 4,8 km/h (1 Bft) N 360 ° 0,000 mm -2,0 °C 24,7 °C 6,4 km/h (2 Bft) 100,00 %
02.05.2026 17:19 24,7 °C 16 % 1021,2 hPa 0,0 l/m² 4,8 km/h (1 Bft) O-NO 67 ° 0,000 mm -2,8 °C 24,7 °C 6,4 km/h (2 Bft) 100,00 %
02.05.2026 17:18 24,7 °C 16 % 1021,2 hPa 0,0 l/m² 3,2 km/h (1 Bft) O 90 ° 0,000 mm -2,8 °C 24,7 °C 8,0 km/h (2 Bft) 100,00 %
02.05.2026 17:17 24,8 °C 15 % 1021,2 hPa 0,0 l/m² 8,0 km/h (2 Bft) N-NO 22 ° 0,000 mm -3,6 °C 24,4 °C 14,5 km/h (3 Bft) 86,96 %
02.05.2026 17:16 24,8 °C 16 % 1021,3 hPa 0,0 l/m² 3,2 km/h (1 Bft) S-SW 202 ° 0,000 mm -2,7 °C 24,8 °C 11,3 km/h (2 Bft) 100,00 %
02.05.2026 17:15 24,8 °C 15 % 1021,3 hPa 0,0 l/m² 8,0 km/h (2 Bft) O-NO 67 ° 0,000 mm -3,6 °C 24,4 °C 12,9 km/h (3 Bft) 100,00 %
02.05.2026 17:14 24,9 °C 17 % 1021,3 hPa 0,0 l/m² 4,8 km/h (1 Bft) NO 45 ° 0,000 mm -1,8 °C 24,9 °C 12,9 km/h (3 Bft) 100,00 %
02.05.2026 17:13 24,8 °C 16 % 1021,3 hPa 0,0 l/m² 4,8 km/h (1 Bft) S-SW 202 ° 0,000 mm -2,7 °C 24,8 °C 9,7 km/h (2 Bft) 100,00 %
02.05.2026 17:12 24,8 °C 17 % 1021,4 hPa 0,0 l/m² 3,2 km/h (1 Bft) NO 45 ° 0,000 mm -1,9 °C 24,8 °C 8,0 km/h (2 Bft) 100,00 %
02.05.2026 17:11 24,8 °C 17 % 1021,4 hPa 0,0 l/m² 3,2 km/h (1 Bft) N 360 ° 0,000 mm -1,9 °C 24,8 °C 4,8 km/h (1 Bft) 100,00 %
02.05.2026 17:10 24,9 °C 17 % 1021,4 hPa 0,0 l/m² 3,2 km/h (1 Bft) W-NW 292 ° 0,000 mm -1,8 °C 24,9 °C 6,4 km/h (2 Bft) 100,00 %
02.05.2026 17:09 24,9 °C 16 % 1021,4 hPa 0,0 l/m² 4,8 km/h (1 Bft) SW 225 ° 0,000 mm -2,6 °C 24,9 °C 11,3 km/h (2 Bft) 100,00 %
02.05.2026 17:08 25,0 °C 15 % 1021,4 hPa 0,0 l/m² 6,4 km/h (2 Bft) NO 45 ° 0,000 mm -3,4 °C 25,0 °C 11,3 km/h (2 Bft) 100,00 %
02.05.2026 17:07 25,1 °C 17 % 1021,5 hPa 0,0 l/m² 4,8 km/h (1 Bft) NO 45 ° 0,000 mm -1,7 °C 25,1 °C 8,0 km/h (2 Bft) 95,65 %
02.05.2026 17:06 25,2 °C 18 % 1021,5 hPa 0,0 l/m² 6,4 km/h (2 Bft) N 360 ° 0,000 mm -0,8 °C 25,2 °C 11,3 km/h (2 Bft) 100,00 %
02.05.2026 17:05 25,2 °C 18 % 1021,5 hPa 0,0 l/m² 1,6 km/h (1 Bft) W 270 ° 0,000 mm -0,8 °C 25,2 °C 6,4 km/h (2 Bft) 100,00 %
02.05.2026 17:04 25,2 °C 18 % 1021,6 hPa 0,0 l/m² 6,4 km/h (2 Bft) O-SO 112 ° 0,000 mm -0,8 °C 25,2 °C 12,9 km/h (3 Bft) 100,00 %
02.05.2026 17:03 25,2 °C 17 % 1021,4 hPa 0,0 l/m² 3,2 km/h (1 Bft) NO 45 ° 0,000 mm -1,6 °C 25,2 °C 8,0 km/h (2 Bft) 100,00 %
02.05.2026 17:02 25,1 °C 17 % 1021,5 hPa 0,0 l/m² 3,2 km/h (1 Bft) S-SW 202 ° 0,000 mm -1,7 °C 25,1 °C 9,7 km/h (2 Bft) 95,65 %
02.05.2026 17:01 25,0 °C 18 % 1021,5 hPa 0,0 l/m² 1,6 km/h (1 Bft) S-SW 202 ° 0,000 mm -1,0 °C 25,0 °C 4,8 km/h (1 Bft) 100,00 %
02.05.2026 17:00 24,8 °C 18 % 1021,5 hPa 0,0 l/m² 3,2 km/h (1 Bft) W 270 ° 0,000 mm -1,1 °C 24,8 °C 4,8 km/h (1 Bft) 95,65 %
02.05.2026 16:59 24,8 °C 18 % 1021,5 hPa 0,0 l/m² 1,6 km/h (1 Bft) N 360 ° 0,000 mm -1,1 °C 24,8 °C 4,8 km/h (1 Bft) 100,00 %
02.05.2026 16:58 24,7 °C 18 % 1021,6 hPa 0,0 l/m² 3,2 km/h (1 Bft) S-SW 202 ° 0,000 mm -1,2 °C 24,7 °C 4,8 km/h (1 Bft) 100,00 %
02.05.2026 16:57 24,7 °C 17 % 1021,6 hPa 0,0 l/m² 4,8 km/h (1 Bft) NO 45 ° 0,000 mm -2,0 °C 24,7 °C 8,0 km/h (2 Bft) 100,00 %
02.05.2026 16:56 24,8 °C 17 % 1021,6 hPa 0,0 l/m² 9,7 km/h (2 Bft) NO 45 ° 0,000 mm -1,9 °C 24,0 °C 12,9 km/h (3 Bft) 100,00 %
02.05.2026 16:55 24,9 °C 19 % 1021,6 hPa 0,0 l/m² 4,8 km/h (1 Bft) NO 45 ° 0,000 mm -0,3 °C 24,9 °C 12,9 km/h (3 Bft) 100,00 %
02.05.2026 16:54 24,9 °C 19 % 1021,6 hPa 0,0 l/m² 4,8 km/h (1 Bft) O-SO 112 ° 0,000 mm -0,3 °C 24,9 °C 11,3 km/h (2 Bft) 100,00 %
02.05.2026 16:53 24,9 °C 18 % 1021,6 hPa 0,0 l/m² 4,8 km/h (1 Bft) N 360 ° 0,000 mm -1,0 °C 24,9 °C 9,7 km/h (2 Bft) 95,65 %
02.05.2026 16:52 24,9 °C 18 % 1021,6 hPa 0,0 l/m² 1,6 km/h (1 Bft) W 270 ° 0,000 mm -1,0 °C 24,9 °C 3,2 km/h (1 Bft) 95,65 %
02.05.2026 16:51 24,9 °C 17 % 1021,6 hPa 0,0 l/m² 3,2 km/h (1 Bft) N-NO 22 ° 0,000 mm -1,8 °C 24,9 °C 8,0 km/h (2 Bft) 100,00 %
02.05.2026 16:50 24,8 °C 17 % 1021,7 hPa 0,0 l/m² 1,6 km/h (1 Bft) W 270 ° 0,000 mm -1,9 °C 24,8 °C 4,8 km/h (1 Bft) 100,00 %
02.05.2026 16:49 24,8 °C 16 % 1021,7 hPa 0,0 l/m² 4,8 km/h (1 Bft) N-NW 337 ° 0,000 mm -2,7 °C 24,8 °C 6,4 km/h (2 Bft) 100,00 %
02.05.2026 16:48 24,8 °C 17 % 1021,7 hPa 0,0 l/m² 3,2 km/h (1 Bft) S-SW 202 ° 0,000 mm -1,9 °C 24,8 °C 6,4 km/h (2 Bft) 100,00 %
02.05.2026 16:47 24,8 °C 18 % 1021,7 hPa 0,0 l/m² 4,8 km/h (1 Bft) O-NO 67 ° 0,000 mm -1,1 °C 24,8 °C 4,8 km/h (1 Bft) 100,00 %
02.05.2026 16:46 24,7 °C 18 % 1021,7 hPa 0,0 l/m² 3,2 km/h (1 Bft) S 180 ° 0,000 mm -1,2 °C 24,7 °C 6,4 km/h (2 Bft) 100,00 %
02.05.2026 16:45 24,7 °C 19 % 1021,7 hPa 0,0 l/m² 1,6 km/h (1 Bft) O-NO 67 ° 0,000 mm -0,5 °C 24,7 °C 4,8 km/h (1 Bft) 100,00 %
02.05.2026 16:44 24,6 °C 18 % 1021,7 hPa 0,0 l/m² 3,2 km/h (1 Bft) S-SW 202 ° 0,000 mm -1,3 °C 24,6 °C 6,4 km/h (2 Bft) 100,00 %
02.05.2026 16:43 24,5 °C 18 % 1021,7 hPa 0,0 l/m² 3,2 km/h (1 Bft) O 90 ° 0,000 mm -1,4 °C 24,5 °C 6,4 km/h (2 Bft) 100,00 %
02.05.2026 16:42 24,4 °C 18 % 1021,8 hPa 0,0 l/m² 1,6 km/h (1 Bft) SW 225 ° 0,000 mm -1,5 °C 24,4 °C 3,2 km/h (1 Bft) 100,00 %
02.05.2026 16:41 24,3 °C 18 % 1021,8 hPa 0,0 l/m² 3,2 km/h (1 Bft) S-SO 157 ° 0,000 mm -1,5 °C 24,3 °C 4,8 km/h (1 Bft) 100,00 %
02.05.2026 16:40 24,3 °C 17 % 1021,8 hPa 0,0 l/m² 4,8 km/h (1 Bft) O-NO 67 ° 0,000 mm -2,3 °C 24,3 °C 12,9 km/h (3 Bft) 100,00 %
02.05.2026 16:39 24,4 °C 17 % 1021,8 hPa 0,0 l/m² 8,0 km/h (2 Bft) NO 45 ° 0,000 mm -2,2 °C 24,0 °C 11,3 km/h (2 Bft) 100,00 %
02.05.2026 16:38 24,6 °C 18 % 1021,7 hPa 0,0 l/m² 8,0 km/h (2 Bft) NO 45 ° 0,000 mm -1,3 °C 24,2 °C 14,5 km/h (3 Bft) 100,00 %
02.05.2026 16:37 24,7 °C 18 % 1021,8 hPa 0,0 l/m² 6,4 km/h (2 Bft) N-NO 22 ° 0,000 mm -1,2 °C 24,7 °C 9,7 km/h (2 Bft) 100,00 %
02.05.2026 16:36 24,7 °C 18 % 1021,7 hPa 0,0 l/m² 3,2 km/h (1 Bft) W-NW 292 ° 0,000 mm -1,2 °C 24,7 °C 8,0 km/h (2 Bft) 100,00 %
02.05.2026 16:35 24,7 °C 19 % 1021,9 hPa 0,0 l/m² 4,8 km/h (1 Bft) N 360 ° 0,000 mm -0,5 °C 24,7 °C 9,7 km/h (2 Bft) 95,65 %
02.05.2026 16:34 24,7 °C 21 % 1021,8 hPa 0,0 l/m² 4,8 km/h (1 Bft) N-NO 22 ° 0,000 mm 0,9 °C 24,7 °C 6,4 km/h (2 Bft) 100,00 %
02.05.2026 16:33 24,7 °C 19 % 1021,9 hPa 0,0 l/m² 3,2 km/h (1 Bft) N-NO 22 ° 0,000 mm -0,5 °C 24,7 °C 6,4 km/h (2 Bft) 95,65 %
02.05.2026 16:32 24,6 °C 19 % 1021,8 hPa 0,0 l/m² 4,8 km/h (1 Bft) SO 135 ° 0,000 mm -0,6 °C 24,6 °C 8,0 km/h (2 Bft) 100,00 %
02.05.2026 16:31 24,5 °C 19 % 1021,8 hPa 0,0 l/m² 3,2 km/h (1 Bft) NW 315 ° 0,000 mm -0,6 °C 24,5 °C 4,8 km/h (1 Bft) 100,00 %
02.05.2026 16:30 24,4 °C 20 % 1022,0 hPa 0,0 l/m² 3,2 km/h (1 Bft) S-SW 202 ° 0,000 mm -0,0 °C 24,4 °C 6,4 km/h (2 Bft) 100,00 %
02.05.2026 16:29 24,3 °C 19 % 1021,9 hPa 0,0 l/m² 6,4 km/h (2 Bft) N-NO 22 ° 0,000 mm -0,8 °C 24,3 °C 12,9 km/h (3 Bft) 100,00 %
02.05.2026 16:28 24,3 °C 21 % 1021,9 hPa 0,0 l/m² 4,8 km/h (1 Bft) O-SO 112 ° 0,000 mm 0,6 °C 24,3 °C 9,7 km/h (2 Bft) 100,00 %
02.05.2026 16:27 24,2 °C 21 % 1021,9 hPa 0,0 l/m² 3,2 km/h (1 Bft) S 180 ° 0,000 mm 0,5 °C 24,2 °C 4,8 km/h (1 Bft) 100,00 %
02.05.2026 16:26 24,2 °C 20 % 1021,9 hPa 0,0 l/m² 6,4 km/h (2 Bft) NO 45 ° 0,000 mm -0,2 °C 24,2 °C 12,9 km/h (3 Bft) 100,00 %
02.05.2026 16:25 24,2 °C 19 % 1021,9 hPa 0,0 l/m² 6,4 km/h (2 Bft) N-NO 22 ° 0,000 mm -0,9 °C 24,2 °C 12,9 km/h (3 Bft) 100,00 %
02.05.2026 16:24 24,2 °C 20 % 1021,9 hPa 0,0 l/m² 6,4 km/h (2 Bft) W 270 ° 0,000 mm -0,2 °C 24,2 °C 11,3 km/h (2 Bft) 100,00 %
02.05.2026 16:23 24,2 °C 20 % 1022,0 hPa 0,0 l/m² 8,0 km/h (2 Bft) N 360 ° 0,000 mm -0,2 °C 23,8 °C 11,3 km/h (2 Bft) 100,00 %
02.05.2026 16:22 24,2 °C 19 % 1021,9 hPa 0,0 l/m² 3,2 km/h (1 Bft) W 270 ° 0,000 mm -0,9 °C 24,2 °C 8,0 km/h (2 Bft) 100,00 %
02.05.2026 16:21 24,2 °C 19 % 1022,0 hPa 0,0 l/m² 3,2 km/h (1 Bft) W-NW 292 ° 0,000 mm -0,9 °C 24,2 °C 8,0 km/h (2 Bft) 100,00 %
02.05.2026 16:20 24,3 °C 19 % 1022,0 hPa 0,0 l/m² 6,4 km/h (2 Bft) O-NO 67 ° 0,000 mm -0,8 °C 24,3 °C 9,7 km/h (2 Bft) 100,00 %
02.05.2026 16:19 24,4 °C 20 % 1022,0 hPa 0,0 l/m² 6,4 km/h (2 Bft) N-NO 22 ° 0,000 mm -0,0 °C 24,4 °C 9,7 km/h (2 Bft) 100,00 %
02.05.2026 16:18 24,4 °C 20 % 1022,0 hPa 0,0 l/m² 4,8 km/h (1 Bft) N 360 ° 0,000 mm -0,0 °C 24,4 °C 6,4 km/h (2 Bft) 100,00 %
02.05.2026 16:17 24,4 °C 20 % 1022,0 hPa 0,0 l/m² 4,8 km/h (1 Bft) NO 45 ° 0,000 mm -0,0 °C 24,4 °C 8,0 km/h (2 Bft) 100,00 %
02.05.2026 16:16 24,6 °C 19 % 1022,0 hPa 0,0 l/m² 9,7 km/h (2 Bft) N-NO 22 ° 0,000 mm -0,6 °C 23,8 °C 14,5 km/h (3 Bft) 95,65 %
02.05.2026 16:15 24,7 °C 22 % 1022,2 hPa 0,0 l/m² 6,4 km/h (2 Bft) W-SW 247 ° 0,000 mm 1,6 °C 24,7 °C 14,5 km/h (3 Bft) 100,00 %
02.05.2026 16:14 24,7 °C 21 % 1022,0 hPa 0,0 l/m² 4,8 km/h (1 Bft) O-NO 67 ° 0,000 mm 0,9 °C 24,7 °C 8,0 km/h (2 Bft) 100,00 %
02.05.2026 16:13 24,6 °C 22 % 1022,0 hPa 0,0 l/m² 3,2 km/h (1 Bft) O-NO 67 ° 0,000 mm 1,5 °C 24,6 °C 4,8 km/h (1 Bft) 100,00 %
02.05.2026 16:12 24,6 °C 22 % 1022,1 hPa 0,0 l/m² 1,6 km/h (1 Bft) W-SW 247 ° 0,000 mm 1,5 °C 24,6 °C 3,2 km/h (1 Bft) 100,00 %
02.05.2026 16:11 24,6 °C 22 % 1022,1 hPa 0,0 l/m² 4,8 km/h (1 Bft) SO 135 ° 0,000 mm 1,5 °C 24,6 °C 9,7 km/h (2 Bft) 100,00 %
02.05.2026 16:10 24,6 °C 23 % 1022,1 hPa 0,0 l/m² 4,8 km/h (1 Bft) O-NO 67 ° 0,000 mm 2,1 °C 24,6 °C 9,7 km/h (2 Bft) 100,00 %
02.05.2026 16:09 24,6 °C 23 % 1022,1 hPa 0,0 l/m² 4,8 km/h (1 Bft) W 270 ° 0,000 mm 2,1 °C 24,6 °C 8,0 km/h (2 Bft) 100,00 %
02.05.2026 16:08 24,4 °C 22 % 1022,1 hPa 0,0 l/m² 3,2 km/h (1 Bft) W-NW 292 ° 0,000 mm 1,3 °C 24,4 °C 4,8 km/h (1 Bft) 100,00 %
02.05.2026 16:07 24,4 °C 21 % 1022,2 hPa 0,0 l/m² 6,4 km/h (2 Bft) N-NW 337 ° 0,000 mm 0,7 °C 24,4 °C 9,7 km/h (2 Bft) 95,65 %
02.05.2026 16:06 24,4 °C 23 % 1022,1 hPa 0,0 l/m² 4,8 km/h (1 Bft) N 360 ° 0,000 mm 1,9 °C 24,4 °C 8,0 km/h (2 Bft) 100,00 %
02.05.2026 16:05 24,4 °C 23 % 1022,2 hPa 0,0 l/m² 3,2 km/h (1 Bft) W-NW 292 ° 0,000 mm 1,9 °C 24,4 °C 8,0 km/h (2 Bft) 100,00 %
02.05.2026 16:04 24,3 °C 22 % 1022,1 hPa 0,0 l/m² 4,8 km/h (1 Bft) N 360 ° 0,000 mm 1,2 °C 24,3 °C 9,7 km/h (2 Bft) 95,65 %
02.05.2026 16:03 24,3 °C 23 % 1022,2 hPa 0,0 l/m² 3,2 km/h (1 Bft) NW 315 ° 0,000 mm 1,8 °C 24,3 °C 4,8 km/h (1 Bft) 100,00 %
02.05.2026 16:02 24,2 °C 23 % 1022,2 hPa 0,0 l/m² 3,2 km/h (1 Bft) W 270 ° 0,000 mm 1,8 °C 24,2 °C 4,8 km/h (1 Bft) 100,00 %
02.05.2026 16:01 24,1 °C 22 % 1022,2 hPa 0,0 l/m² 3,2 km/h (1 Bft) NO 45 ° 0,000 mm 1,1 °C 24,1 °C 4,8 km/h (1 Bft) 100,00 %
02.05.2026 16:00 24,0 °C 20 % 1022,2 hPa 0,0 l/m² 4,8 km/h (1 Bft) NO 45 ° 0,000 mm -0,3 °C 24,0 °C 6,4 km/h (2 Bft) 100,00 %
02.05.2026 15:59 24,0 °C 20 % 1022,2 hPa 0,0 l/m² 6,4 km/h (2 Bft) N 360 ° 0,000 mm -0,3 °C 24,0 °C 11,3 km/h (2 Bft) 100,00 %
02.05.2026 15:58 24,1 °C 21 % 1022,3 hPa 0,0 l/m² 8,0 km/h (2 Bft) N-NO 22 ° 0,000 mm 0,4 °C 23,7 °C 12,9 km/h (3 Bft) 100,00 %
02.05.2026 15:57 24,1 °C 21 % 1022,3 hPa 0,0 l/m² 6,4 km/h (2 Bft) N-NW 337 ° 0,000 mm 0,4 °C 24,1 °C 12,9 km/h (3 Bft) 100,00 %
02.05.2026 15:56 24,1 °C 21 % 1022,3 hPa 0,0 l/m² 6,4 km/h (2 Bft) N 360 ° 0,000 mm 0,4 °C 24,1 °C 11,3 km/h (2 Bft) 100,00 %
02.05.2026 15:55 24,2 °C 21 % 1022,3 hPa 0,0 l/m² 8,0 km/h (2 Bft) N 360 ° 0,000 mm 0,5 °C 23,8 °C 12,9 km/h (3 Bft) 100,00 %
02.05.2026 15:54 24,2 °C 21 % 1022,3 hPa 0,0 l/m² 8,0 km/h (2 Bft) N-NO 22 ° 0,000 mm 0,5 °C 23,8 °C 16,1 km/h (3 Bft) 100,00 %
02.05.2026 15:53 24,1 °C 22 % 1022,3 hPa 0,0 l/m² 1,6 km/h (1 Bft) W 270 ° 0,000 mm 1,1 °C 24,1 °C 4,8 km/h (1 Bft) 100,00 %
02.05.2026 15:52 24,1 °C 21 % 1022,4 hPa 0,0 l/m² 4,8 km/h (1 Bft) N-NW 337 ° 0,000 mm 0,4 °C 24,1 °C 8,0 km/h (2 Bft) 100,00 %
02.05.2026 15:51 24,1 °C 21 % 1022,2 hPa 0,0 l/m² 4,8 km/h (1 Bft) NO 45 ° 0,000 mm 0,4 °C 24,1 °C 9,7 km/h (2 Bft) 100,00 %
02.05.2026 15:50 24,1 °C 20 % 1022,4 hPa 0,0 l/m² 8,0 km/h (2 Bft) NO 45 ° 0,000 mm -0,3 °C 23,7 °C 14,5 km/h (3 Bft) 95,65 %
02.05.2026 15:49 24,1 °C 21 % 1022,4 hPa 0,0 l/m² 4,8 km/h (1 Bft) O-SO 112 ° 0,000 mm 0,4 °C 24,1 °C 9,7 km/h (2 Bft) 100,00 %
02.05.2026 15:48 24,1 °C 21 % 1022,3 hPa 0,0 l/m² 6,4 km/h (2 Bft) NO 45 ° 0,000 mm 0,4 °C 24,1 °C 9,7 km/h (2 Bft) 95,65 %
02.05.2026 15:47 24,1 °C 23 % 1022,3 hPa 0,0 l/m² 11,3 km/h (2 Bft) NO 45 ° 0,000 mm 1,7 °C 22,9 °C 16,1 km/h (3 Bft) 73,91 %
02.05.2026 15:46 24,2 °C 23 % 1022,2 hPa 0,0 l/m² 9,7 km/h (2 Bft) NO 45 ° 0,000 mm 1,8 °C 23,3 °C 11,3 km/h (2 Bft) 69,57 %
02.05.2026 15:45 24,2 °C 23 % 1022,4 hPa 0,0 l/m² 9,7 km/h (2 Bft) N-NO 22 ° 0,000 mm 1,8 °C 23,3 °C 14,5 km/h (3 Bft) 95,65 %
02.05.2026 15:44 24,2 °C 23 % 1022,3 hPa 0,0 l/m² 3,2 km/h (1 Bft) NO 45 ° 0,000 mm 1,8 °C 24,2 °C 12,9 km/h (3 Bft) 100,00 %
02.05.2026 15:43 24,1 °C 22 % 1022,4 hPa 0,0 l/m² 4,8 km/h (1 Bft) N-NO 22 ° 0,000 mm 1,1 °C 24,1 °C 12,9 km/h (3 Bft) 86,96 %
02.05.2026 15:42 24,2 °C 22 % 1022,5 hPa 0,0 l/m² 4,8 km/h (1 Bft) W 270 ° 0,000 mm 1,1 °C 24,2 °C 9,7 km/h (2 Bft) 95,65 %
02.05.2026 15:41 24,2 °C 23 % 1022,5 hPa 0,0 l/m² 8,0 km/h (2 Bft) N 360 ° 0,000 mm 1,8 °C 23,8 °C 12,9 km/h (3 Bft) 100,00 %
02.05.2026 15:40 24,1 °C 24 % 1022,5 hPa 0,0 l/m² 6,4 km/h (2 Bft) NO 45 ° 0,000 mm 2,3 °C 24,1 °C 11,3 km/h (2 Bft) 95,65 %
02.05.2026 15:39 24,0 °C 23 % 1022,5 hPa 0,0 l/m² 4,8 km/h (1 Bft) NW 315 ° 0,000 mm 1,6 °C 24,0 °C 8,0 km/h (2 Bft) 100,00 %
02.05.2026 15:38 23,9 °C 24 % 1022,5 hPa 0,0 l/m² 4,8 km/h (1 Bft) N-NO 22 ° 0,000 mm 2,1 °C 23,9 °C 12,9 km/h (3 Bft) 86,96 %
02.05.2026 15:37 23,9 °C 23 % 1022,5 hPa 0,0 l/m² 8,0 km/h (2 Bft) N 360 ° 0,000 mm 1,5 °C 23,4 °C 14,5 km/h (3 Bft) 100,00 %
02.05.2026 15:36 23,9 °C 22 % 1022,5 hPa 0,0 l/m² 3,2 km/h (1 Bft) W-NW 292 ° 0,000 mm 0,9 °C 23,9 °C 4,8 km/h (1 Bft) 95,65 %
02.05.2026 15:35 23,8 °C 22 % 1022,5 hPa 0,0 l/m² 6,4 km/h (2 Bft) O-NO 67 ° 0,000 mm 0,8 °C 23,8 °C 11,3 km/h (2 Bft) 91,30 %
02.05.2026 15:34 23,8 °C 23 % 1022,5 hPa 0,0 l/m² 11,3 km/h (2 Bft) N-NO 22 ° 0,000 mm 1,4 °C 22,6 °C 17,7 km/h (3 Bft) 100,00 %
02.05.2026 15:33 23,9 °C 23 % 1022,5 hPa 0,0 l/m² 6,4 km/h (2 Bft) W 270 ° 0,000 mm 1,5 °C 23,9 °C 14,5 km/h (3 Bft) 100,00 %
02.05.2026 15:32 23,9 °C 24 % 1022,6 hPa 0,0 l/m² 9,7 km/h (2 Bft) N 360 ° 0,000 mm 2,1 °C 23,0 °C 16,1 km/h (3 Bft) 91,30 %
02.05.2026 15:31 23,9 °C 24 % 1022,5 hPa 0,0 l/m² 9,7 km/h (2 Bft) N-NO 22 ° 0,000 mm 2,1 °C 23,0 °C 17,7 km/h (3 Bft) 95,65 %
02.05.2026 15:30 23,9 °C 25 % 1022,6 hPa 0,0 l/m² 4,8 km/h (1 Bft) NO 45 ° 0,000 mm 2,7 °C 23,9 °C 8,0 km/h (2 Bft) 91,30 %
02.05.2026 15:29 23,8 °C 24 % 1022,5 hPa 0,0 l/m² 8,0 km/h (2 Bft) NO 45 ° 0,000 mm 2,0 °C 23,3 °C 16,1 km/h (3 Bft) 100,00 %
02.05.2026 15:28 23,8 °C 24 % 1022,6 hPa 0,0 l/m² 6,4 km/h (2 Bft) NO 45 ° 0,000 mm 2,0 °C 23,8 °C 9,7 km/h (2 Bft) 100,00 %
02.05.2026 15:27 23,8 °C 24 % 1022,6 hPa 0,0 l/m² 6,4 km/h (2 Bft) N 360 ° 0,000 mm 2,0 °C 23,8 °C 9,7 km/h (2 Bft) 100,00 %
02.05.2026 15:26 23,8 °C 24 % 1022,6 hPa 0,0 l/m² 6,4 km/h (2 Bft) NO 45 ° 0,000 mm 2,0 °C 23,8 °C 8,0 km/h (2 Bft) 100,00 %
02.05.2026 15:25 23,8 °C 24 % 1022,6 hPa 0,0 l/m² 8,0 km/h (2 Bft) NO 45 ° 0,000 mm 2,0 °C 23,3 °C 11,3 km/h (2 Bft) 100,00 %
02.05.2026 15:24 23,9 °C 24 % 1022,6 hPa 0,0 l/m² 6,4 km/h (2 Bft) NO 45 ° 0,000 mm 2,1 °C 23,9 °C 12,9 km/h (3 Bft) 100,00 %
02.05.2026 15:23 23,9 °C 25 % 1022,6 hPa 0,0 l/m² 4,8 km/h (1 Bft) NW 315 ° 0,000 mm 2,7 °C 23,9 °C 8,0 km/h (2 Bft) 100,00 %
02.05.2026 15:22 23,8 °C 24 % 1022,6 hPa 0,0 l/m² 9,7 km/h (2 Bft) N-NO 22 ° 0,000 mm 2,0 °C 22,9 °C 16,1 km/h (3 Bft) 100,00 %
02.05.2026 15:21 23,8 °C 25 % 1022,8 hPa 0,0 l/m² 4,8 km/h (1 Bft) W 270 ° 0,000 mm 2,6 °C 23,8 °C 9,7 km/h (2 Bft) 95,65 %
02.05.2026 15:20 23,7 °C 25 % 1022,7 hPa 0,0 l/m² 4,8 km/h (1 Bft) W-NW 292 ° 0,000 mm 2,5 °C 23,7 °C 6,4 km/h (2 Bft) 100,00 %
02.05.2026 15:19 23,7 °C 25 % 1022,8 hPa 0,0 l/m² 6,4 km/h (2 Bft) O-NO 67 ° 0,000 mm 2,5 °C 23,7 °C 9,7 km/h (2 Bft) 100,00 %
02.05.2026 15:18 23,7 °C 25 % 1022,7 hPa 0,0 l/m² 8,0 km/h (2 Bft) NO 45 ° 0,000 mm 2,5 °C 23,2 °C 12,9 km/h (3 Bft) 100,00 %
02.05.2026 15:17 23,8 °C 25 % 1022,7 hPa 0,0 l/m² 12,9 km/h (3 Bft) N 360 ° 0,000 mm 2,6 °C 22,2 °C 19,3 km/h (3 Bft) 100,00 %
02.05.2026 15:16 23,9 °C 24 % 1022,8 hPa 0,0 l/m² 6,4 km/h (2 Bft) N 360 ° 0,000 mm 2,1 °C 23,9 °C 9,7 km/h (2 Bft) 100,00 %
02.05.2026 15:15 23,9 °C 25 % 1022,8 hPa 0,0 l/m² 4,8 km/h (1 Bft) W-SW 247 ° 0,000 mm 2,7 °C 23,9 °C 8,0 km/h (2 Bft) 100,00 %
02.05.2026 15:14 23,8 °C 27 % 1022,8 hPa 0,0 l/m² 6,4 km/h (2 Bft) N 360 ° 0,000 mm 3,7 °C 23,8 °C 11,3 km/h (2 Bft) 95,65 %
02.05.2026 15:13 23,9 °C 25 % 1022,8 hPa 0,0 l/m² 8,0 km/h (2 Bft) N 360 ° 0,000 mm 2,7 °C 23,4 °C 16,1 km/h (3 Bft) 100,00 %
02.05.2026 15:12 23,9 °C 26 % 1022,8 hPa 0,0 l/m² 8,0 km/h (2 Bft) O-NO 67 ° 0,000 mm 3,2 °C 23,4 °C 17,7 km/h (3 Bft) 100,00 %
02.05.2026 15:11 23,9 °C 25 % 1022,8 hPa 0,0 l/m² 12,9 km/h (3 Bft) N-NO 22 ° 0,000 mm 2,7 °C 22,3 °C 19,3 km/h (3 Bft) 100,00 %
02.05.2026 15:10 24,1 °C 24 % 1022,8 hPa 0,0 l/m² 11,3 km/h (2 Bft) N 360 ° 0,000 mm 2,3 °C 22,9 °C 17,7 km/h (3 Bft) 100,00 %
02.05.2026 15:09 24,2 °C 25 % 1022,8 hPa 0,0 l/m² 8,0 km/h (2 Bft) N-NO 22 ° 0,000 mm 2,9 °C 23,8 °C 17,7 km/h (3 Bft) 95,65 %
02.05.2026 15:08 24,2 °C 25 % 1022,8 hPa 0,0 l/m² 6,4 km/h (2 Bft) N 360 ° 0,000 mm 2,9 °C 24,2 °C 11,3 km/h (2 Bft) 100,00 %
02.05.2026 15:07 24,2 °C 26 % 1022,8 hPa 0,0 l/m² 8,0 km/h (2 Bft) N-NO 22 ° 0,000 mm 3,5 °C 23,8 °C 19,3 km/h (3 Bft) 100,00 %
02.05.2026 15:06 24,2 °C 26 % 1022,8 hPa 0,0 l/m² 6,4 km/h (2 Bft) O-NO 67 ° 0,000 mm 3,5 °C 24,2 °C 12,9 km/h (3 Bft) 100,00 %
02.05.2026 15:05 24,2 °C 25 % 1022,9 hPa 0,0 l/m² 4,8 km/h (1 Bft) W-NW 292 ° 0,000 mm 2,9 °C 24,2 °C 9,7 km/h (2 Bft) 100,00 %
02.05.2026 15:04 24,1 °C 26 % 1022,8 hPa 0,0 l/m² 1,6 km/h (1 Bft) W-NW 292 ° 0,000 mm 3,4 °C 24,1 °C 3,2 km/h (1 Bft) 95,65 %
02.05.2026 15:03 24,1 °C 25 % 1022,9 hPa 0,0 l/m² 3,2 km/h (1 Bft) N-NO 22 ° 0,000 mm 2,8 °C 24,1 °C 6,4 km/h (2 Bft) 100,00 %
02.05.2026 15:02 24,1 °C 25 % 1023,0 hPa 0,0 l/m² 4,8 km/h (1 Bft) W 270 ° 0,000 mm 2,8 °C 24,1 °C 9,7 km/h (2 Bft) 95,65 %
02.05.2026 15:01 24,2 °C 25 % 1023,0 hPa 0,0 l/m² 6,4 km/h (2 Bft) O-NO 67 ° 0,000 mm 2,9 °C 24,2 °C 11,3 km/h (2 Bft) 100,00 %
02.05.2026 15:00 24,2 °C 27 % 1023,0 hPa 0,0 l/m² 9,7 km/h (2 Bft) NO 45 ° 0,000 mm 4,0 °C 23,3 °C 16,1 km/h (3 Bft) 100,00 %
02.05.2026 14:59 24,2 °C 26 % 1023,0 hPa 0,0 l/m² 4,8 km/h (1 Bft) NO 45 ° 0,000 mm 3,5 °C 24,2 °C 6,4 km/h (2 Bft) 100,00 %
02.05.2026 14:58 24,2 °C 26 % 1023,0 hPa 0,0 l/m² 3,2 km/h (1 Bft) W-NW 292 ° 0,000 mm 3,5 °C 24,2 °C 4,8 km/h (1 Bft) 100,00 %
02.05.2026 14:57 24,2 °C 25 % 1023,0 hPa 0,0 l/m² 3,2 km/h (1 Bft) W-SW 247 ° 0,000 mm 2,9 °C 24,2 °C 6,4 km/h (2 Bft) 100,00 %
02.05.2026 14:56 24,2 °C 24 % 1023,0 hPa 0,0 l/m² 4,8 km/h (1 Bft) N-NO 22 ° 0,000 mm 2,4 °C 24,2 °C 11,3 km/h (2 Bft) 100,00 %
02.05.2026 14:55 24,2 °C 26 % 1023,0 hPa 0,0 l/m² 6,4 km/h (2 Bft) N-NO 22 ° 0,000 mm 3,5 °C 24,2 °C 16,1 km/h (3 Bft) 100,00 %
02.05.2026 14:54 24,3 °C 24 % 1023,0 hPa 0,0 l/m² 6,4 km/h (2 Bft) N 360 ° 0,000 mm 2,4 °C 24,3 °C 11,3 km/h (2 Bft) 100,00 %
02.05.2026 14:53 24,3 °C 25 % 1023,0 hPa 0,0 l/m² 4,8 km/h (1 Bft) NW 315 ° 0,000 mm 3,0 °C 24,3 °C 8,0 km/h (2 Bft) 100,00 %
02.05.2026 14:52 24,3 °C 24 % 1023,0 hPa 0,0 l/m² 6,4 km/h (2 Bft) NO 45 ° 0,000 mm 2,4 °C 24,3 °C 14,5 km/h (3 Bft) 95,65 %
02.05.2026 14:51 24,3 °C 25 % 1023,0 hPa 0,0 l/m² 4,8 km/h (1 Bft) W-NW 292 ° 0,000 mm 3,0 °C 24,3 °C 6,4 km/h (2 Bft) 91,30 %
02.05.2026 14:50 24,3 °C 24 % 1023,1 hPa 0,0 l/m² 3,2 km/h (1 Bft) NW 315 ° 0,000 mm 2,4 °C 24,3 °C 4,8 km/h (1 Bft) 95,65 %
02.05.2026 14:49 24,4 °C 24 % 1023,1 hPa 0,0 l/m² 6,4 km/h (2 Bft) N-NW 337 ° 0,000 mm 2,5 °C 24,4 °C 11,3 km/h (2 Bft) 95,65 %
02.05.2026 14:48 24,5 °C 25 % 1023,1 hPa 0,0 l/m² 6,4 km/h (2 Bft) W-NW 292 ° 0,000 mm 3,2 °C 24,5 °C 12,9 km/h (3 Bft) 100,00 %
02.05.2026 14:47 24,6 °C 26 % 1023,1 hPa 0,0 l/m² 6,4 km/h (2 Bft) N-NW 337 ° 0,000 mm 3,8 °C 24,6 °C 11,3 km/h (2 Bft) 100,00 %
02.05.2026 14:46 24,6 °C 26 % 1023,1 hPa 0,0 l/m² 0,0 km/h (0 Bft) W-NW 292 ° 0,000 mm 3,8 °C 24,6 °C 3,2 km/h (1 Bft) 95,65 %
02.05.2026 14:45 24,4 °C 26 % 1023,1 hPa 0,0 l/m² 3,2 km/h (1 Bft) SW 225 ° 0,000 mm 3,6 °C 24,4 °C 8,0 km/h (2 Bft) 86,96 %
02.05.2026 14:44 24,4 °C 26 % 1023,1 hPa 0,0 l/m² 6,4 km/h (2 Bft) O-NO 67 ° 0,000 mm 3,6 °C 24,4 °C 9,7 km/h (2 Bft) 100,00 %
02.05.2026 14:43 24,4 °C 27 % 1023,1 hPa 0,0 l/m² 1,6 km/h (1 Bft) NO 45 ° 0,000 mm 4,2 °C 24,4 °C 3,2 km/h (1 Bft) 100,00 %
02.05.2026 14:42 24,3 °C 27 % 1023,1 hPa 0,0 l/m² 3,2 km/h (1 Bft) NO 45 ° 0,000 mm 4,1 °C 24,3 °C 6,4 km/h (2 Bft) 91,30 %
02.05.2026 14:41 24,3 °C 27 % 1023,1 hPa 0,0 l/m² 3,2 km/h (1 Bft) W 270 ° 0,000 mm 4,1 °C 24,3 °C 4,8 km/h (1 Bft) 100,00 %
02.05.2026 14:40 24,2 °C 27 % 1023,1 hPa 0,0 l/m² 4,8 km/h (1 Bft) N-NW 337 ° 0,000 mm 4,0 °C 24,2 °C 9,7 km/h (2 Bft) 95,65 %
02.05.2026 14:39 24,1 °C 27 % 1023,1 hPa 0,0 l/m² 3,2 km/h (1 Bft) W-NW 292 ° 0,000 mm 3,9 °C 24,1 °C 6,4 km/h (2 Bft) 100,00 %
02.05.2026 14:38 23,8 °C 27 % 1023,1 hPa 0,0 l/m² 1,6 km/h (1 Bft) W-SW 247 ° 0,000 mm 3,7 °C 23,8 °C 4,8 km/h (1 Bft) 95,65 %
02.05.2026 14:37 23,7 °C 28 % 1023,2 hPa 0,0 l/m² 1,6 km/h (1 Bft) S-SW 202 ° 0,000 mm 4,1 °C 23,7 °C 3,2 km/h (1 Bft) 100,00 %
02.05.2026 14:36 23,6 °C 28 % 1023,2 hPa 0,0 l/m² 3,2 km/h (1 Bft) W-SW 247 ° 0,000 mm 4,0 °C 23,6 °C 11,3 km/h (2 Bft) 95,65 %
02.05.2026 14:35 23,6 °C 28 % 1023,2 hPa 0,0 l/m² 4,8 km/h (1 Bft) NW 315 ° 0,000 mm 4,0 °C 23,6 °C 12,9 km/h (3 Bft) 100,00 %
02.05.2026 14:34 23,6 °C 28 % 1023,2 hPa 0,0 l/m² 4,8 km/h (1 Bft) W 270 ° 0,000 mm 4,0 °C 23,6 °C 14,5 km/h (3 Bft) 100,00 %
02.05.2026 14:33 23,6 °C 26 % 1023,1 hPa 0,0 l/m² 9,7 km/h (2 Bft) N-NO 22 ° 0,000 mm 3,0 °C 22,7 °C 14,5 km/h (3 Bft) 95,65 %
02.05.2026 14:32 23,6 °C 27 % 1023,2 hPa 0,0 l/m² 4,8 km/h (1 Bft) W-NW 292 ° 0,000 mm 3,5 °C 23,6 °C 11,3 km/h (2 Bft) 95,65 %
02.05.2026 14:31 23,5 °C 28 % 1023,3 hPa 0,0 l/m² 6,4 km/h (2 Bft) N-NO 22 ° 0,000 mm 3,9 °C 23,5 °C 14,5 km/h (3 Bft) 100,00 %
02.05.2026 14:30 23,4 °C 28 % 1023,2 hPa 0,0 l/m² 8,0 km/h (2 Bft) NO 45 ° 0,000 mm 3,8 °C 22,9 °C 16,1 km/h (3 Bft) 100,00 %
02.05.2026 14:29 23,4 °C 29 % 1023,2 hPa 0,0 l/m² 6,4 km/h (2 Bft) NO 45 ° 0,000 mm 4,3 °C 23,4 °C 12,9 km/h (3 Bft) 100,00 %
02.05.2026 14:28 23,3 °C 28 % 1023,2 hPa 0,0 l/m² 6,4 km/h (2 Bft) N-NW 337 ° 0,000 mm 3,8 °C 23,3 °C 11,3 km/h (2 Bft) 100,00 %
02.05.2026 14:27 23,4 °C 27 % 1023,2 hPa 0,0 l/m² 9,7 km/h (2 Bft) NO 45 ° 0,000 mm 3,3 °C 22,5 °C 20,9 km/h (4 Bft) 100,00 %
02.05.2026 14:26 23,3 °C 28 % 1023,2 hPa 0,0 l/m² 6,4 km/h (2 Bft) N 360 ° 0,000 mm 3,8 °C 23,3 °C 11,3 km/h (2 Bft) 100,00 %
02.05.2026 14:25 23,4 °C 27 % 1023,2 hPa 0,0 l/m² 4,8 km/h (1 Bft) W 270 ° 0,000 mm 3,3 °C 23,4 °C 8,0 km/h (2 Bft) 95,65 %
02.05.2026 14:24 23,4 °C 27 % 1023,2 hPa 0,0 l/m² 12,9 km/h (3 Bft) N 360 ° 0,000 mm 3,3 °C 21,8 °C 19,3 km/h (3 Bft) 100,00 %
02.05.2026 14:23 23,6 °C 27 % 1023,4 hPa 0,0 l/m² 8,0 km/h (2 Bft) NO 45 ° 0,000 mm 3,5 °C 23,1 °C 12,9 km/h (3 Bft) 100,00 %
02.05.2026 14:22 23,5 °C 27 % 1023,4 hPa 0,0 l/m² 8,0 km/h (2 Bft) N 360 ° 0,000 mm 3,4 °C 23,0 °C 11,3 km/h (2 Bft) 100,00 %
02.05.2026 14:21 23,4 °C 28 % 1023,4 hPa 0,0 l/m² 3,2 km/h (1 Bft) W-SW 247 ° 0,000 mm 3,8 °C 23,4 °C 6,4 km/h (2 Bft) 100,00 %
02.05.2026 14:20 23,4 °C 27 % 1023,4 hPa 0,0 l/m² 8,0 km/h (2 Bft) NO 45 ° 0,000 mm 3,3 °C 22,9 °C 17,7 km/h (3 Bft) 100,00 %
02.05.2026 14:19 23,4 °C 27 % 1023,4 hPa 0,0 l/m² 9,7 km/h (2 Bft) N-NO 22 ° 0,000 mm 3,3 °C 22,5 °C 14,5 km/h (3 Bft) 100,00 %
02.05.2026 14:18 23,4 °C 27 % 1023,5 hPa 0,0 l/m² 6,4 km/h (2 Bft) N-NO 22 ° 0,000 mm 3,3 °C 23,4 °C 11,3 km/h (2 Bft) 100,00 %
02.05.2026 14:17 23,4 °C 27 % 1023,5 hPa 0,0 l/m² 8,0 km/h (2 Bft) S-SO 157 ° 0,000 mm 3,3 °C 22,9 °C 12,9 km/h (3 Bft) 100,00 %
02.05.2026 14:16 23,3 °C 28 % 1023,5 hPa 0,0 l/m² 3,2 km/h (1 Bft) SW 225 ° 0,000 mm 3,8 °C 23,3 °C 4,8 km/h (1 Bft) 95,65 %
02.05.2026 14:15 23,2 °C 27 % 1023,6 hPa 0,0 l/m² 3,2 km/h (1 Bft) SW 225 ° 0,000 mm 3,2 °C 23,2 °C 6,4 km/h (2 Bft) 100,00 %
02.05.2026 14:14 23,2 °C 27 % 1023,5 hPa 0,0 l/m² 4,8 km/h (1 Bft) NO 45 ° 0,000 mm 3,2 °C 23,2 °C 8,0 km/h (2 Bft) 100,00 %
02.05.2026 14:13 23,1 °C 28 % 1023,6 hPa 0,0 l/m² 6,4 km/h (2 Bft) O-NO 67 ° 0,000 mm 3,6 °C 23,1 °C 11,3 km/h (2 Bft) 100,00 %
02.05.2026 14:12 23,1 °C 27 % 1023,6 hPa 0,0 l/m² 3,2 km/h (1 Bft) NW 315 ° 0,000 mm 3,1 °C 23,1 °C 4,8 km/h (1 Bft) 100,00 %
02.05.2026 14:11 23,1 °C 26 % 1023,6 hPa 0,0 l/m² 3,2 km/h (1 Bft) NO 45 ° 0,000 mm 2,5 °C 23,1 °C 6,4 km/h (2 Bft) 100,00 %
02.05.2026 14:10 23,1 °C 25 % 1023,6 hPa 0,0 l/m² 8,0 km/h (2 Bft) N 360 ° 0,000 mm 2,0 °C 22,6 °C 11,3 km/h (2 Bft) 100,00 %
02.05.2026 14:09 23,2 °C 26 % 1023,6 hPa 0,0 l/m² 4,8 km/h (1 Bft) N-NO 22 ° 0,000 mm 2,6 °C 23,2 °C 9,7 km/h (2 Bft) 100,00 %
02.05.2026 14:08 23,3 °C 27 % 1023,7 hPa 0,0 l/m² 9,7 km/h (2 Bft) N-NO 22 ° 0,000 mm 3,2 °C 22,4 °C 14,5 km/h (3 Bft) 100,00 %
02.05.2026 14:07 23,3 °C 27 % 1023,7 hPa 0,0 l/m² 8,0 km/h (2 Bft) N-NO 22 ° 0,000 mm 3,2 °C 22,8 °C 9,7 km/h (2 Bft) 100,00 %
02.05.2026 14:06 23,3 °C 27 % 1023,8 hPa 0,0 l/m² 6,4 km/h (2 Bft) N-NO 22 ° 0,000 mm 3,2 °C 23,3 °C 9,7 km/h (2 Bft) 100,00 %
02.05.2026 14:05 23,3 °C 29 % 1023,8 hPa 0,0 l/m² 3,2 km/h (1 Bft) W 270 ° 0,000 mm 4,3 °C 23,3 °C 6,4 km/h (2 Bft) 100,00 %
02.05.2026 14:04 23,2 °C 28 % 1023,7 hPa 0,0 l/m² 3,2 km/h (1 Bft) W 270 ° 0,000 mm 3,7 °C 23,2 °C 6,4 km/h (2 Bft) 95,65 %
02.05.2026 14:03 23,2 °C 27 % 1023,8 hPa 0,0 l/m² 8,0 km/h (2 Bft) NO 45 ° 0,000 mm 3,2 °C 22,7 °C 11,3 km/h (2 Bft) 91,30 %
02.05.2026 14:02 23,2 °C 29 % 1023,7 hPa 0,0 l/m² 6,4 km/h (2 Bft) N 360 ° 0,000 mm 4,2 °C 23,2 °C 12,9 km/h (3 Bft) 100,00 %
02.05.2026 14:01 23,1 °C 29 % 1023,7 hPa 0,0 l/m² 1,6 km/h (1 Bft) W-NW 292 ° 0,000 mm 4,1 °C 23,1 °C 4,8 km/h (1 Bft) 100,00 %
02.05.2026 14:00 23,1 °C 28 % 1023,7 hPa 0,0 l/m² 1,6 km/h (1 Bft) W-NW 292 ° 0,000 mm 3,6 °C 23,1 °C 4,8 km/h (1 Bft) 100,00 %
02.05.2026 13:59 23,1 °C 27 % 1023,7 hPa 0,0 l/m² 4,8 km/h (1 Bft) W-SW 247 ° 0,000 mm 3,1 °C 23,1 °C 9,7 km/h (2 Bft) 100,00 %
02.05.2026 13:58 23,3 °C 28 % 1023,7 hPa 0,0 l/m² 6,4 km/h (2 Bft) N-NO 22 ° 0,000 mm 3,8 °C 23,3 °C 11,3 km/h (2 Bft) 100,00 %
02.05.2026 13:57 23,4 °C 27 % 1023,7 hPa 0,0 l/m² 11,3 km/h (2 Bft) N-NO 22 ° 0,000 mm 3,3 °C 22,1 °C 16,1 km/h (3 Bft) 95,65 %
02.05.2026 13:56 23,4 °C 30 % 1023,7 hPa 0,0 l/m² 4,8 km/h (1 Bft) NO 45 ° 0,000 mm 4,8 °C 23,4 °C 9,7 km/h (2 Bft) 95,65 %
02.05.2026 13:55 23,3 °C 29 % 1023,8 hPa 0,0 l/m² 4,8 km/h (1 Bft) N 360 ° 0,000 mm 4,3 °C 23,3 °C 8,0 km/h (2 Bft) 100,00 %
02.05.2026 13:54 23,3 °C 29 % 1023,7 hPa 0,0 l/m² 6,4 km/h (2 Bft) S-SO 157 ° 0,000 mm 4,3 °C 23,3 °C 8,0 km/h (2 Bft) 100,00 %
02.05.2026 13:53 23,3 °C 28 % 1023,8 hPa 0,0 l/m² 3,2 km/h (1 Bft) W-NW 292 ° 0,000 mm 3,8 °C 23,3 °C 6,4 km/h (2 Bft) 100,00 %
02.05.2026 13:52 23,3 °C 29 % 1023,7 hPa 0,0 l/m² 8,0 km/h (2 Bft) N 360 ° 0,000 mm 4,3 °C 22,8 °C 11,3 km/h (2 Bft) 95,65 %
02.05.2026 13:51 23,3 °C 31 % 1023,7 hPa 0,0 l/m² 4,8 km/h (1 Bft) O 90 ° 0,000 mm 5,2 °C 23,3 °C 8,0 km/h (2 Bft) 100,00 %
02.05.2026 13:50 23,3 °C 31 % 1023,7 hPa 0,0 l/m² 3,2 km/h (1 Bft) S 180 ° 0,000 mm 5,2 °C 23,3 °C 6,4 km/h (2 Bft) 100,00 %
02.05.2026 13:49 23,3 °C 30 % 1023,7 hPa 0,0 l/m² 6,4 km/h (2 Bft) O-NO 67 ° 0,000 mm 4,7 °C 23,3 °C 9,7 km/h (2 Bft) 100,00 %
02.05.2026 13:48 23,3 °C 30 % 1023,8 hPa 0,0 l/m² 4,8 km/h (1 Bft) NO 45 ° 0,000 mm 4,7 °C 23,3 °C 9,7 km/h (2 Bft) 100,00 %
02.05.2026 13:47 23,3 °C 31 % 1023,8 hPa 0,0 l/m² 6,4 km/h (2 Bft) O-NO 67 ° 0,000 mm 5,2 °C 23,3 °C 12,9 km/h (3 Bft) 100,00 %
02.05.2026 13:46 23,2 °C 31 % 1023,7 hPa 0,0 l/m² 4,8 km/h (1 Bft) NW 315 ° 0,000 mm 5,1 °C 23,2 °C 8,0 km/h (2 Bft) 100,00 %
02.05.2026 13:45 23,1 °C 31 % 1023,8 hPa 0,0 l/m² 3,2 km/h (1 Bft) W 270 ° 0,000 mm 5,0 °C 23,1 °C 6,4 km/h (2 Bft) 95,65 %
02.05.2026 13:44 22,9 °C 31 % 1023,8 hPa 0,0 l/m² 3,2 km/h (1 Bft) N 360 ° 0,000 mm 4,9 °C 22,9 °C 6,4 km/h (2 Bft) 100,00 %
02.05.2026 13:43 22,9 °C 32 % 1023,8 hPa 0,0 l/m² 4,8 km/h (1 Bft) NO 45 ° 0,000 mm 5,3 °C 22,9 °C 6,4 km/h (2 Bft) 95,65 %
02.05.2026 13:42 22,8 °C 31 % 1023,9 hPa 0,0 l/m² 9,7 km/h (2 Bft) N-NO 22 ° 0,000 mm 4,8 °C 21,8 °C 14,5 km/h (3 Bft) 100,00 %
02.05.2026 13:41 22,8 °C 31 % 1023,9 hPa 0,0 l/m² 4,8 km/h (1 Bft) W 270 ° 0,000 mm 4,8 °C 22,8 °C 9,7 km/h (2 Bft) 100,00 %
02.05.2026 13:40 22,8 °C 31 % 1023,9 hPa 0,0 l/m² 9,7 km/h (2 Bft) N-NO 22 ° 0,000 mm 4,8 °C 21,8 °C 17,7 km/h (3 Bft) 100,00 %
02.05.2026 13:39 22,9 °C 30 % 1023,9 hPa 0,0 l/m² 9,7 km/h (2 Bft) O-NO 67 ° 0,000 mm 4,4 °C 21,9 °C 14,5 km/h (3 Bft) 100,00 %
02.05.2026 13:38 22,9 °C 32 % 1023,9 hPa 0,0 l/m² 6,4 km/h (2 Bft) NO 45 ° 0,000 mm 5,3 °C 22,9 °C 12,9 km/h (3 Bft) 100,00 %
02.05.2026 13:37 22,9 °C 32 % 1023,9 hPa 0,0 l/m² 4,8 km/h (1 Bft) W-NW 292 ° 0,000 mm 5,3 °C 22,9 °C 8,0 km/h (2 Bft) 100,00 %
02.05.2026 13:36 22,9 °C 31 % 1023,9 hPa 0,0 l/m² 8,0 km/h (2 Bft) O-NO 67 ° 0,000 mm 4,9 °C 22,4 °C 17,7 km/h (3 Bft) 100,00 %
02.05.2026 13:35 22,9 °C 32 % 1024,0 hPa 0,0 l/m² 8,0 km/h (2 Bft) N 360 ° 0,000 mm 5,3 °C 22,4 °C 11,3 km/h (2 Bft) 95,65 %
02.05.2026 13:34 23,0 °C 31 % 1024,0 hPa 0,0 l/m² 8,0 km/h (2 Bft) NO 45 ° 0,000 mm 5,0 °C 22,5 °C 12,9 km/h (3 Bft) 100,00 %
02.05.2026 13:33 23,1 °C 30 % 1024,1 hPa 0,0 l/m² 6,4 km/h (2 Bft) N 360 ° 0,000 mm 4,6 °C 23,1 °C 8,0 km/h (2 Bft) 100,00 %
02.05.2026 13:32 23,2 °C 29 % 1024,0 hPa 0,0 l/m² 4,8 km/h (1 Bft) N-NO 22 ° 0,000 mm 4,2 °C 23,2 °C 6,4 km/h (2 Bft) 100,00 %
02.05.2026 13:31 23,3 °C 31 % 1024,0 hPa 0,0 l/m² 9,7 km/h (2 Bft) N-NO 22 ° 0,000 mm 5,2 °C 22,4 °C 12,9 km/h (3 Bft) 100,00 %
02.05.2026 13:30 23,3 °C 33 % 1024,0 hPa 0,0 l/m² 4,8 km/h (1 Bft) O-NO 67 ° 0,000 mm 6,1 °C 23,3 °C 6,4 km/h (2 Bft) 95,65 %
02.05.2026 13:29 23,1 °C 32 % 1024,0 hPa 0,0 l/m² 3,2 km/h (1 Bft) S-SW 202 ° 0,000 mm 5,5 °C 23,1 °C 4,8 km/h (1 Bft) 100,00 %
02.05.2026 13:28 23,0 °C 31 % 1024,1 hPa 0,0 l/m² 3,2 km/h (1 Bft) O-SO 112 ° 0,000 mm 5,0 °C 23,0 °C 9,7 km/h (2 Bft) 95,65 %
02.05.2026 13:27 22,8 °C 32 % 1024,1 hPa 0,0 l/m² 3,2 km/h (1 Bft) SW 225 ° 0,000 mm 5,2 °C 22,8 °C 4,8 km/h (1 Bft) 100,00 %
02.05.2026 13:26 22,7 °C 32 % 1024,2 hPa 0,0 l/m² 3,2 km/h (1 Bft) S 180 ° 0,000 mm 5,2 °C 22,7 °C 6,4 km/h (2 Bft) 100,00 %
02.05.2026 13:25 22,6 °C 32 % 1024,1 hPa 0,0 l/m² 4,8 km/h (1 Bft) O-SO 112 ° 0,000 mm 5,1 °C 22,6 °C 9,7 km/h (2 Bft) 100,00 %
02.05.2026 13:24 22,6 °C 33 % 1024,1 hPa 0,0 l/m² 4,8 km/h (1 Bft) NO 45 ° 0,000 mm 5,5 °C 22,6 °C 9,7 km/h (2 Bft) 100,00 %
02.05.2026 13:23 22,4 °C 32 % 1024,1 hPa 0,0 l/m² 4,8 km/h (1 Bft) O-NO 67 ° 0,000 mm 4,9 °C 22,4 °C 11,3 km/h (2 Bft) 100,00 %
02.05.2026 13:22 22,3 °C 33 % 1024,2 hPa 0,0 l/m² 3,2 km/h (1 Bft) O-SO 112 ° 0,000 mm 5,2 °C 22,3 °C 4,8 km/h (1 Bft) 100,00 %
02.05.2026 13:21 22,3 °C 32 % 1024,1 hPa 0,0 l/m² 4,8 km/h (1 Bft) N-NW 337 ° 0,000 mm 4,8 °C 22,3 °C 9,7 km/h (2 Bft) 100,00 %
02.05.2026 13:20 22,2 °C 32 % 1024,1 hPa 0,0 l/m² 6,4 km/h (2 Bft) N-NO 22 ° 0,000 mm 4,7 °C 22,2 °C 11,3 km/h (2 Bft) 95,65 %
02.05.2026 13:19 22,2 °C 31 % 1024,2 hPa 0,0 l/m² 4,8 km/h (1 Bft) O-NO 67 ° 0,000 mm 4,3 °C 22,2 °C 9,7 km/h (2 Bft) 100,00 %
02.05.2026 13:18 22,2 °C 31 % 1024,2 hPa 0,0 l/m² 4,8 km/h (1 Bft) N 360 ° 0,000 mm 4,3 °C 22,2 °C 11,3 km/h (2 Bft) 100,00 %
02.05.2026 13:17 22,3 °C 31 % 1024,2 hPa 0,0 l/m² 9,7 km/h (2 Bft) NO 45 ° 0,000 mm 4,4 °C 21,3 °C 14,5 km/h (3 Bft) 100,00 %
02.05.2026 13:16 22,4 °C 31 % 1024,2 hPa 0,0 l/m² 8,0 km/h (2 Bft) N 360 ° 0,000 mm 4,4 °C 21,9 °C 11,3 km/h (2 Bft) 100,00 %
02.05.2026 13:15 22,6 °C 31 % 1024,2 hPa 0,0 l/m² 9,7 km/h (2 Bft) N 360 ° 0,000 mm 4,6 °C 21,6 °C 16,1 km/h (3 Bft) 100,00 %
02.05.2026 13:14 22,7 °C 32 % 1024,2 hPa 0,0 l/m² 8,0 km/h (2 Bft) N-NO 22 ° 0,000 mm 5,2 °C 22,2 °C 14,5 km/h (3 Bft) 100,00 %
02.05.2026 13:13 22,7 °C 32 % 1024,2 hPa 0,0 l/m² 6,4 km/h (2 Bft) N 360 ° 0,000 mm 5,2 °C 22,7 °C 12,9 km/h (3 Bft) 100,00 %
02.05.2026 13:12 22,7 °C 32 % 1024,3 hPa 0,0 l/m² 6,4 km/h (2 Bft) NO 45 ° 0,000 mm 5,2 °C 22,7 °C 9,7 km/h (2 Bft) 100,00 %
02.05.2026 13:11 22,7 °C 31 % 1024,3 hPa 0,0 l/m² 9,7 km/h (2 Bft) NO 45 ° 0,000 mm 4,7 °C 21,7 °C 14,5 km/h (3 Bft) 100,00 %
02.05.2026 13:10 22,7 °C 32 % 1024,2 hPa 0,0 l/m² 4,8 km/h (1 Bft) W-NW 292 ° 0,000 mm 5,2 °C 22,7 °C 9,7 km/h (2 Bft) 95,65 %
02.05.2026 13:09 22,6 °C 32 % 1024,3 hPa 0,0 l/m² 3,2 km/h (1 Bft) NO 45 ° 0,000 mm 5,1 °C 22,6 °C 9,7 km/h (2 Bft) 100,00 %
02.05.2026 13:08 22,4 °C 32 % 1024,2 hPa 0,0 l/m² 3,2 km/h (1 Bft) W-SW 247 ° 0,000 mm 4,9 °C 22,4 °C 6,4 km/h (2 Bft) 100,00 %
02.05.2026 13:07 22,3 °C 34 % 1024,3 hPa 0,0 l/m² 1,6 km/h (1 Bft) W-SW 247 ° 0,000 mm 5,7 °C 22,3 °C 3,2 km/h (1 Bft) 100,00 %
02.05.2026 13:06 22,2 °C 33 % 1024,3 hPa 0,0 l/m² 1,6 km/h (1 Bft) SW 225 ° 0,000 mm 5,2 °C 22,2 °C 3,2 km/h (1 Bft) 100,00 %
02.05.2026 13:05 22,1 °C 32 % 1024,3 hPa 0,0 l/m² 6,4 km/h (2 Bft) O 90 ° 0,000 mm 4,6 °C 22,1 °C 12,9 km/h (3 Bft) 100,00 %
02.05.2026 13:04 22,1 °C 33 % 1024,4 hPa 0,0 l/m² 6,4 km/h (2 Bft) O 90 ° 0,000 mm 5,1 °C 22,1 °C 12,9 km/h (3 Bft) 100,00 %
02.05.2026 13:03 22,0 °C 32 % 1024,4 hPa 0,0 l/m² 8,0 km/h (2 Bft) N 360 ° 0,000 mm 4,5 °C 21,5 °C 11,3 km/h (2 Bft) 95,65 %
02.05.2026 13:02 21,9 °C 32 % 1024,4 hPa 0,0 l/m² 9,7 km/h (2 Bft) N-NO 22 ° 0,000 mm 4,5 °C 20,8 °C 16,1 km/h (3 Bft) 95,65 %
02.05.2026 13:01 22,0 °C 31 % 1024,4 hPa 0,0 l/m² 8,0 km/h (2 Bft) NO 45 ° 0,000 mm 4,1 °C 21,5 °C 12,9 km/h (3 Bft) 100,00 %
02.05.2026 13:00 22,1 °C 31 % 1024,5 hPa 0,0 l/m² 6,4 km/h (2 Bft) N-NO 22 ° 0,000 mm 4,2 °C 22,1 °C 11,3 km/h (2 Bft) 100,00 %
02.05.2026 12:59 22,1 °C 31 % 1024,6 hPa 0,0 l/m² 12,9 km/h (3 Bft) N-NO 22 ° 0,000 mm 4,2 °C 20,2 °C 17,7 km/h (3 Bft) 100,00 %
02.05.2026 12:58 22,2 °C 33 % 1024,5 hPa 0,0 l/m² 9,7 km/h (2 Bft) N 360 ° 0,000 mm 5,2 °C 21,2 °C 14,5 km/h (3 Bft) 100,00 %
02.05.2026 12:57 22,1 °C 35 % 1024,5 hPa 0,0 l/m² 4,8 km/h (1 Bft) S 180 ° 0,000 mm 5,9 °C 22,1 °C 11,3 km/h (2 Bft) 100,00 %
02.05.2026 12:56 21,9 °C 33 % 1024,4 hPa 0,0 l/m² 4,8 km/h (1 Bft) N 360 ° 0,000 mm 4,9 °C 21,9 °C 9,7 km/h (2 Bft) 100,00 %
02.05.2026 12:55 21,8 °C 34 % 1024,5 hPa 0,0 l/m² 4,8 km/h (1 Bft) S 180 ° 0,000 mm 5,2 °C 21,8 °C 9,7 km/h (2 Bft) 100,00 %
02.05.2026 12:54 21,7 °C 34 % 1024,6 hPa 0,0 l/m² 4,8 km/h (1 Bft) NO 45 ° 0,000 mm 5,2 °C 21,7 °C 11,3 km/h (2 Bft) 100,00 %
02.05.2026 12:53 21,6 °C 33 % 1024,4 hPa 0,0 l/m² 4,8 km/h (1 Bft) N-NO 22 ° 0,000 mm 4,6 °C 21,6 °C 8,0 km/h (2 Bft) 100,00 %
02.05.2026 12:52 21,6 °C 32 % 1024,5 hPa 0,0 l/m² 8,0 km/h (2 Bft) O-NO 67 ° 0,000 mm 4,2 °C 21,0 °C 12,9 km/h (3 Bft) 100,00 %
02.05.2026 12:51 21,6 °C 32 % 1024,5 hPa 0,0 l/m² 8,0 km/h (2 Bft) W 270 ° 0,000 mm 4,2 °C 21,0 °C 12,9 km/h (3 Bft) 100,00 %
02.05.2026 12:50 21,5 °C 31 % 1024,6 hPa 0,0 l/m² 6,4 km/h (2 Bft) N 360 ° 0,000 mm 3,7 °C 21,5 °C 17,7 km/h (3 Bft) 100,00 %
02.05.2026 12:49 21,5 °C 31 % 1024,6 hPa 0,0 l/m² 6,4 km/h (2 Bft) O-NO 67 ° 0,000 mm 3,7 °C 21,5 °C 11,3 km/h (2 Bft) 100,00 %
02.05.2026 12:48 21,4 °C 31 % 1024,5 hPa 0,0 l/m² 6,4 km/h (2 Bft) N-NW 337 ° 0,000 mm 3,6 °C 21,4 °C 14,5 km/h (3 Bft) 100,00 %
02.05.2026 12:47 21,4 °C 30 % 1024,6 hPa 0,0 l/m² 8,0 km/h (2 Bft) N 360 ° 0,000 mm 3,1 °C 20,8 °C 11,3 km/h (2 Bft) 95,65 %
02.05.2026 12:46 21,6 °C 30 % 1024,6 hPa 0,0 l/m² 12,9 km/h (3 Bft) N-NO 22 ° 0,000 mm 3,3 °C 19,7 °C 17,7 km/h (3 Bft) 100,00 %
02.05.2026 12:45 21,7 °C 31 % 1024,6 hPa 0,0 l/m² 11,3 km/h (2 Bft) N-NO 22 ° 0,000 mm 3,8 °C 20,2 °C 19,3 km/h (3 Bft) 100,00 %
02.05.2026 12:44 21,7 °C 31 % 1024,6 hPa 0,0 l/m² 6,4 km/h (2 Bft) W 270 ° 0,000 mm 3,8 °C 21,7 °C 14,5 km/h (3 Bft) 100,00 %
02.05.2026 12:43 21,7 °C 30 % 1024,6 hPa 0,0 l/m² 9,7 km/h (2 Bft) N 360 ° 0,000 mm 3,4 °C 20,6 °C 17,7 km/h (3 Bft) 100,00 %
02.05.2026 12:42 21,8 °C 31 % 1024,6 hPa 0,0 l/m² 11,3 km/h (2 Bft) N-NO 22 ° 0,000 mm 3,9 °C 20,3 °C 19,3 km/h (3 Bft) 100,00 %
02.05.2026 12:41 21,8 °C 31 % 1024,7 hPa 0,0 l/m² 6,4 km/h (2 Bft) N 360 ° 0,000 mm 3,9 °C 21,8 °C 11,3 km/h (2 Bft) 100,00 %
02.05.2026 12:40 21,8 °C 30 % 1024,7 hPa 0,0 l/m² 4,8 km/h (1 Bft) O-NO 67 ° 0,000 mm 3,5 °C 21,8 °C 8,0 km/h (2 Bft) 100,00 %
02.05.2026 12:39 21,8 °C 31 % 1024,7 hPa 0,0 l/m² 8,0 km/h (2 Bft) N-NO 22 ° 0,000 mm 3,9 °C 21,2 °C 12,9 km/h (3 Bft) 95,65 %
02.05.2026 12:38 21,8 °C 31 % 1024,8 hPa 0,0 l/m² 9,7 km/h (2 Bft) NO 45 ° 0,000 mm 3,9 °C 20,7 °C 14,5 km/h (3 Bft) 100,00 %
02.05.2026 12:37 21,8 °C 31 % 1024,7 hPa 0,0 l/m² 8,0 km/h (2 Bft) O-NO 67 ° 0,000 mm 3,9 °C 21,2 °C 12,9 km/h (3 Bft) 100,00 %
02.05.2026 12:36 21,8 °C 31 % 1024,7 hPa 0,0 l/m² 4,8 km/h (1 Bft) SW 225 ° 0,000 mm 3,9 °C 21,8 °C 11,3 km/h (2 Bft) 100,00 %
02.05.2026 12:35 21,8 °C 31 % 1024,8 hPa 0,0 l/m² 6,4 km/h (2 Bft) S-SO 157 ° 0,000 mm 3,9 °C 21,8 °C 9,7 km/h (2 Bft) 100,00 %
02.05.2026 12:34 21,7 °C 32 % 1024,9 hPa 0,0 l/m² 6,4 km/h (2 Bft) N 360 ° 0,000 mm 4,3 °C 21,7 °C 11,3 km/h (2 Bft) 100,00 %
02.05.2026 12:33 21,7 °C 31 % 1024,8 hPa 0,0 l/m² 1,6 km/h (1 Bft) S-SW 202 ° 0,000 mm 3,8 °C 21,7 °C 4,8 km/h (1 Bft) 100,00 %
02.05.2026 12:32 21,6 °C 31 % 1024,8 hPa 0,0 l/m² 4,8 km/h (1 Bft) O-SO 112 ° 0,000 mm 3,7 °C 21,6 °C 8,0 km/h (2 Bft) 100,00 %
02.05.2026 12:31 21,5 °C 30 % 1024,9 hPa 0,0 l/m² 8,0 km/h (2 Bft) N-NO 22 ° 0,000 mm 3,2 °C 20,9 °C 12,9 km/h (3 Bft) 100,00 %
02.05.2026 12:30 21,4 °C 32 % 1024,8 hPa 0,0 l/m² 4,8 km/h (1 Bft) N 360 ° 0,000 mm 4,0 °C 21,4 °C 8,0 km/h (2 Bft) 100,00 %
02.05.2026 12:29 21,4 °C 32 % 1024,8 hPa 0,0 l/m² 4,8 km/h (1 Bft) N-NO 22 ° 0,000 mm 4,0 °C 21,4 °C 11,3 km/h (2 Bft) 100,00 %
02.05.2026 12:28 21,4 °C 33 % 1024,9 hPa 0,0 l/m² 4,8 km/h (1 Bft) O-NO 67 ° 0,000 mm 4,5 °C 21,4 °C 12,9 km/h (3 Bft) 100,00 %
02.05.2026 12:27 21,3 °C 33 % 1024,9 hPa 0,0 l/m² 6,4 km/h (2 Bft) NO 45 ° 0,000 mm 4,4 °C 21,3 °C 16,1 km/h (3 Bft) 100,00 %
02.05.2026 12:26 21,3 °C 33 % 1024,8 hPa 0,0 l/m² 6,4 km/h (2 Bft) NO 45 ° 0,000 mm 4,4 °C 21,3 °C 11,3 km/h (2 Bft) 100,00 %
02.05.2026 12:25 21,2 °C 35 % 1024,9 hPa 0,0 l/m² 6,4 km/h (2 Bft) N-NO 22 ° 0,000 mm 5,1 °C 21,2 °C 11,3 km/h (2 Bft) 95,65 %
02.05.2026 12:24 21,1 °C 34 % 1024,9 hPa 0,0 l/m² 4,8 km/h (1 Bft) N-NW 337 ° 0,000 mm 4,6 °C 21,1 °C 12,9 km/h (3 Bft) 100,00 %
02.05.2026 12:23 21,1 °C 31 % 1025,0 hPa 0,0 l/m² 8,0 km/h (2 Bft) N 360 ° 0,000 mm 3,3 °C 20,5 °C 17,7 km/h (3 Bft) 100,00 %
02.05.2026 12:22 21,1 °C 31 % 1025,0 hPa 0,0 l/m² 8,0 km/h (2 Bft) N 360 ° 0,000 mm 3,3 °C 20,5 °C 14,5 km/h (3 Bft) 100,00 %
02.05.2026 12:21 21,2 °C 31 % 1025,1 hPa 0,0 l/m² 8,0 km/h (2 Bft) N 360 ° 0,000 mm 3,4 °C 20,6 °C 14,5 km/h (3 Bft) 100,00 %
02.05.2026 12:20 21,2 °C 31 % 1025,1 hPa 0,0 l/m² 11,3 km/h (2 Bft) N-NO 22 ° 0,000 mm 3,4 °C 19,6 °C 19,3 km/h (3 Bft) 95,65 %
02.05.2026 12:19 21,2 °C 32 % 1025,1 hPa 0,0 l/m² 9,7 km/h (2 Bft) N 360 ° 0,000 mm 3,8 °C 20,1 °C 14,5 km/h (3 Bft) 100,00 %
02.05.2026 12:18 21,1 °C 34 % 1025,0 hPa 0,0 l/m² 6,4 km/h (2 Bft) SW 225 ° 0,000 mm 4,6 °C 21,1 °C 11,3 km/h (2 Bft) 95,65 %
02.05.2026 12:17 21,1 °C 34 % 1024,9 hPa 0,0 l/m² 6,4 km/h (2 Bft) S-SO 157 ° 0,000 mm 4,6 °C 21,1 °C 12,9 km/h (3 Bft) 100,00 %
02.05.2026 12:16 21,1 °C 34 % 1025,1 hPa 0,0 l/m² 6,4 km/h (2 Bft) N-NO 22 ° 0,000 mm 4,6 °C 21,1 °C 17,7 km/h (3 Bft) 100,00 %
02.05.2026 12:15 21,1 °C 34 % 1025,0 hPa 0,0 l/m² 9,7 km/h (2 Bft) NO 45 ° 0,000 mm 4,6 °C 19,9 °C 20,9 km/h (4 Bft) 100,00 %
02.05.2026 12:14 21,1 °C 33 % 1025,1 hPa 0,0 l/m² 8,0 km/h (2 Bft) N 360 ° 0,000 mm 4,2 °C 20,5 °C 14,5 km/h (3 Bft) 100,00 %
02.05.2026 12:13 21,1 °C 35 % 1025,1 hPa 0,0 l/m² 9,7 km/h (2 Bft) N 360 ° 0,000 mm 5,0 °C 19,9 °C 16,1 km/h (3 Bft) 100,00 %
02.05.2026 12:12 21,1 °C 35 % 1025,1 hPa 0,0 l/m² 9,7 km/h (2 Bft) NO 45 ° 0,000 mm 5,0 °C 19,9 °C 16,1 km/h (3 Bft) 100,00 %
02.05.2026 12:11 21,1 °C 34 % 1025,1 hPa 0,0 l/m² 6,4 km/h (2 Bft) W-NW 292 ° 0,000 mm 4,6 °C 21,1 °C 17,7 km/h (3 Bft) 100,00 %
02.05.2026 12:10 21,1 °C 34 % 1025,1 hPa 0,0 l/m² 6,4 km/h (2 Bft) N-NO 22 ° 0,000 mm 4,6 °C 21,1 °C 12,9 km/h (3 Bft) 100,00 %
02.05.2026 12:09 21,2 °C 33 % 1025,2 hPa 0,0 l/m² 9,7 km/h (2 Bft) NO 45 ° 0,000 mm 4,3 °C 20,1 °C 17,7 km/h (3 Bft) 100,00 %
02.05.2026 12:08 21,4 °C 32 % 1025,2 hPa 0,0 l/m² 12,9 km/h (3 Bft) NO 45 ° 0,000 mm 4,0 °C 19,4 °C 17,7 km/h (3 Bft) 100,00 %
02.05.2026 12:07 21,5 °C 32 % 1025,1 hPa 0,0 l/m² 8,0 km/h (2 Bft) NO 45 ° 0,000 mm 4,1 °C 20,9 °C 17,7 km/h (3 Bft) 100,00 %
02.05.2026 12:06 21,4 °C 34 % 1025,3 hPa 0,0 l/m² 3,2 km/h (1 Bft) S-SW 202 ° 0,000 mm 4,9 °C 21,4 °C 8,0 km/h (2 Bft) 100,00 %
02.05.2026 12:05 21,3 °C 35 % 1025,3 hPa 0,0 l/m² 4,8 km/h (1 Bft) SO 135 ° 0,000 mm 5,2 °C 21,3 °C 9,7 km/h (2 Bft) 100,00 %
02.05.2026 12:04 21,2 °C 35 % 1025,2 hPa 0,0 l/m² 3,2 km/h (1 Bft) O-SO 112 ° 0,000 mm 5,1 °C 21,2 °C 6,4 km/h (2 Bft) 100,00 %
02.05.2026 12:03 21,0 °C 36 % 1025,2 hPa 0,0 l/m² 3,2 km/h (1 Bft) S-SW 202 ° 0,000 mm 5,4 °C 21,0 °C 6,4 km/h (2 Bft) 100,00 %
02.05.2026 12:02 20,9 °C 37 % 1025,2 hPa 0,0 l/m² 4,8 km/h (1 Bft) N 360 ° 0,000 mm 5,7 °C 20,9 °C 9,7 km/h (2 Bft) 100,00 %
02.05.2026 12:01 20,8 °C 37 % 1025,3 hPa 0,0 l/m² 4,8 km/h (1 Bft) S 180 ° 0,000 mm 5,6 °C 20,8 °C 11,3 km/h (2 Bft) 100,00 %
02.05.2026 12:00 20,7 °C 38 % 1025,2 hPa 0,0 l/m² 6,4 km/h (2 Bft) S 180 ° 0,000 mm 5,9 °C 20,7 °C 12,9 km/h (3 Bft) 100,00 %
02.05.2026 11:59 20,6 °C 38 % 1025,3 hPa 0,0 l/m² 4,8 km/h (1 Bft) W-NW 292 ° 0,000 mm 5,8 °C 20,6 °C 12,9 km/h (3 Bft) 100,00 %
02.05.2026 11:58 20,5 °C 38 % 1025,2 hPa 0,0 l/m² 8,0 km/h (2 Bft) O 90 ° 0,000 mm 5,7 °C 19,9 °C 14,5 km/h (3 Bft) 100,00 %
02.05.2026 11:57 20,4 °C 38 % 1025,2 hPa 0,0 l/m² 3,2 km/h (1 Bft) N-NW 337 ° 0,000 mm 5,6 °C 20,4 °C 6,4 km/h (2 Bft) 100,00 %
02.05.2026 11:56 20,3 °C 37 % 1025,2 hPa 0,0 l/m² 6,4 km/h (2 Bft) O-NO 67 ° 0,000 mm 5,1 °C 20,3 °C 9,7 km/h (2 Bft) 100,00 %
02.05.2026 11:55 20,3 °C 39 % 1025,1 hPa 0,0 l/m² 8,0 km/h (2 Bft) O 90 ° 0,000 mm 5,9 °C 19,7 °C 16,1 km/h (3 Bft) 100,00 %
02.05.2026 11:54 20,3 °C 38 % 1025,3 hPa 0,0 l/m² 8,0 km/h (2 Bft) O-NO 67 ° 0,000 mm 5,5 °C 19,7 °C 16,1 km/h (3 Bft) 100,00 %
02.05.2026 11:53 20,3 °C 38 % 1025,2 hPa 0,0 l/m² 9,7 km/h (2 Bft) O-NO 67 ° 0,000 mm 5,5 °C 19,1 °C 16,1 km/h (3 Bft) 100,00 %
02.05.2026 11:52 20,4 °C 39 % 1025,3 hPa 0,0 l/m² 9,7 km/h (2 Bft) NO 45 ° 0,000 mm 6,0 °C 19,2 °C 16,1 km/h (3 Bft) 100,00 %
02.05.2026 11:51 20,3 °C 41 % 1025,3 hPa 0,0 l/m² 4,8 km/h (1 Bft) NW 315 ° 0,000 mm 6,6 °C 20,3 °C 8,0 km/h (2 Bft) 100,00 %
02.05.2026 11:50 20,3 °C 40 % 1025,3 hPa 0,0 l/m² 9,7 km/h (2 Bft) N-NO 22 ° 0,000 mm 6,3 °C 19,1 °C 14,5 km/h (3 Bft) 100,00 %
02.05.2026 11:49 20,2 °C 41 % 1025,3 hPa 0,0 l/m² 8,0 km/h (2 Bft) NO 45 ° 0,000 mm 6,5 °C 19,6 °C 11,3 km/h (2 Bft) 100,00 %
02.05.2026 11:48 20,1 °C 41 % 1025,4 hPa 0,0 l/m² 8,0 km/h (2 Bft) O-SO 112 ° 0,000 mm 6,4 °C 19,5 °C 12,9 km/h (3 Bft) 100,00 %
02.05.2026 11:47 20,1 °C 41 % 1025,3 hPa 0,0 l/m² 11,3 km/h (2 Bft) NO 45 ° 0,000 mm 6,4 °C 18,3 °C 22,5 km/h (4 Bft) 100,00 %
02.05.2026 11:46 20,1 °C 40 % 1025,3 hPa 0,0 l/m² 12,9 km/h (3 Bft) N-NO 22 ° 0,000 mm 6,1 °C 17,9 °C 22,5 km/h (4 Bft) 100,00 %
02.05.2026 11:45 20,1 °C 41 % 1025,3 hPa 0,0 l/m² 6,4 km/h (2 Bft) O-NO 67 ° 0,000 mm 6,4 °C 20,1 °C 16,1 km/h (3 Bft) 100,00 %
02.05.2026 11:44 20,1 °C 41 % 1025,3 hPa 0,0 l/m² 6,4 km/h (2 Bft) O-NO 67 ° 0,000 mm 6,4 °C 20,1 °C 14,5 km/h (3 Bft) 100,00 %
02.05.2026 11:43 20,0 °C 41 % 1025,4 hPa 0,0 l/m² 9,7 km/h (2 Bft) N-NO 22 ° 0,000 mm 6,3 °C 18,7 °C 17,7 km/h (3 Bft) 100,00 %
02.05.2026 11:42 19,9 °C 43 % 1025,4 hPa 0,0 l/m² 4,8 km/h (1 Bft) NO 45 ° 0,000 mm 6,9 °C 19,9 °C 12,9 km/h (3 Bft) 95,65 %
02.05.2026 11:41 19,8 °C 43 % 1025,5 hPa 0,0 l/m² 4,8 km/h (1 Bft) N 360 ° 0,000 mm 6,9 °C 19,8 °C 6,4 km/h (2 Bft) 100,00 %
02.05.2026 11:40 19,7 °C 43 % 1025,5 hPa 0,0 l/m² 6,4 km/h (2 Bft) N-NO 22 ° 0,000 mm 6,8 °C 19,7 °C 11,3 km/h (2 Bft) 100,00 %
02.05.2026 11:39 19,6 °C 42 % 1025,5 hPa 0,0 l/m² 8,0 km/h (2 Bft) O-NO 67 ° 0,000 mm 6,3 °C 18,9 °C 11,3 km/h (2 Bft) 100,00 %
02.05.2026 11:38 19,6 °C 42 % 1025,5 hPa 0,0 l/m² 11,3 km/h (2 Bft) N-NO 22 ° 0,000 mm 6,3 °C 17,8 °C 17,7 km/h (3 Bft) 100,00 %
02.05.2026 11:37 19,7 °C 41 % 1025,5 hPa 0,0 l/m² 11,3 km/h (2 Bft) N-NO 22 ° 0,000 mm 6,1 °C 17,9 °C 20,9 km/h (4 Bft) 95,65 %
02.05.2026 11:36 19,6 °C 42 % 1025,5 hPa 0,0 l/m² 6,4 km/h (2 Bft) N-NO 22 ° 0,000 mm 6,3 °C 19,6 °C 20,9 km/h (4 Bft) 100,00 %
02.05.2026 11:35 19,6 °C 42 % 1025,5 hPa 0,0 l/m² 14,5 km/h (3 Bft) N-NO 22 ° 0,000 mm 6,3 °C 16,9 °C 20,9 km/h (4 Bft) 100,00 %
02.05.2026 11:34 19,7 °C 44 % 1025,5 hPa 0,0 l/m² 9,7 km/h (2 Bft) N-NW 337 ° 0,000 mm 7,1 °C 18,4 °C 19,3 km/h (3 Bft) 100,00 %
02.05.2026 11:33 19,6 °C 44 % 1025,6 hPa 0,0 l/m² 8,0 km/h (2 Bft) N 360 ° 0,000 mm 7,0 °C 18,9 °C 16,1 km/h (3 Bft) 100,00 %
02.05.2026 11:32 19,6 °C 44 % 1025,6 hPa 0,0 l/m² 9,7 km/h (2 Bft) NO 45 ° 0,000 mm 7,0 °C 18,3 °C 16,1 km/h (3 Bft) 100,00 %
02.05.2026 11:31 19,6 °C 45 % 1025,7 hPa 0,0 l/m² 8,0 km/h (2 Bft) N-NO 22 ° 0,000 mm 7,3 °C 18,9 °C 14,5 km/h (3 Bft) 100,00 %
02.05.2026 11:30 19,6 °C 45 % 1025,7 hPa 0,0 l/m² 8,0 km/h (2 Bft) NO 45 ° 0,000 mm 7,3 °C 18,9 °C 11,3 km/h (2 Bft) 100,00 %
02.05.2026 11:29 19,6 °C 44 % 1025,8 hPa 0,0 l/m² 8,0 km/h (2 Bft) NO 45 ° 0,000 mm 7,0 °C 18,9 °C 12,9 km/h (3 Bft) 100,00 %
02.05.2026 11:28 19,6 °C 44 % 1025,7 hPa 0,0 l/m² 6,4 km/h (2 Bft) NO 45 ° 0,000 mm 7,0 °C 19,6 °C 14,5 km/h (3 Bft) 100,00 %
02.05.2026 11:27 19,6 °C 44 % 1025,7 hPa 0,0 l/m² 11,3 km/h (2 Bft) NO 45 ° 0,000 mm 7,0 °C 17,8 °C 16,1 km/h (3 Bft) 100,00 %
02.05.2026 11:26 19,6 °C 45 % 1025,7 hPa 0,0 l/m² 8,0 km/h (2 Bft) NO 45 ° 0,000 mm 7,3 °C 18,9 °C 19,3 km/h (3 Bft) 100,00 %
02.05.2026 11:25 19,6 °C 45 % 1025,8 hPa 0,0 l/m² 9,7 km/h (2 Bft) N-NO 22 ° 0,000 mm 7,3 °C 18,3 °C 19,3 km/h (3 Bft) 100,00 %
02.05.2026 11:24 19,6 °C 44 % 1025,7 hPa 0,0 l/m² 6,4 km/h (2 Bft) NO 45 ° 0,000 mm 7,0 °C 19,6 °C 12,9 km/h (3 Bft) 100,00 %
02.05.2026 11:23 19,7 °C 44 % 1025,7 hPa 0,0 l/m² 8,0 km/h (2 Bft) N-NO 22 ° 0,000 mm 7,1 °C 19,0 °C 12,9 km/h (3 Bft) 100,00 %
02.05.2026 11:22 19,7 °C 44 % 1025,7 hPa 0,0 l/m² 8,0 km/h (2 Bft) N-NO 22 ° 0,000 mm 7,1 °C 19,0 °C 17,7 km/h (3 Bft) 100,00 %
02.05.2026 11:21 19,7 °C 44 % 1025,8 hPa 0,0 l/m² 8,0 km/h (2 Bft) NO 45 ° 0,000 mm 7,1 °C 19,0 °C 14,5 km/h (3 Bft) 100,00 %
02.05.2026 11:20 19,7 °C 44 % 1025,8 hPa 0,0 l/m² 8,0 km/h (2 Bft) N-NO 22 ° 0,000 mm 7,1 °C 19,0 °C 16,1 km/h (3 Bft) 100,00 %
02.05.2026 11:19 19,6 °C 46 % 1025,7 hPa 0,0 l/m² 3,2 km/h (1 Bft) NW 315 ° 0,000 mm 7,7 °C 19,6 °C 8,0 km/h (2 Bft) 100,00 %
02.05.2026 11:18 19,4 °C 44 % 1025,8 hPa 0,0 l/m² 1,6 km/h (1 Bft) N-NW 337 ° 0,000 mm 6,8 °C 19,4 °C 4,8 km/h (1 Bft) 100,00 %
02.05.2026 11:17 19,3 °C 43 % 1025,8 hPa 0,0 l/m² 4,8 km/h (1 Bft) S-SO 157 ° 0,000 mm 6,4 °C 19,3 °C 8,0 km/h (2 Bft) 100,00 %
02.05.2026 11:16 19,3 °C 43 % 1025,8 hPa 0,0 l/m² 6,4 km/h (2 Bft) O 90 ° 0,000 mm 6,4 °C 19,3 °C 9,7 km/h (2 Bft) 100,00 %
02.05.2026 11:15 19,3 °C 44 % 1025,9 hPa 0,0 l/m² 6,4 km/h (2 Bft) NO 45 ° 0,000 mm 6,7 °C 19,3 °C 12,9 km/h (3 Bft) 100,00 %
02.05.2026 11:14 19,2 °C 45 % 1025,8 hPa 0,0 l/m² 4,8 km/h (1 Bft) N-NO 22 ° 0,000 mm 7,0 °C 19,2 °C 11,3 km/h (2 Bft) 100,00 %
02.05.2026 11:13 19,2 °C 44 % 1025,9 hPa 0,0 l/m² 9,7 km/h (2 Bft) N-NO 22 ° 0,000 mm 6,7 °C 17,9 °C 14,5 km/h (3 Bft) 100,00 %
02.05.2026 11:12 19,2 °C 46 % 1025,9 hPa 0,0 l/m² 6,4 km/h (2 Bft) W 270 ° 0,000 mm 7,3 °C 19,2 °C 14,5 km/h (3 Bft) 100,00 %
02.05.2026 11:11 19,2 °C 46 % 1026,0 hPa 0,0 l/m² 8,0 km/h (2 Bft) NO 45 ° 0,000 mm 7,3 °C 18,5 °C 14,5 km/h (3 Bft) 100,00 %
02.05.2026 11:10 19,1 °C 46 % 1026,0 hPa 0,0 l/m² 4,8 km/h (1 Bft) O 90 ° 0,000 mm 7,2 °C 19,1 °C 9,7 km/h (2 Bft) 100,00 %
02.05.2026 11:09 18,9 °C 44 % 1026,0 hPa 0,0 l/m² 6,4 km/h (2 Bft) O 90 ° 0,000 mm 6,4 °C 18,9 °C 12,9 km/h (3 Bft) 100,00 %
02.05.2026 11:08 18,9 °C 44 % 1025,9 hPa 0,0 l/m² 6,4 km/h (2 Bft) N-NO 22 ° 0,000 mm 6,4 °C 18,9 °C 11,3 km/h (2 Bft) 100,00 %
02.05.2026 11:07 18,9 °C 45 % 1026,0 hPa 0,0 l/m² 11,3 km/h (2 Bft) N-NO 22 ° 0,000 mm 6,7 °C 17,0 °C 14,5 km/h (3 Bft) 100,00 %
02.05.2026 11:06 18,9 °C 45 % 1026,0 hPa 0,0 l/m² 8,0 km/h (2 Bft) O-NO 67 ° 0,000 mm 6,7 °C 18,2 °C 17,7 km/h (3 Bft) 100,00 %
02.05.2026 11:05 18,8 °C 45 % 1026,0 hPa 0,0 l/m² 9,7 km/h (2 Bft) N-NO 22 ° 0,000 mm 6,6 °C 17,4 °C 17,7 km/h (3 Bft) 100,00 %
02.05.2026 11:04 18,8 °C 45 % 1026,1 hPa 0,0 l/m² 6,4 km/h (2 Bft) N 360 ° 0,000 mm 6,6 °C 18,8 °C 11,3 km/h (2 Bft) 100,00 %
02.05.2026 11:03 18,8 °C 46 % 1026,1 hPa 0,0 l/m² 6,4 km/h (2 Bft) N 360 ° 0,000 mm 6,9 °C 18,8 °C 14,5 km/h (3 Bft) 100,00 %
02.05.2026 11:02 18,7 °C 46 % 1026,0 hPa 0,0 l/m² 4,8 km/h (1 Bft) N 360 ° 0,000 mm 6,8 °C 18,7 °C 9,7 km/h (2 Bft) 100,00 %
02.05.2026 11:01 18,6 °C 46 % 1026,0 hPa 0,0 l/m² 8,0 km/h (2 Bft) NO 45 ° 0,000 mm 6,8 °C 17,9 °C 14,5 km/h (3 Bft) 100,00 %
02.05.2026 11:00 18,6 °C 47 % 1026,1 hPa 0,0 l/m² 8,0 km/h (2 Bft) N-NO 22 ° 0,000 mm 7,1 °C 17,9 °C 12,9 km/h (3 Bft) 100,00 %
02.05.2026 10:59 18,5 °C 47 % 1026,1 hPa 0,0 l/m² 8,0 km/h (2 Bft) NO 45 ° 0,000 mm 7,0 °C 17,8 °C 12,9 km/h (3 Bft) 100,00 %
02.05.2026 10:58 18,5 °C 47 % 1026,1 hPa 0,0 l/m² 6,4 km/h (2 Bft) NO 45 ° 0,000 mm 7,0 °C 18,5 °C 14,5 km/h (3 Bft) 100,00 %
02.05.2026 10:57 18,5 °C 47 % 1026,1 hPa 0,0 l/m² 6,4 km/h (2 Bft) O-NO 67 ° 0,000 mm 7,0 °C 18,5 °C 14,5 km/h (3 Bft) 100,00 %
02.05.2026 10:56 18,5 °C 47 % 1026,2 hPa 0,0 l/m² 8,0 km/h (2 Bft) O-NO 67 ° 0,000 mm 7,0 °C 17,8 °C 12,9 km/h (3 Bft) 100,00 %
02.05.2026 10:55 18,5 °C 49 % 1026,1 hPa 0,0 l/m² 9,7 km/h (2 Bft) NO 45 ° 0,000 mm 7,6 °C 17,1 °C 16,1 km/h (3 Bft) 100,00 %
02.05.2026 10:54 18,5 °C 49 % 1026,2 hPa 0,0 l/m² 9,7 km/h (2 Bft) N-NO 22 ° 0,000 mm 7,6 °C 17,1 °C 12,9 km/h (3 Bft) 100,00 %
02.05.2026 10:53 18,5 °C 50 % 1026,1 hPa 0,0 l/m² 3,2 km/h (1 Bft) W 270 ° 0,000 mm 7,9 °C 18,5 °C 9,7 km/h (2 Bft) 100,00 %
02.05.2026 10:52 18,5 °C 49 % 1026,1 hPa 0,0 l/m² 6,4 km/h (2 Bft) N 360 ° 0,000 mm 7,6 °C 18,5 °C 9,7 km/h (2 Bft) 100,00 %
02.05.2026 10:51 18,4 °C 51 % 1026,2 hPa 0,0 l/m² 6,4 km/h (2 Bft) O-SO 112 ° 0,000 mm 8,1 °C 18,4 °C 9,7 km/h (2 Bft) 95,65 %
02.05.2026 10:50 18,4 °C 49 % 1026,2 hPa 0,0 l/m² 4,8 km/h (1 Bft) NO 45 ° 0,000 mm 7,5 °C 18,4 °C 8,0 km/h (2 Bft) 100,00 %
02.05.2026 10:49 18,4 °C 49 % 1026,1 hPa 0,0 l/m² 6,4 km/h (2 Bft) NO 45 ° 0,000 mm 7,5 °C 18,4 °C 12,9 km/h (3 Bft) 100,00 %
02.05.2026 10:48 18,4 °C 50 % 1026,2 hPa 0,0 l/m² 4,8 km/h (1 Bft) N-NO 22 ° 0,000 mm 7,8 °C 18,4 °C 8,0 km/h (2 Bft) 100,00 %
02.05.2026 10:47 18,3 °C 49 % 1026,1 hPa 0,0 l/m² 6,4 km/h (2 Bft) N 360 ° 0,000 mm 7,4 °C 18,3 °C 12,9 km/h (3 Bft) 100,00 %
02.05.2026 10:46 18,2 °C 50 % 1026,2 hPa 0,0 l/m² 3,2 km/h (1 Bft) O-SO 112 ° 0,000 mm 7,6 °C 18,2 °C 8,0 km/h (2 Bft) 100,00 %
02.05.2026 10:45 18,2 °C 50 % 1026,2 hPa 0,0 l/m² 6,4 km/h (2 Bft) N 360 ° 0,000 mm 7,6 °C 18,2 °C 12,9 km/h (3 Bft) 100,00 %
02.05.2026 10:44 18,2 °C 49 % 1026,2 hPa 0,0 l/m² 4,8 km/h (1 Bft) W-NW 292 ° 0,000 mm 7,3 °C 18,2 °C 8,0 km/h (2 Bft) 95,65 %
02.05.2026 10:43 18,1 °C 50 % 1026,2 hPa 0,0 l/m² 8,0 km/h (2 Bft) N-NO 22 ° 0,000 mm 7,5 °C 17,4 °C 14,5 km/h (3 Bft) 100,00 %
02.05.2026 10:42 18,1 °C 50 % 1026,2 hPa 0,0 l/m² 4,8 km/h (1 Bft) NO 45 ° 0,000 mm 7,5 °C 18,1 °C 9,7 km/h (2 Bft) 100,00 %
02.05.2026 10:41 17,9 °C 50 % 1026,1 hPa 0,0 l/m² 3,2 km/h (1 Bft) W-NW 292 ° 0,000 mm 7,3 °C 17,9 °C 6,4 km/h (2 Bft) 100,00 %
02.05.2026 10:40 17,8 °C 50 % 1026,2 hPa 0,0 l/m² 1,6 km/h (1 Bft) NW 315 ° 0,000 mm 7,2 °C 17,8 °C 3,2 km/h (1 Bft) 100,00 %
02.05.2026 10:39 17,7 °C 50 % 1026,2 hPa 0,0 l/m² 6,4 km/h (2 Bft) NO 45 ° 0,000 mm 7,1 °C 17,7 °C 9,7 km/h (2 Bft) 100,00 %
02.05.2026 10:38 17,6 °C 49 % 1026,2 hPa 0,0 l/m² 6,4 km/h (2 Bft) NO 45 ° 0,000 mm 6,8 °C 17,6 °C 9,7 km/h (2 Bft) 100,00 %
02.05.2026 10:37 17,6 °C 50 % 1026,3 hPa 0,0 l/m² 8,0 km/h (2 Bft) O-NO 67 ° 0,000 mm 7,1 °C 16,8 °C 14,5 km/h (3 Bft) 100,00 %
02.05.2026 10:36 17,5 °C 49 % 1026,3 hPa 0,0 l/m² 8,0 km/h (2 Bft) N-NO 22 ° 0,000 mm 6,7 °C 16,7 °C 12,9 km/h (3 Bft) 100,00 %
02.05.2026 10:35 17,5 °C 49 % 1026,3 hPa 0,0 l/m² 9,7 km/h (2 Bft) N-NO 22 ° 0,000 mm 6,7 °C 16,0 °C 16,1 km/h (3 Bft) 100,00 %
02.05.2026 10:34 17,5 °C 50 % 1026,2 hPa 0,0 l/m² 6,4 km/h (2 Bft) N 360 ° 0,000 mm 7,0 °C 17,5 °C 9,7 km/h (2 Bft) 100,00 %
02.05.2026 10:33 17,4 °C 51 % 1026,2 hPa 0,0 l/m² 6,4 km/h (2 Bft) O-NO 67 ° 0,000 mm 7,2 °C 17,4 °C 9,7 km/h (2 Bft) 100,00 %
02.05.2026 10:32 17,4 °C 52 % 1026,2 hPa 0,0 l/m² 4,8 km/h (1 Bft) NW 315 ° 0,000 mm 7,4 °C 17,4 °C 8,0 km/h (2 Bft) 100,00 %
02.05.2026 10:31 17,4 °C 51 % 1026,2 hPa 0,0 l/m² 6,4 km/h (2 Bft) N-NO 22 ° 0,000 mm 7,2 °C 17,4 °C 11,3 km/h (2 Bft) 100,00 %
02.05.2026 10:30 17,4 °C 51 % 1026,2 hPa 0,0 l/m² 9,7 km/h (2 Bft) N 360 ° 0,000 mm 7,2 °C 15,9 °C 16,1 km/h (3 Bft) 100,00 %
02.05.2026 10:29 17,4 °C 51 % 1026,2 hPa 0,0 l/m² 8,0 km/h (2 Bft) N-NO 22 ° 0,000 mm 7,2 °C 16,6 °C 11,3 km/h (2 Bft) 100,00 %
02.05.2026 10:28 17,4 °C 51 % 1026,2 hPa 0,0 l/m² 6,4 km/h (2 Bft) N 360 ° 0,000 mm 7,2 °C 17,4 °C 16,1 km/h (3 Bft) 100,00 %
02.05.2026 10:27 17,5 °C 51 % 1026,2 hPa 0,0 l/m² 6,4 km/h (2 Bft) N 360 ° 0,000 mm 7,3 °C 17,5 °C 9,7 km/h (2 Bft) 100,00 %
02.05.2026 10:26 17,5 °C 51 % 1026,2 hPa 0,0 l/m² 4,8 km/h (1 Bft) NO 45 ° 0,000 mm 7,3 °C 17,5 °C 8,0 km/h (2 Bft) 100,00 %
02.05.2026 10:25 17,5 °C 51 % 1026,2 hPa 0,0 l/m² 6,4 km/h (2 Bft) W 270 ° 0,000 mm 7,3 °C 17,5 °C 12,9 km/h (3 Bft) 100,00 %
02.05.2026 10:24 17,4 °C 53 % 1026,3 hPa 0,0 l/m² 4,8 km/h (1 Bft) W-SW 247 ° 0,000 mm 7,7 °C 17,4 °C 11,3 km/h (2 Bft) 100,00 %
02.05.2026 10:23 17,3 °C 52 % 1026,2 hPa 0,0 l/m² 3,2 km/h (1 Bft) N 360 ° 0,000 mm 7,3 °C 17,3 °C 6,4 km/h (2 Bft) 100,00 %
02.05.2026 10:22 17,3 °C 53 % 1026,3 hPa 0,0 l/m² 3,2 km/h (1 Bft) N-NO 22 ° 0,000 mm 7,6 °C 17,3 °C 6,4 km/h (2 Bft) 100,00 %
02.05.2026 10:21 17,2 °C 52 % 1026,3 hPa 0,0 l/m² 1,6 km/h (1 Bft) W-NW 292 ° 0,000 mm 7,3 °C 17,2 °C 4,8 km/h (1 Bft) 100,00 %
02.05.2026 10:20 17,1 °C 52 % 1026,3 hPa 0,0 l/m² 3,2 km/h (1 Bft) N-NW 337 ° 0,000 mm 7,2 °C 17,1 °C 9,7 km/h (2 Bft) 100,00 %
02.05.2026 10:19 17,1 °C 53 % 1026,3 hPa 0,0 l/m² 4,8 km/h (1 Bft) N 360 ° 0,000 mm 7,4 °C 17,1 °C 9,7 km/h (2 Bft) 100,00 %
02.05.2026 10:18 16,9 °C 53 % 1026,4 hPa 0,0 l/m² 3,2 km/h (1 Bft) N 360 ° 0,000 mm 7,3 °C 16,9 °C 8,0 km/h (2 Bft) 100,00 %
02.05.2026 10:17 16,9 °C 52 % 1026,4 hPa 0,0 l/m² 6,4 km/h (2 Bft) NO 45 ° 0,000 mm 7,0 °C 16,9 °C 9,7 km/h (2 Bft) 100,00 %
02.05.2026 10:16 16,9 °C 53 % 1026,4 hPa 0,0 l/m² 4,8 km/h (1 Bft) N 360 ° 0,000 mm 7,3 °C 16,9 °C 8,0 km/h (2 Bft) 100,00 %
02.05.2026 10:15 16,8 °C 54 % 1026,3 hPa 0,0 l/m² 3,2 km/h (1 Bft) W 270 ° 0,000 mm 7,4 °C 16,8 °C 14,5 km/h (3 Bft) 100,00 %
02.05.2026 10:14 16,8 °C 54 % 1026,5 hPa 0,0 l/m² 8,0 km/h (2 Bft) N 360 ° 0,000 mm 7,4 °C 16,0 °C 14,5 km/h (3 Bft) 95,65 %
02.05.2026 10:13 16,8 °C 55 % 1026,4 hPa 0,0 l/m² 1,6 km/h (1 Bft) W-NW 292 ° 0,000 mm 7,7 °C 16,8 °C 4,8 km/h (1 Bft) 100,00 %
02.05.2026 10:12 16,7 °C 55 % 1026,4 hPa 0,0 l/m² 3,2 km/h (1 Bft) W 270 ° 0,000 mm 7,6 °C 16,7 °C 4,8 km/h (1 Bft) 100,00 %
02.05.2026 10:11 16,6 °C 55 % 1026,4 hPa 0,0 l/m² 1,6 km/h (1 Bft) W 270 ° 0,000 mm 7,5 °C 16,6 °C 6,4 km/h (2 Bft) 100,00 %
02.05.2026 10:10 16,5 °C 55 % 1026,4 hPa 0,0 l/m² 3,2 km/h (1 Bft) W-SW 247 ° 0,000 mm 7,4 °C 16,5 °C 4,8 km/h (1 Bft) 100,00 %
02.05.2026 10:09 16,4 °C 56 % 1026,5 hPa 0,0 l/m² 1,6 km/h (1 Bft) SW 225 ° 0,000 mm 7,6 °C 16,4 °C 6,4 km/h (2 Bft) 100,00 %
02.05.2026 10:08 16,2 °C 56 % 1026,5 hPa 0,0 l/m² 3,2 km/h (1 Bft) O-NO 67 ° 0,000 mm 7,4 °C 16,2 °C 4,8 km/h (1 Bft) 95,65 %
02.05.2026 10:07 16,2 °C 56 % 1026,5 hPa 0,0 l/m² 3,2 km/h (1 Bft) N 360 ° 0,000 mm 7,4 °C 16,2 °C 8,0 km/h (2 Bft) 100,00 %
02.05.2026 10:06 16,0 °C 56 % 1026,5 hPa 0,0 l/m² 1,6 km/h (1 Bft) W-NW 292 ° 0,000 mm 7,2 °C 16,0 °C 3,2 km/h (1 Bft) 100,00 %
02.05.2026 10:05 15,9 °C 56 % 1026,4 hPa 0,0 l/m² 1,6 km/h (1 Bft) N-NO 22 ° 0,000 mm 7,1 °C 15,9 °C 8,0 km/h (2 Bft) 100,00 %
02.05.2026 10:04 15,9 °C 56 % 1026,5 hPa 0,0 l/m² 6,4 km/h (2 Bft) N-NO 22 ° 0,000 mm 7,1 °C 15,9 °C 8,0 km/h (2 Bft) 100,00 %
02.05.2026 10:03 15,9 °C 56 % 1026,5 hPa 0,0 l/m² 4,8 km/h (1 Bft) N-NO 22 ° 0,000 mm 7,1 °C 15,9 °C 9,7 km/h (2 Bft) 100,00 %
02.05.2026 10:02 15,9 °C 56 % 1026,5 hPa 0,0 l/m² 4,8 km/h (1 Bft) NW 315 ° 0,000 mm 7,1 °C 15,9 °C 6,4 km/h (2 Bft) 95,65 %
02.05.2026 10:01 15,8 °C 57 % 1026,5 hPa 0,0 l/m² 4,8 km/h (1 Bft) N-NW 337 ° 0,000 mm 7,3 °C 15,8 °C 6,4 km/h (2 Bft) 100,00 %
02.05.2026 10:00 15,7 °C 57 % 1026,6 hPa 0,0 l/m² 1,6 km/h (1 Bft) W-NW 292 ° 0,000 mm 7,2 °C 15,7 °C 3,2 km/h (1 Bft) 100,00 %
02.05.2026 09:59 15,6 °C 56 % 1026,6 hPa 0,0 l/m² 1,6 km/h (1 Bft) NW 315 ° 0,000 mm 6,9 °C 15,6 °C 3,2 km/h (1 Bft) 100,00 %
02.05.2026 09:58 15,6 °C 56 % 1026,7 hPa 0,0 l/m² 6,4 km/h (2 Bft) N 360 ° 0,000 mm 6,9 °C 15,6 °C 9,7 km/h (2 Bft) 100,00 %
02.05.2026 09:57 15,6 °C 57 % 1026,6 hPa 0,0 l/m² 4,8 km/h (1 Bft) NW 315 ° 0,000 mm 7,1 °C 15,6 °C 8,0 km/h (2 Bft) 100,00 %
02.05.2026 09:56 15,4 °C 56 % 1026,6 hPa 0,0 l/m² 3,2 km/h (1 Bft) W-SW 247 ° 0,000 mm 6,7 °C 15,4 °C 6,4 km/h (2 Bft) 100,00 %
02.05.2026 09:55 15,4 °C 56 % 1026,6 hPa 0,0 l/m² 4,8 km/h (1 Bft) N 360 ° 0,000 mm 6,7 °C 15,4 °C 8,0 km/h (2 Bft) 100,00 %
02.05.2026 09:54 15,4 °C 56 % 1026,6 hPa 0,0 l/m² 6,4 km/h (2 Bft) NO 45 ° 0,000 mm 6,7 °C 15,4 °C 9,7 km/h (2 Bft) 100,00 %
02.05.2026 09:53 15,4 °C 56 % 1026,6 hPa 0,0 l/m² 4,8 km/h (1 Bft) N 360 ° 0,000 mm 6,7 °C 15,4 °C 6,4 km/h (2 Bft) 100,00 %
02.05.2026 09:52 15,5 °C 56 % 1026,7 hPa 0,0 l/m² 4,8 km/h (1 Bft) N 360 ° 0,000 mm 6,8 °C 15,5 °C 9,7 km/h (2 Bft) 100,00 %
02.05.2026 09:51 15,5 °C 56 % 1026,6 hPa 0,0 l/m² 3,2 km/h (1 Bft) N-NO 22 ° 0,000 mm 6,8 °C 15,5 °C 9,7 km/h (2 Bft) 100,00 %
02.05.2026 09:50 15,6 °C 56 % 1026,7 hPa 0,0 l/m² 3,2 km/h (1 Bft) N-NW 337 ° 0,000 mm 6,9 °C 15,6 °C 8,0 km/h (2 Bft) 100,00 %
02.05.2026 09:49 15,6 °C 55 % 1026,8 hPa 0,0 l/m² 4,8 km/h (1 Bft) N 360 ° 0,000 mm 6,6 °C 15,6 °C 8,0 km/h (2 Bft) 100,00 %
02.05.2026 09:48 15,6 °C 56 % 1026,8 hPa 0,0 l/m² 4,8 km/h (1 Bft) NO 45 ° 0,000 mm 6,9 °C 15,6 °C 8,0 km/h (2 Bft) 100,00 %
02.05.2026 09:47 15,5 °C 57 % 1026,7 hPa 0,0 l/m² 0,0 km/h (0 Bft) W-NW 292 ° 0,000 mm 7,0 °C 15,5 °C 1,6 km/h (1 Bft) 100,00 %
02.05.2026 09:46 15,3 °C 57 % 1026,7 hPa 0,0 l/m² 3,2 km/h (1 Bft) S-SW 202 ° 0,000 mm 6,8 °C 15,3 °C 6,4 km/h (2 Bft) 100,00 %
02.05.2026 09:45 15,2 °C 58 % 1026,8 hPa 0,0 l/m² 3,2 km/h (1 Bft) S-SW 202 ° 0,000 mm 7,0 °C 15,2 °C 4,8 km/h (1 Bft) 100,00 %
02.05.2026 09:44 15,1 °C 57 % 1026,9 hPa 0,0 l/m² 1,6 km/h (1 Bft) SW 225 ° 0,000 mm 6,6 °C 15,1 °C 6,4 km/h (2 Bft) 100,00 %
02.05.2026 09:43 14,9 °C 57 % 1026,7 hPa 0,0 l/m² 3,2 km/h (1 Bft) W-NW 292 ° 0,000 mm 6,5 °C 14,9 °C 4,8 km/h (1 Bft) 100,00 %
02.05.2026 09:42 14,9 °C 57 % 1026,8 hPa 0,0 l/m² 3,2 km/h (1 Bft) NW 315 ° 0,000 mm 6,5 °C 14,9 °C 8,0 km/h (2 Bft) 100,00 %
02.05.2026 09:41 14,9 °C 57 % 1026,8 hPa 0,0 l/m² 6,4 km/h (2 Bft) NO 45 ° 0,000 mm 6,5 °C 14,9 °C 9,7 km/h (2 Bft) 95,65 %
02.05.2026 09:40 14,8 °C 58 % 1026,8 hPa 0,0 l/m² 1,6 km/h (1 Bft) S-SW 202 ° 0,000 mm 6,6 °C 14,8 °C 3,2 km/h (1 Bft) 100,00 %
02.05.2026 09:39 14,7 °C 58 % 1026,9 hPa 0,0 l/m² 4,8 km/h (1 Bft) NO 45 ° 0,000 mm 6,5 °C 14,7 °C 8,0 km/h (2 Bft) 100,00 %
02.05.2026 09:38 14,6 °C 57 % 1026,9 hPa 0,0 l/m² 4,8 km/h (1 Bft) NO 45 ° 0,000 mm 6,2 °C 14,6 °C 8,0 km/h (2 Bft) 91,30 %
02.05.2026 09:37 14,6 °C 58 % 1026,8 hPa 0,0 l/m² 1,6 km/h (1 Bft) N-NW 337 ° 0,000 mm 6,4 °C 14,6 °C 6,4 km/h (2 Bft) 100,00 %
02.05.2026 09:36 14,4 °C 58 % 1026,9 hPa 0,0 l/m² 1,6 km/h (1 Bft) S-SW 202 ° 0,000 mm 6,2 °C 14,4 °C 3,2 km/h (1 Bft) 95,65 %
02.05.2026 09:35 14,4 °C 58 % 1026,8 hPa 0,0 l/m² 4,8 km/h (1 Bft) NO 45 ° 0,000 mm 6,2 °C 14,4 °C 4,8 km/h (1 Bft) 100,00 %
02.05.2026 09:34 14,4 °C 58 % 1026,9 hPa 0,0 l/m² 4,8 km/h (1 Bft) NW 315 ° 0,000 mm 6,2 °C 14,4 °C 6,4 km/h (2 Bft) 100,00 %
02.05.2026 09:33 14,4 °C 58 % 1026,8 hPa 0,0 l/m² 4,8 km/h (1 Bft) N-NO 22 ° 0,000 mm 6,2 °C 14,4 °C 8,0 km/h (2 Bft) 100,00 %
02.05.2026 09:32 14,4 °C 58 % 1026,9 hPa 0,0 l/m² 6,4 km/h (2 Bft) N-NW 337 ° 0,000 mm 6,2 °C 14,4 °C 12,9 km/h (3 Bft) 100,00 %
02.05.2026 09:31 14,4 °C 59 % 1026,8 hPa 0,0 l/m² 4,8 km/h (1 Bft) NO 45 ° 0,000 mm 6,5 °C 14,4 °C 12,9 km/h (3 Bft) 100,00 %
02.05.2026 09:30 14,3 °C 59 % 1026,9 hPa 0,0 l/m² 1,6 km/h (1 Bft) W 270 ° 0,000 mm 6,4 °C 14,3 °C 4,8 km/h (1 Bft) 100,00 %
02.05.2026 09:29 14,3 °C 59 % 1026,8 hPa 0,0 l/m² 3,2 km/h (1 Bft) N 360 ° 0,000 mm 6,4 °C 14,3 °C 4,8 km/h (1 Bft) 100,00 %
02.05.2026 09:28 14,2 °C 60 % 1026,8 hPa 0,0 l/m² 3,2 km/h (1 Bft) N-NW 337 ° 0,000 mm 6,5 °C 14,2 °C 4,8 km/h (1 Bft) 100,00 %
02.05.2026 09:27 14,2 °C 59 % 1026,8 hPa 0,0 l/m² 6,4 km/h (2 Bft) NO 45 ° 0,000 mm 6,3 °C 14,2 °C 9,7 km/h (2 Bft) 91,30 %
02.05.2026 09:26 14,2 °C 60 % 1026,8 hPa 0,0 l/m² 4,8 km/h (1 Bft) N-NO 22 ° 0,000 mm 6,5 °C 14,2 °C 9,7 km/h (2 Bft) 95,65 %
02.05.2026 09:25 14,2 °C 61 % 1026,8 hPa 0,0 l/m² 3,2 km/h (1 Bft) N-NW 337 ° 0,000 mm 6,8 °C 14,2 °C 6,4 km/h (2 Bft) 100,00 %
02.05.2026 09:24 14,1 °C 61 % 1026,7 hPa 0,0 l/m² 1,6 km/h (1 Bft) S-SO 157 ° 0,000 mm 6,7 °C 14,1 °C 4,8 km/h (1 Bft) 100,00 %
02.05.2026 09:23 14,0 °C 61 % 1026,8 hPa 0,0 l/m² 1,6 km/h (1 Bft) W 270 ° 0,000 mm 6,6 °C 14,0 °C 4,8 km/h (1 Bft) 100,00 %
02.05.2026 09:22 13,8 °C 61 % 1026,9 hPa 0,0 l/m² 1,6 km/h (1 Bft) NW 315 ° 0,000 mm 6,4 °C 13,8 °C 4,8 km/h (1 Bft) 100,00 %
02.05.2026 09:21 13,7 °C 62 % 1026,8 hPa 0,0 l/m² 1,6 km/h (1 Bft) N-NO 22 ° 0,000 mm 6,6 °C 13,7 °C 3,2 km/h (1 Bft) 100,00 %
02.05.2026 09:20 13,6 °C 62 % 1026,9 hPa 0,0 l/m² 1,6 km/h (1 Bft) W-SW 247 ° 0,000 mm 6,5 °C 13,6 °C 3,2 km/h (1 Bft) 100,00 %
02.05.2026 09:19 13,4 °C 62 % 1026,8 hPa 0,0 l/m² 0,0 km/h (0 Bft) W-SW 247 ° 0,000 mm 6,3 °C 13,4 °C 1,6 km/h (1 Bft) 100,00 %
02.05.2026 09:18 13,3 °C 62 % 1026,9 hPa 0,0 l/m² 1,6 km/h (1 Bft) W-SW 247 ° 0,000 mm 6,2 °C 13,3 °C 3,2 km/h (1 Bft) 100,00 %
02.05.2026 09:17 13,2 °C 62 % 1026,9 hPa 0,0 l/m² 4,8 km/h (1 Bft) W-NW 292 ° 0,000 mm 6,1 °C 13,2 °C 9,7 km/h (2 Bft) 100,00 %
02.05.2026 09:16 13,1 °C 62 % 1027,0 hPa 0,0 l/m² 4,8 km/h (1 Bft) N 360 ° 0,000 mm 6,0 °C 13,1 °C 11,3 km/h (2 Bft) 100,00 %
02.05.2026 09:15 13,1 °C 62 % 1027,0 hPa 0,0 l/m² 8,0 km/h (2 Bft) N-NO 22 ° 0,000 mm 6,0 °C 12,1 °C 11,3 km/h (2 Bft) 91,30 %
02.05.2026 09:14 13,1 °C 63 % 1027,0 hPa 0,0 l/m² 4,8 km/h (1 Bft) N-NW 337 ° 0,000 mm 6,2 °C 13,1 °C 9,7 km/h (2 Bft) 100,00 %
02.05.2026 09:13 12,9 °C 63 % 1027,0 hPa 0,0 l/m² 4,8 km/h (1 Bft) N-NO 22 ° 0,000 mm 6,0 °C 12,9 °C 8,0 km/h (2 Bft) 100,00 %
02.05.2026 09:12 12,9 °C 64 % 1027,0 hPa 0,0 l/m² 3,2 km/h (1 Bft) N 360 ° 0,000 mm 6,3 °C 12,9 °C 6,4 km/h (2 Bft) 100,00 %
02.05.2026 09:11 12,8 °C 63 % 1027,0 hPa 0,0 l/m² 3,2 km/h (1 Bft) N-NO 22 ° 0,000 mm 5,9 °C 12,8 °C 6,4 km/h (2 Bft) 100,00 %
02.05.2026 09:10 12,7 °C 64 % 1027,0 hPa 0,0 l/m² 1,6 km/h (1 Bft) N-NW 337 ° 0,000 mm 6,1 °C 12,7 °C 3,2 km/h (1 Bft) 100,00 %
02.05.2026 09:09 12,7 °C 65 % 1027,0 hPa 0,0 l/m² 3,2 km/h (1 Bft) NW 315 ° 0,000 mm 6,3 °C 12,7 °C 6,4 km/h (2 Bft) 100,00 %
02.05.2026 09:08 12,6 °C 65 % 1027,0 hPa 0,0 l/m² 3,2 km/h (1 Bft) NW 315 ° 0,000 mm 6,2 °C 12,6 °C 3,2 km/h (1 Bft) 100,00 %
02.05.2026 09:07 12,6 °C 64 % 1027,0 hPa 0,0 l/m² 1,6 km/h (1 Bft) NW 315 ° 0,000 mm 6,0 °C 12,6 °C 4,8 km/h (1 Bft) 100,00 %
02.05.2026 09:06 12,6 °C 64 % 1027,1 hPa 0,0 l/m² 1,6 km/h (1 Bft) NW 315 ° 0,000 mm 6,0 °C 12,6 °C 3,2 km/h (1 Bft) 100,00 %
02.05.2026 09:05 12,5 °C 65 % 1027,1 hPa 0,0 l/m² 3,2 km/h (1 Bft) N-NW 337 ° 0,000 mm 6,1 °C 12,5 °C 4,8 km/h (1 Bft) 100,00 %
02.05.2026 09:04 12,5 °C 64 % 1027,1 hPa 0,0 l/m² 3,2 km/h (1 Bft) W-NW 292 ° 0,000 mm 5,9 °C 12,5 °C 4,8 km/h (1 Bft) 95,65 %
02.05.2026 09:03 12,4 °C 65 % 1027,1 hPa 0,0 l/m² 1,6 km/h (1 Bft) N 360 ° 0,000 mm 6,0 °C 12,4 °C 3,2 km/h (1 Bft) 100,00 %
02.05.2026 09:02 12,3 °C 65 % 1027,2 hPa 0,0 l/m² 1,6 km/h (1 Bft) W-NW 292 ° 0,000 mm 5,9 °C 12,3 °C 4,8 km/h (1 Bft) 100,00 %
02.05.2026 09:01 12,3 °C 65 % 1027,1 hPa 0,0 l/m² 3,2 km/h (1 Bft) W-NW 292 ° 0,000 mm 5,9 °C 12,3 °C 4,8 km/h (1 Bft) 100,00 %
02.05.2026 09:00 12,2 °C 65 % 1027,1 hPa 0,0 l/m² 3,2 km/h (1 Bft) NW 315 ° 0,000 mm 5,8 °C 12,2 °C 6,4 km/h (2 Bft) 100,00 %
02.05.2026 08:59 12,2 °C 65 % 1027,2 hPa 0,0 l/m² 1,6 km/h (1 Bft) W-SW 247 ° 0,000 mm 5,8 °C 12,2 °C 3,2 km/h (1 Bft) 100,00 %
02.05.2026 08:58 12,1 °C 64 % 1027,1 hPa 0,0 l/m² 0,0 km/h (0 Bft) W-SW 247 ° 0,000 mm 5,5 °C 12,1 °C 1,6 km/h (1 Bft) 100,00 %
02.05.2026 08:57 12,1 °C 64 % 1027,2 hPa 0,0 l/m² 3,2 km/h (1 Bft) W-NW 292 ° 0,000 mm 5,5 °C 12,1 °C 6,4 km/h (2 Bft) 100,00 %
02.05.2026 08:56 11,9 °C 66 % 1027,2 hPa 0,0 l/m² 1,6 km/h (1 Bft) W 270 ° 0,000 mm 5,8 °C 11,9 °C 6,4 km/h (2 Bft) 100,00 %
02.05.2026 08:55 11,9 °C 66 % 1027,2 hPa 0,0 l/m² 0,0 km/h (0 Bft) W-NW 292 ° 0,000 mm 5,8 °C 11,9 °C 1,6 km/h (1 Bft) 95,65 %
02.05.2026 08:54 11,8 °C 66 % 1027,3 hPa 0,0 l/m² 3,2 km/h (1 Bft) W 270 ° 0,000 mm 5,7 °C 11,8 °C 4,8 km/h (1 Bft) 100,00 %
02.05.2026 08:53 11,7 °C 65 % 1027,3 hPa 0,0 l/m² 3,2 km/h (1 Bft) N-NW 337 ° 0,000 mm 5,3 °C 11,7 °C 3,2 km/h (1 Bft) 95,65 %
02.05.2026 08:52 11,6 °C 66 % 1027,3 hPa 0,0 l/m² 3,2 km/h (1 Bft) NW 315 ° 0,000 mm 5,5 °C 11,6 °C 6,4 km/h (2 Bft) 100,00 %
02.05.2026 08:51 11,5 °C 66 % 1027,3 hPa 0,0 l/m² 3,2 km/h (1 Bft) W-NW 292 ° 0,000 mm 5,4 °C 11,5 °C 6,4 km/h (2 Bft) 100,00 %
02.05.2026 08:50 11,4 °C 65 % 1027,3 hPa 0,0 l/m² 3,2 km/h (1 Bft) W-NW 292 ° 0,000 mm 5,1 °C 11,4 °C 3,2 km/h (1 Bft) 100,00 %
02.05.2026 08:49 11,3 °C 66 % 1027,4 hPa 0,0 l/m² 1,6 km/h (1 Bft) W-NW 292 ° 0,000 mm 5,2 °C 11,3 °C 3,2 km/h (1 Bft) 100,00 %
02.05.2026 08:48 11,3 °C 65 % 1027,3 hPa 0,0 l/m² 3,2 km/h (1 Bft) W-NW 292 ° 0,000 mm 5,0 °C 11,3 °C 4,8 km/h (1 Bft) 100,00 %
02.05.2026 08:47 11,3 °C 65 % 1027,4 hPa 0,0 l/m² 3,2 km/h (1 Bft) W-NW 292 ° 0,000 mm 5,0 °C 11,3 °C 4,8 km/h (1 Bft) 100,00 %
02.05.2026 08:46 11,2 °C 66 % 1027,3 hPa 0,0 l/m² 1,6 km/h (1 Bft) W-NW 292 ° 0,000 mm 5,1 °C 11,2 °C 4,8 km/h (1 Bft) 100,00 %
02.05.2026 08:45 11,2 °C 67 % 1027,3 hPa 0,0 l/m² 1,6 km/h (1 Bft) W-NW 292 ° 0,000 mm 5,3 °C 11,2 °C 3,2 km/h (1 Bft) 100,00 %
02.05.2026 08:44 11,2 °C 67 % 1027,3 hPa 0,0 l/m² 1,6 km/h (1 Bft) W-NW 292 ° 0,000 mm 5,3 °C 11,2 °C 3,2 km/h (1 Bft) 100,00 %
02.05.2026 08:43 11,1 °C 66 % 1027,3 hPa 0,0 l/m² 1,6 km/h (1 Bft) W-NW 292 ° 0,000 mm 5,0 °C 11,1 °C 3,2 km/h (1 Bft) 100,00 %
02.05.2026 08:42 11,1 °C 66 % 1027,3 hPa 0,0 l/m² 1,6 km/h (1 Bft) W-NW 292 ° 0,000 mm 5,0 °C 11,1 °C 3,2 km/h (1 Bft) 100,00 %
02.05.2026 08:41 11,2 °C 66 % 1027,4 hPa 0,0 l/m² 3,2 km/h (1 Bft) NW 315 ° 0,000 mm 5,1 °C 11,2 °C 4,8 km/h (1 Bft) 100,00 %
02.05.2026 08:40 11,2 °C 67 % 1027,3 hPa 0,0 l/m² 1,6 km/h (1 Bft) W-NW 292 ° 0,000 mm 5,3 °C 11,2 °C 3,2 km/h (1 Bft) 100,00 %
02.05.2026 08:39 11,2 °C 67 % 1027,4 hPa 0,0 l/m² 1,6 km/h (1 Bft) W-NW 292 ° 0,000 mm 5,3 °C 11,2 °C 3,2 km/h (1 Bft) 100,00 %
02.05.2026 08:38 11,2 °C 67 % 1027,4 hPa 0,0 l/m² 1,6 km/h (1 Bft) W-NW 292 ° 0,000 mm 5,3 °C 11,2 °C 3,2 km/h (1 Bft) 100,00 %
02.05.2026 08:37 11,2 °C 67 % 1027,3 hPa 0,0 l/m² 1,6 km/h (1 Bft) W-NW 292 ° 0,000 mm 5,3 °C 11,2 °C 1,6 km/h (1 Bft) 100,00 %
02.05.2026 08:36 11,1 °C 67 % 1027,4 hPa 0,0 l/m² 0,0 km/h (0 Bft) W-NW 292 ° 0,000 mm 5,2 °C 11,1 °C 1,6 km/h (1 Bft) 95,65 %
02.05.2026 08:35 11,1 °C 67 % 1027,4 hPa 0,0 l/m² 1,6 km/h (1 Bft) W-NW 292 ° 0,000 mm 5,2 °C 11,1 °C 3,2 km/h (1 Bft) 100,00 %
02.05.2026 08:34 11,1 °C 66 % 1027,3 hPa 0,0 l/m² 0,0 km/h (0 Bft) W-NW 292 ° 0,000 mm 5,0 °C 11,1 °C 1,6 km/h (1 Bft) 95,65 %
02.05.2026 08:33 11,1 °C 66 % 1027,4 hPa 0,0 l/m² 0,0 km/h (0 Bft) N 0 ° 0,000 mm 5,0 °C 11,1 °C 0,0 km/h (0 Bft) 100,00 %
02.05.2026 08:32 11,1 °C 66 % 1027,3 hPa 0,0 l/m² 1,6 km/h (1 Bft) W-NW 292 ° 0,000 mm 5,0 °C 11,1 °C 1,6 km/h (1 Bft) 100,00 %
02.05.2026 08:31 11,1 °C 66 % 1027,4 hPa 0,0 l/m² 0,0 km/h (0 Bft) N 0 ° 0,000 mm 5,0 °C 11,1 °C 0,0 km/h (0 Bft) 100,00 %
02.05.2026 08:30 11,1 °C 66 % 1027,4 hPa 0,0 l/m² 0,0 km/h (0 Bft) N 0 ° 0,000 mm 5,0 °C 11,1 °C 0,0 km/h (0 Bft) 100,00 %
02.05.2026 08:29 10,9 °C 66 % 1027,3 hPa 0,0 l/m² 0,0 km/h (0 Bft) N 0 ° 0,000 mm 4,8 °C 10,9 °C 0,0 km/h (0 Bft) 100,00 %
02.05.2026 08:28 10,9 °C 66 % 1027,3 hPa 0,0 l/m² 0,0 km/h (0 Bft) N 0 ° 0,000 mm 4,8 °C 10,9 °C 0,0 km/h (0 Bft) 100,00 %
02.05.2026 08:27 10,8 °C 66 % 1027,4 hPa 0,0 l/m² 0,0 km/h (0 Bft) W-NW 292 ° 0,000 mm 4,7 °C 10,8 °C 1,6 km/h (1 Bft) 100,00 %
02.05.2026 08:26 10,7 °C 66 % 1027,4 hPa 0,0 l/m² 0,0 km/h (0 Bft) N 0 ° 0,000 mm 4,6 °C 10,7 °C 0,0 km/h (0 Bft) 100,00 %
02.05.2026 08:25 10,7 °C 66 % 1027,5 hPa 0,0 l/m² 0,0 km/h (0 Bft) W-NW 292 ° 0,000 mm 4,6 °C 10,7 °C 1,6 km/h (1 Bft) 100,00 %
02.05.2026 08:24 10,6 °C 66 % 1027,4 hPa 0,0 l/m² 0,0 km/h (0 Bft) W-NW 292 ° 0,000 mm 4,5 °C 10,6 °C 1,6 km/h (1 Bft) 95,65 %
02.05.2026 08:23 10,6 °C 66 % 1027,4 hPa 0,0 l/m² 1,6 km/h (1 Bft) NW 315 ° 0,000 mm 4,5 °C 10,6 °C 4,8 km/h (1 Bft) 100,00 %
02.05.2026 08:22 10,6 °C 66 % 1027,4 hPa 0,0 l/m² 0,0 km/h (0 Bft) W-NW 292 ° 0,000 mm 4,5 °C 10,6 °C 1,6 km/h (1 Bft) 100,00 %
02.05.2026 08:21 10,6 °C 65 % 1027,5 hPa 0,0 l/m² 1,6 km/h (1 Bft) W-NW 292 ° 0,000 mm 4,3 °C 10,6 °C 3,2 km/h (1 Bft) 100,00 %
02.05.2026 08:20 10,6 °C 65 % 1027,4 hPa 0,0 l/m² 1,6 km/h (1 Bft) W-NW 292 ° 0,000 mm 4,3 °C 10,6 °C 3,2 km/h (1 Bft) 100,00 %
02.05.2026 08:19 10,7 °C 64 % 1027,4 hPa 0,0 l/m² 1,6 km/h (1 Bft) W-NW 292 ° 0,000 mm 4,2 °C 10,7 °C 3,2 km/h (1 Bft) 95,65 %
02.05.2026 08:18 10,7 °C 64 % 1027,5 hPa 0,0 l/m² 1,6 km/h (1 Bft) W-NW 292 ° 0,000 mm 4,2 °C 10,7 °C 3,2 km/h (1 Bft) 100,00 %
02.05.2026 08:17 10,7 °C 64 % 1027,5 hPa 0,0 l/m² 1,6 km/h (1 Bft) W 270 ° 0,000 mm 4,2 °C 10,7 °C 3,2 km/h (1 Bft) 100,00 %
02.05.2026 08:16 10,8 °C 64 % 1027,5 hPa 0,0 l/m² 0,0 km/h (0 Bft) W 270 ° 0,000 mm 4,3 °C 10,8 °C 1,6 km/h (1 Bft) 100,00 %
02.05.2026 08:15 10,8 °C 64 % 1027,5 hPa 0,0 l/m² 0,0 km/h (0 Bft) W 270 ° 0,000 mm 4,3 °C 10,8 °C 1,6 km/h (1 Bft) 100,00 %
02.05.2026 08:14 10,8 °C 64 % 1027,5 hPa 0,0 l/m² 0,0 km/h (0 Bft) W-NW 292 ° 0,000 mm 4,3 °C 10,8 °C 1,6 km/h (1 Bft) 100,00 %
02.05.2026 08:13 10,7 °C 65 % 1027,5 hPa 0,0 l/m² 0,0 km/h (0 Bft) W 270 ° 0,000 mm 4,4 °C 10,7 °C 1,6 km/h (1 Bft) 100,00 %
02.05.2026 08:12 10,6 °C 67 % 1027,5 hPa 0,0 l/m² 0,0 km/h (0 Bft) N 0 ° 0,000 mm 4,7 °C 10,6 °C 0,0 km/h (0 Bft) 95,65 %
02.05.2026 08:11 10,4 °C 67 % 1027,5 hPa 0,0 l/m² 0,0 km/h (0 Bft) N 0 ° 0,000 mm 4,5 °C 10,4 °C 0,0 km/h (0 Bft) 100,00 %
02.05.2026 08:10 10,3 °C 67 % 1027,5 hPa 0,0 l/m² 0,0 km/h (0 Bft) N 0 ° 0,000 mm 4,4 °C 10,3 °C 0,0 km/h (0 Bft) 100,00 %
02.05.2026 08:09 10,3 °C 67 % 1027,5 hPa 0,0 l/m² 0,0 km/h (0 Bft) SW 225 ° 0,000 mm 4,4 °C 10,3 °C 1,6 km/h (1 Bft) 95,65 %
02.05.2026 08:08 10,2 °C 67 % 1027,6 hPa 0,0 l/m² 0,0 km/h (0 Bft) SW 225 ° 0,000 mm 4,4 °C 10,2 °C 1,6 km/h (1 Bft) 100,00 %
02.05.2026 08:07 10,2 °C 67 % 1027,5 hPa 0,0 l/m² 0,0 km/h (0 Bft) SW 225 ° 0,000 mm 4,4 °C 10,2 °C 1,6 km/h (1 Bft) 100,00 %
02.05.2026 08:06 10,1 °C 67 % 1027,5 hPa 0,0 l/m² 0,0 km/h (0 Bft) N 0 ° 0,000 mm 4,3 °C 10,1 °C 0,0 km/h (0 Bft) 100,00 %
02.05.2026 08:05 10,1 °C 67 % 1027,5 hPa 0,0 l/m² 0,0 km/h (0 Bft) SW 225 ° 0,000 mm 4,3 °C 10,1 °C 1,6 km/h (1 Bft) 100,00 %
02.05.2026 08:04 10,1 °C 68 % 1027,6 hPa 0,0 l/m² 3,2 km/h (1 Bft) SW 225 ° 0,000 mm 4,5 °C 10,1 °C 3,2 km/h (1 Bft) 100,00 %
02.05.2026 08:03 10,1 °C 68 % 1027,4 hPa 0,0 l/m² 0,0 km/h (0 Bft) W-SW 247 ° 0,000 mm 4,5 °C 10,1 °C 1,6 km/h (1 Bft) 100,00 %
02.05.2026 08:02 10,0 °C 68 % 1027,5 hPa 0,0 l/m² 0,0 km/h (0 Bft) W-SW 247 ° 0,000 mm 4,4 °C 10,0 °C 1,6 km/h (1 Bft) 100,00 %
02.05.2026 08:01 9,9 °C 69 % 1027,4 hPa 0,0 l/m² 0,0 km/h (0 Bft) N 0 ° 0,000 mm 4,5 °C 9,9 °C 0,0 km/h (0 Bft) 100,00 %
02.05.2026 08:00 9,8 °C 69 % 1027,5 hPa 0,0 l/m² 0,0 km/h (0 Bft) N 0 ° 0,000 mm 4,4 °C 9,8 °C 0,0 km/h (0 Bft) 100,00 %
_ Min-Zeit 05:49 17:08 05:07 - 08:00 - - - 17:57 05:49 08:00 03:11
Minimum _ 5,4 °C 15 % 1018,4 hPa - 0,0 km/h (0 Bft) - - - -3,9 °C 5,4 °C 0,0 km/h (0 Bft) 13,04 %
_ Max-Zeit 17:03 05:38 08:04 08:00 11:35 - - 08:00 10:51 17:04 11:46 08:00
Maximum _ 25,2 °C 83 % 1027,6 hPa 0,0 l/m² 14,5 km/h
N-NO (3 Bft)
- - 0,000 mm 8,1 °C 25,2 °C 22,5 km/h
N-NO (4 Bft)
100,00 %
Durchschnitt _ 15,6 °C 50 % 1022,1 hPa #0,0 l/m² 2,3 km/h (1 Bft) NO - #0,000 mm 3,5 °C 15,5 °C 4,5 km/h (1 Bft) 99,29 %